<?xml version="1.0" encoding="UTF-8" standalone="no" ?>
<gpx xmlns="http://www.topografix.com/GPX/1/1" xmlns:xsi="http://www.w3.org/2001/XMLSchema-instance" xsi:schemaLocation="http://www.topografix.com/GPX/1/1 http://www.topografix.com/GPX/1/1/gpx.xsd" version="1.1" creator="VisuGPX - https://www.visugpx.com">
  <metadata>
    <name>La Loire à vélo J1</name>
    <desc><![CDATA[Boucle  - Les Ponts de Cé - Bouchemaine - Angers gare - La Daguenière - Les Ponts de Cé]]></desc>
  </metadata>
  <trk>
    <name><![CDATA[La Loire en vélo J1]]></name>
    <cmt><![CDATA[À partir de la Piste Active]]></cmt>
    <trkseg>
      <trkpt lat="47.42484" lon="-0.52926">
        <ele>5.558594</ele>
        <time>2014-09-01T12:05:16.000Z</time>
      </trkpt>
      <trkpt lat="47.42484" lon="-0.52926">
        <ele>5.558594</ele>
        <time>2014-09-01T12:05:16.000Z</time>
      </trkpt>
      <trkpt lat="47.42484" lon="-0.52926">
        <ele>5.558594</ele>
        <time>2014-09-01T12:05:16.000Z</time>
      </trkpt>
      <trkpt lat="47.42483" lon="-0.52926">
        <ele>5.816406</ele>
        <time>2014-09-01T12:05:17.000Z</time>
      </trkpt>
      <trkpt lat="47.42489" lon="-0.52915">
        <ele>18.074219</ele>
        <time>2014-09-01T12:05:47.000Z</time>
      </trkpt>
      <trkpt lat="47.42498" lon="-0.52919">
        <ele>18</ele>
        <time>2014-09-01T12:06:09.000Z</time>
      </trkpt>
      <trkpt lat="47.42508" lon="-0.52919">
        <ele>18.097656</ele>
        <time>2014-09-01T12:06:18.000Z</time>
      </trkpt>
      <trkpt lat="47.42518" lon="-0.52918">
        <ele>18.199219</ele>
        <time>2014-09-01T12:06:21.000Z</time>
      </trkpt>
      <trkpt lat="47.42528" lon="-0.52913">
        <ele>18.199219</ele>
        <time>2014-09-01T12:06:24.000Z</time>
      </trkpt>
      <trkpt lat="47.42537" lon="-0.52907">
        <ele>18.097656</ele>
        <time>2014-09-01T12:06:27.000Z</time>
      </trkpt>
      <trkpt lat="47.42546" lon="-0.52913">
        <ele>17.597656</ele>
        <time>2014-09-01T12:06:31.000Z</time>
      </trkpt>
      <trkpt lat="47.42547" lon="-0.52926">
        <ele>14.5</ele>
        <time>2014-09-01T12:06:35.000Z</time>
      </trkpt>
      <trkpt lat="47.42548" lon="-0.52941">
        <ele>23.199219</ele>
        <time>2014-09-01T12:06:41.000Z</time>
      </trkpt>
      <trkpt lat="47.42539" lon="-0.52941">
        <ele>23.199219</ele>
        <time>2014-09-01T12:08:49.000Z</time>
      </trkpt>
      <trkpt lat="47.4254" lon="-0.52927">
        <ele>23</ele>
        <time>2014-09-01T12:08:53.000Z</time>
      </trkpt>
      <trkpt lat="47.4254" lon="-0.52913">
        <ele>23.097656</ele>
        <time>2014-09-01T12:08:56.000Z</time>
      </trkpt>
      <trkpt lat="47.4253" lon="-0.52911">
        <ele>23</ele>
        <time>2014-09-01T12:09:01.000Z</time>
      </trkpt>
      <trkpt lat="47.42521" lon="-0.52916">
        <ele>23</ele>
        <time>2014-09-01T12:09:04.000Z</time>
      </trkpt>
      <trkpt lat="47.4251" lon="-0.52919">
        <ele>23</ele>
        <time>2014-09-01T12:09:08.000Z</time>
      </trkpt>
      <trkpt lat="47.42497" lon="-0.52922">
        <ele>16.398438</ele>
        <time>2014-09-01T12:09:13.000Z</time>
      </trkpt>
      <trkpt lat="47.42487" lon="-0.52923">
        <ele>16.097656</ele>
        <time>2014-09-01T12:10:01.000Z</time>
      </trkpt>
      <trkpt lat="47.42478" lon="-0.5292">
        <ele>15.898438</ele>
        <time>2014-09-01T12:10:10.000Z</time>
      </trkpt>
      <trkpt lat="47.42467" lon="-0.52919">
        <ele>15.796875</ele>
        <time>2014-09-01T12:10:16.000Z</time>
      </trkpt>
      <trkpt lat="47.42459" lon="-0.52924">
        <ele>14.097656</ele>
        <time>2014-09-01T12:10:22.000Z</time>
      </trkpt>
      <trkpt lat="47.42456" lon="-0.52938">
        <ele>13.296875</ele>
        <time>2014-09-01T12:10:30.000Z</time>
      </trkpt>
      <trkpt lat="47.42455" lon="-0.52953">
        <ele>10.199219</ele>
        <time>2014-09-01T12:10:37.000Z</time>
      </trkpt>
      <trkpt lat="47.42454" lon="-0.5297">
        <ele>6.5</ele>
        <time>2014-09-01T12:10:43.000Z</time>
      </trkpt>
      <trkpt lat="47.42453" lon="-0.52985">
        <ele>12.734375</ele>
        <time>2014-09-01T12:10:48.000Z</time>
      </trkpt>
      <trkpt lat="47.4245" lon="-0.52998">
        <ele>32.625</ele>
        <time>2014-09-01T12:11:13.000Z</time>
      </trkpt>
      <trkpt lat="47.42444" lon="-0.53009">
        <ele>35.152344</ele>
        <time>2014-09-01T12:12:21.000Z</time>
      </trkpt>
      <trkpt lat="47.42439" lon="-0.53023">
        <ele>32.796875</ele>
        <time>2014-09-01T12:12:40.000Z</time>
      </trkpt>
      <trkpt lat="47.42439" lon="-0.53038">
        <ele>29.296875</ele>
        <time>2014-09-01T12:12:45.000Z</time>
      </trkpt>
      <trkpt lat="47.42439" lon="-0.53052">
        <ele>27.296875</ele>
        <time>2014-09-01T12:12:51.000Z</time>
      </trkpt>
      <trkpt lat="47.42448" lon="-0.53057">
        <ele>25.898438</ele>
        <time>2014-09-01T12:12:55.000Z</time>
      </trkpt>
      <trkpt lat="47.42453" lon="-0.5307">
        <ele>23.398438</ele>
        <time>2014-09-01T12:13:00.000Z</time>
      </trkpt>
      <trkpt lat="47.42457" lon="-0.53086">
        <ele>19.597656</ele>
        <time>2014-09-01T12:13:05.000Z</time>
      </trkpt>
      <trkpt lat="47.42459" lon="-0.53099">
        <ele>25.699219</ele>
        <time>2014-09-01T12:13:12.000Z</time>
      </trkpt>
      <trkpt lat="47.42453" lon="-0.53088">
        <ele>25.097656</ele>
        <time>2014-09-01T12:13:34.000Z</time>
      </trkpt>
      <trkpt lat="47.42454" lon="-0.53072">
        <ele>25</ele>
        <time>2014-09-01T12:13:38.000Z</time>
      </trkpt>
      <trkpt lat="47.42461" lon="-0.53063">
        <ele>25.5</ele>
        <time>2014-09-01T12:13:42.000Z</time>
      </trkpt>
      <trkpt lat="47.42471" lon="-0.5306">
        <ele>24.597656</ele>
        <time>2014-09-01T12:13:55.000Z</time>
      </trkpt>
      <trkpt lat="47.42476" lon="-0.53071">
        <ele>23.296875</ele>
        <time>2014-09-01T12:14:00.000Z</time>
      </trkpt>
      <trkpt lat="47.42486" lon="-0.53074">
        <ele>22.199219</ele>
        <time>2014-09-01T12:14:05.000Z</time>
      </trkpt>
      <trkpt lat="47.42496" lon="-0.53075">
        <ele>21.796875</ele>
        <time>2014-09-01T12:14:09.000Z</time>
      </trkpt>
      <trkpt lat="47.42487" lon="-0.53074">
        <ele>21.398438</ele>
        <time>2014-09-01T12:14:20.000Z</time>
      </trkpt>
      <trkpt lat="47.42478" lon="-0.53071">
        <ele>20.796875</ele>
        <time>2014-09-01T12:14:23.000Z</time>
      </trkpt>
      <trkpt lat="47.42467" lon="-0.53066">
        <ele>20.5</ele>
        <time>2014-09-01T12:14:27.000Z</time>
      </trkpt>
      <trkpt lat="47.42447" lon="-0.5306">
        <ele>20.097656</ele>
        <time>2014-09-01T12:14:33.000Z</time>
      </trkpt>
      <trkpt lat="47.42437" lon="-0.53053">
        <ele>19.296875</ele>
        <time>2014-09-01T12:14:36.000Z</time>
      </trkpt>
      <trkpt lat="47.42428" lon="-0.53045">
        <ele>17.398438</ele>
        <time>2014-09-01T12:14:39.000Z</time>
      </trkpt>
      <trkpt lat="47.42421" lon="-0.53033">
        <ele>15.597656</ele>
        <time>2014-09-01T12:14:42.000Z</time>
      </trkpt>
      <trkpt lat="47.42417" lon="-0.5302">
        <ele>14.199219</ele>
        <time>2014-09-01T12:14:45.000Z</time>
      </trkpt>
      <trkpt lat="47.42389" lon="-0.52931">
        <ele>13.597656</ele>
        <time>2014-09-01T12:14:59.000Z</time>
      </trkpt>
      <trkpt lat="47.42385" lon="-0.52917">
        <ele>14</ele>
        <time>2014-09-01T12:15:01.000Z</time>
      </trkpt>
      <trkpt lat="47.42382" lon="-0.52902">
        <ele>14.398438</ele>
        <time>2014-09-01T12:15:03.000Z</time>
      </trkpt>
      <trkpt lat="47.42383" lon="-0.52888">
        <ele>14</ele>
        <time>2014-09-01T12:15:05.000Z</time>
      </trkpt>
      <trkpt lat="47.42385" lon="-0.52873">
        <ele>11.5</ele>
        <time>2014-09-01T12:15:08.000Z</time>
      </trkpt>
      <trkpt lat="47.4239" lon="-0.52859">
        <ele>9.5</ele>
        <time>2014-09-01T12:15:13.000Z</time>
      </trkpt>
      <trkpt lat="47.42392" lon="-0.52842">
        <ele>9.898438</ele>
        <time>2014-09-01T12:15:17.000Z</time>
      </trkpt>
      <trkpt lat="47.42394" lon="-0.52827">
        <ele>10.5</ele>
        <time>2014-09-01T12:15:20.000Z</time>
      </trkpt>
      <trkpt lat="47.42399" lon="-0.52813">
        <ele>10.796875</ele>
        <time>2014-09-01T12:15:23.000Z</time>
      </trkpt>
      <trkpt lat="47.42404" lon="-0.528">
        <ele>10</ele>
        <time>2014-09-01T12:15:26.000Z</time>
      </trkpt>
      <trkpt lat="47.42422" lon="-0.5276">
        <ele>10</ele>
        <time>2014-09-01T12:15:35.000Z</time>
      </trkpt>
      <trkpt lat="47.42431" lon="-0.52749">
        <ele>9.398438</ele>
        <time>2014-09-01T12:15:38.000Z</time>
      </trkpt>
      <trkpt lat="47.42435" lon="-0.52734">
        <ele>8.898438</ele>
        <time>2014-09-01T12:15:41.000Z</time>
      </trkpt>
      <trkpt lat="47.42439" lon="-0.52718">
        <ele>9.097656</ele>
        <time>2014-09-01T12:15:44.000Z</time>
      </trkpt>
      <trkpt lat="47.42471" lon="-0.52572">
        <ele>14.699219</ele>
        <time>2014-09-01T12:16:11.000Z</time>
      </trkpt>
      <trkpt lat="47.42473" lon="-0.52556">
        <ele>17.597656</ele>
        <time>2014-09-01T12:16:15.000Z</time>
      </trkpt>
      <trkpt lat="47.42471" lon="-0.52541">
        <ele>18.5</ele>
        <time>2014-09-01T12:16:22.000Z</time>
      </trkpt>
      <trkpt lat="47.42471" lon="-0.52525">
        <ele>19.5</ele>
        <time>2014-09-01T12:16:25.000Z</time>
      </trkpt>
      <trkpt lat="47.42478" lon="-0.52513">
        <ele>20.296875</ele>
        <time>2014-09-01T12:16:28.000Z</time>
      </trkpt>
      <trkpt lat="47.42488" lon="-0.52515">
        <ele>20.898438</ele>
        <time>2014-09-01T12:16:31.000Z</time>
      </trkpt>
      <trkpt lat="47.42498" lon="-0.5252">
        <ele>21.097656</ele>
        <time>2014-09-01T12:16:34.000Z</time>
      </trkpt>
      <trkpt lat="47.42517" lon="-0.52532">
        <ele>22</ele>
        <time>2014-09-01T12:16:40.000Z</time>
      </trkpt>
      <trkpt lat="47.42613" lon="-0.52595">
        <ele>21.597656</ele>
        <time>2014-09-01T12:17:07.000Z</time>
      </trkpt>
      <trkpt lat="47.42753" lon="-0.527">
        <ele>31.898438</ele>
        <time>2014-09-01T12:17:40.000Z</time>
      </trkpt>
      <trkpt lat="47.42764" lon="-0.52717">
        <ele>36.796875</ele>
        <time>2014-09-01T12:17:48.000Z</time>
      </trkpt>
      <trkpt lat="47.42773" lon="-0.52728">
        <ele>40.796875</ele>
        <time>2014-09-01T12:17:51.000Z</time>
      </trkpt>
      <trkpt lat="47.42781" lon="-0.52737">
        <ele>38.898438</ele>
        <time>2014-09-01T12:17:53.000Z</time>
      </trkpt>
      <trkpt lat="47.42793" lon="-0.52743">
        <ele>38</ele>
        <time>2014-09-01T12:17:55.000Z</time>
      </trkpt>
      <trkpt lat="47.42828" lon="-0.52762">
        <ele>38</ele>
        <time>2014-09-01T12:18:01.000Z</time>
      </trkpt>
      <trkpt lat="47.42838" lon="-0.52764">
        <ele>35</ele>
        <time>2014-09-01T12:18:03.000Z</time>
      </trkpt>
      <trkpt lat="47.42852" lon="-0.5277">
        <ele>34.796875</ele>
        <time>2014-09-01T12:18:05.000Z</time>
      </trkpt>
      <trkpt lat="47.42864" lon="-0.52777">
        <ele>30.699219</ele>
        <time>2014-09-01T12:18:07.000Z</time>
      </trkpt>
      <trkpt lat="47.42879" lon="-0.52782">
        <ele>31</ele>
        <time>2014-09-01T12:18:09.000Z</time>
      </trkpt>
      <trkpt lat="47.42889" lon="-0.52787">
        <ele>36.296875</ele>
        <time>2014-09-01T12:18:11.000Z</time>
      </trkpt>
      <trkpt lat="47.42897" lon="-0.52794">
        <ele>44.699219</ele>
        <time>2014-09-01T12:18:14.000Z</time>
      </trkpt>
      <trkpt lat="47.42907" lon="-0.52798">
        <ele>42.5</ele>
        <time>2014-09-01T12:18:25.000Z</time>
      </trkpt>
      <trkpt lat="47.42921" lon="-0.52798">
        <ele>45</ele>
        <time>2014-09-01T12:18:31.000Z</time>
      </trkpt>
      <trkpt lat="47.42931" lon="-0.52799">
        <ele>41.5</ele>
        <time>2014-09-01T12:18:34.000Z</time>
      </trkpt>
      <trkpt lat="47.42943" lon="-0.52805">
        <ele>37.898438</ele>
        <time>2014-09-01T12:18:37.000Z</time>
      </trkpt>
      <trkpt lat="47.42947" lon="-0.52819">
        <ele>35.199219</ele>
        <time>2014-09-01T12:18:40.000Z</time>
      </trkpt>
      <trkpt lat="47.42949" lon="-0.52834">
        <ele>34.597656</ele>
        <time>2014-09-01T12:18:43.000Z</time>
      </trkpt>
      <trkpt lat="47.42946" lon="-0.52852">
        <ele>33.5</ele>
        <time>2014-09-01T12:18:46.000Z</time>
      </trkpt>
      <trkpt lat="47.42945" lon="-0.5287">
        <ele>30.296875</ele>
        <time>2014-09-01T12:18:49.000Z</time>
      </trkpt>
      <trkpt lat="47.42954" lon="-0.52879">
        <ele>30.398438</ele>
        <time>2014-09-01T12:18:52.000Z</time>
      </trkpt>
      <trkpt lat="47.42967" lon="-0.52881">
        <ele>29.898438</ele>
        <time>2014-09-01T12:18:55.000Z</time>
      </trkpt>
      <trkpt lat="47.43018" lon="-0.52893">
        <ele>25.796875</ele>
        <time>2014-09-01T12:19:06.000Z</time>
      </trkpt>
      <trkpt lat="47.43024" lon="-0.52907">
        <ele>26</ele>
        <time>2014-09-01T12:19:14.000Z</time>
      </trkpt>
      <trkpt lat="47.43031" lon="-0.52916">
        <ele>26.097656</ele>
        <time>2014-09-01T12:19:19.000Z</time>
      </trkpt>
      <trkpt lat="47.43041" lon="-0.52919">
        <ele>25.898438</ele>
        <time>2014-09-01T12:19:22.000Z</time>
      </trkpt>
      <trkpt lat="47.43052" lon="-0.52922">
        <ele>25.398438</ele>
        <time>2014-09-01T12:19:25.000Z</time>
      </trkpt>
      <trkpt lat="47.43063" lon="-0.52927">
        <ele>24</ele>
        <time>2014-09-01T12:19:28.000Z</time>
      </trkpt>
      <trkpt lat="47.43065" lon="-0.52941">
        <ele>24</ele>
        <time>2014-09-01T12:19:35.000Z</time>
      </trkpt>
      <trkpt lat="47.43067" lon="-0.52954">
        <ele>24.199219</ele>
        <time>2014-09-01T12:19:42.000Z</time>
      </trkpt>
      <trkpt lat="47.43066" lon="-0.52972">
        <ele>23.796875</ele>
        <time>2014-09-01T12:19:46.000Z</time>
      </trkpt>
      <trkpt lat="47.43066" lon="-0.53007">
        <ele>23.699219</ele>
        <time>2014-09-01T12:19:51.000Z</time>
      </trkpt>
      <trkpt lat="47.43064" lon="-0.53022">
        <ele>23.796875</ele>
        <time>2014-09-01T12:19:53.000Z</time>
      </trkpt>
      <trkpt lat="47.43061" lon="-0.53037">
        <ele>23.796875</ele>
        <time>2014-09-01T12:19:55.000Z</time>
      </trkpt>
      <trkpt lat="47.43037" lon="-0.53126">
        <ele>21.199219</ele>
        <time>2014-09-01T12:20:07.000Z</time>
      </trkpt>
      <trkpt lat="47.42877" lon="-0.53682">
        <ele>22.597656</ele>
        <time>2014-09-01T12:21:25.000Z</time>
      </trkpt>
      <trkpt lat="47.42872" lon="-0.53693">
        <ele>22.597656</ele>
        <time>2014-09-01T12:21:27.000Z</time>
      </trkpt>
      <trkpt lat="47.42867" lon="-0.53705">
        <ele>22.699219</ele>
        <time>2014-09-01T12:21:29.000Z</time>
      </trkpt>
      <trkpt lat="47.42864" lon="-0.53717">
        <ele>22.597656</ele>
        <time>2014-09-01T12:21:31.000Z</time>
      </trkpt>
      <trkpt lat="47.42687" lon="-0.54337">
        <ele>24.699219</ele>
        <time>2014-09-01T12:23:01.000Z</time>
      </trkpt>
      <trkpt lat="47.42684" lon="-0.54351">
        <ele>25</ele>
        <time>2014-09-01T12:23:03.000Z</time>
      </trkpt>
      <trkpt lat="47.4268" lon="-0.54365">
        <ele>25.398438</ele>
        <time>2014-09-01T12:23:05.000Z</time>
      </trkpt>
      <trkpt lat="47.42539" lon="-0.54857">
        <ele>23.097656</ele>
        <time>2014-09-01T12:24:13.000Z</time>
      </trkpt>
      <trkpt lat="47.42533" lon="-0.54871">
        <ele>23.199219</ele>
        <time>2014-09-01T12:24:15.000Z</time>
      </trkpt>
      <trkpt lat="47.42527" lon="-0.54884">
        <ele>23.199219</ele>
        <time>2014-09-01T12:24:17.000Z</time>
      </trkpt>
      <trkpt lat="47.4252" lon="-0.54894">
        <ele>23.199219</ele>
        <time>2014-09-01T12:24:19.000Z</time>
      </trkpt>
      <trkpt lat="47.42512" lon="-0.54904">
        <ele>23.097656</ele>
        <time>2014-09-01T12:24:21.000Z</time>
      </trkpt>
      <trkpt lat="47.42503" lon="-0.54913">
        <ele>23.097656</ele>
        <time>2014-09-01T12:24:23.000Z</time>
      </trkpt>
      <trkpt lat="47.42401" lon="-0.55018">
        <ele>23.699219</ele>
        <time>2014-09-01T12:24:47.000Z</time>
      </trkpt>
      <trkpt lat="47.42393" lon="-0.55032">
        <ele>24</ele>
        <time>2014-09-01T12:24:50.000Z</time>
      </trkpt>
      <trkpt lat="47.42385" lon="-0.55042">
        <ele>24.199219</ele>
        <time>2014-09-01T12:24:53.000Z</time>
      </trkpt>
      <trkpt lat="47.4235" lon="-0.55082">
        <ele>24.5</ele>
        <time>2014-09-01T12:25:05.000Z</time>
      </trkpt>
      <trkpt lat="47.42346" lon="-0.55095">
        <ele>23.796875</ele>
        <time>2014-09-01T12:25:08.000Z</time>
      </trkpt>
      <trkpt lat="47.42347" lon="-0.55113">
        <ele>22.199219</ele>
        <time>2014-09-01T12:25:11.000Z</time>
      </trkpt>
      <trkpt lat="47.42349" lon="-0.55126">
        <ele>20.796875</ele>
        <time>2014-09-01T12:25:13.000Z</time>
      </trkpt>
      <trkpt lat="47.42356" lon="-0.55168">
        <ele>19.796875</ele>
        <time>2014-09-01T12:25:19.000Z</time>
      </trkpt>
      <trkpt lat="47.42358" lon="-0.55183">
        <ele>20</ele>
        <time>2014-09-01T12:25:21.000Z</time>
      </trkpt>
      <trkpt lat="47.42361" lon="-0.5523">
        <ele>19.597656</ele>
        <time>2014-09-01T12:25:29.000Z</time>
      </trkpt>
      <trkpt lat="47.4236" lon="-0.55245">
        <ele>19.796875</ele>
        <time>2014-09-01T12:25:32.000Z</time>
      </trkpt>
      <trkpt lat="47.42352" lon="-0.55261">
        <ele>19.898438</ele>
        <time>2014-09-01T12:25:35.000Z</time>
      </trkpt>
      <trkpt lat="47.42332" lon="-0.55296">
        <ele>20.398438</ele>
        <time>2014-09-01T12:25:41.000Z</time>
      </trkpt>
      <trkpt lat="47.42318" lon="-0.55319">
        <ele>20.699219</ele>
        <time>2014-09-01T12:25:45.000Z</time>
      </trkpt>
      <trkpt lat="47.42167" lon="-0.55576">
        <ele>20.898438</ele>
        <time>2014-09-01T12:26:29.000Z</time>
      </trkpt>
      <trkpt lat="47.42162" lon="-0.55589">
        <ele>20.898438</ele>
        <time>2014-09-01T12:26:31.000Z</time>
      </trkpt>
      <trkpt lat="47.42129" lon="-0.55666">
        <ele>20.796875</ele>
        <time>2014-09-01T12:26:43.000Z</time>
      </trkpt>
      <trkpt lat="47.42121" lon="-0.55692">
        <ele>21</ele>
        <time>2014-09-01T12:26:47.000Z</time>
      </trkpt>
      <trkpt lat="47.42113" lon="-0.55707">
        <ele>20.597656</ele>
        <time>2014-09-01T12:26:50.000Z</time>
      </trkpt>
      <trkpt lat="47.42101" lon="-0.55712">
        <ele>19.898438</ele>
        <time>2014-09-01T12:26:53.000Z</time>
      </trkpt>
      <trkpt lat="47.42092" lon="-0.55709">
        <ele>18.699219</ele>
        <time>2014-09-01T12:26:55.000Z</time>
      </trkpt>
      <trkpt lat="47.42083" lon="-0.55704">
        <ele>17.5</ele>
        <time>2014-09-01T12:26:57.000Z</time>
      </trkpt>
      <trkpt lat="47.42062" lon="-0.55691">
        <ele>16.699219</ele>
        <time>2014-09-01T12:27:03.000Z</time>
      </trkpt>
      <trkpt lat="47.42051" lon="-0.55695">
        <ele>16.5</ele>
        <time>2014-09-01T12:27:07.000Z</time>
      </trkpt>
      <trkpt lat="47.42041" lon="-0.55703">
        <ele>16.199219</ele>
        <time>2014-09-01T12:27:10.000Z</time>
      </trkpt>
      <trkpt lat="47.42032" lon="-0.55715">
        <ele>16.199219</ele>
        <time>2014-09-01T12:27:13.000Z</time>
      </trkpt>
      <trkpt lat="47.42024" lon="-0.55728">
        <ele>16.097656</ele>
        <time>2014-09-01T12:27:16.000Z</time>
      </trkpt>
      <trkpt lat="47.42017" lon="-0.55743">
        <ele>16.199219</ele>
        <time>2014-09-01T12:27:19.000Z</time>
      </trkpt>
      <trkpt lat="47.41989" lon="-0.55807">
        <ele>17.597656</ele>
        <time>2014-09-01T12:27:34.000Z</time>
      </trkpt>
      <trkpt lat="47.41986" lon="-0.55821">
        <ele>18</ele>
        <time>2014-09-01T12:27:37.000Z</time>
      </trkpt>
      <trkpt lat="47.41983" lon="-0.55835">
        <ele>18.398438</ele>
        <time>2014-09-01T12:27:40.000Z</time>
      </trkpt>
      <trkpt lat="47.41982" lon="-0.55851">
        <ele>18.796875</ele>
        <time>2014-09-01T12:27:43.000Z</time>
      </trkpt>
      <trkpt lat="47.41978" lon="-0.55869">
        <ele>19</ele>
        <time>2014-09-01T12:27:46.000Z</time>
      </trkpt>
      <trkpt lat="47.41968" lon="-0.55928">
        <ele>19.796875</ele>
        <time>2014-09-01T12:27:55.000Z</time>
      </trkpt>
      <trkpt lat="47.41967" lon="-0.55942">
        <ele>19.898438</ele>
        <time>2014-09-01T12:27:58.000Z</time>
      </trkpt>
      <trkpt lat="47.41973" lon="-0.55956">
        <ele>20.097656</ele>
        <time>2014-09-01T12:28:02.000Z</time>
      </trkpt>
      <trkpt lat="47.41975" lon="-0.5597">
        <ele>20.199219</ele>
        <time>2014-09-01T12:28:05.000Z</time>
      </trkpt>
      <trkpt lat="47.41974" lon="-0.55988">
        <ele>20.296875</ele>
        <time>2014-09-01T12:28:08.000Z</time>
      </trkpt>
      <trkpt lat="47.41954" lon="-0.56299">
        <ele>23.796875</ele>
        <time>2014-09-01T12:28:48.000Z</time>
      </trkpt>
      <trkpt lat="47.41952" lon="-0.56314">
        <ele>23.796875</ele>
        <time>2014-09-01T12:28:50.000Z</time>
      </trkpt>
      <trkpt lat="47.41951" lon="-0.5633">
        <ele>23.796875</ele>
        <time>2014-09-01T12:28:52.000Z</time>
      </trkpt>
      <trkpt lat="47.419" lon="-0.56882">
        <ele>24.199219</ele>
        <time>2014-09-01T12:30:06.000Z</time>
      </trkpt>
      <trkpt lat="47.41903" lon="-0.569">
        <ele>24.199219</ele>
        <time>2014-09-01T12:30:09.000Z</time>
      </trkpt>
      <trkpt lat="47.41912" lon="-0.56905">
        <ele>24</ele>
        <time>2014-09-01T12:30:13.000Z</time>
      </trkpt>
      <trkpt lat="47.41922" lon="-0.56906">
        <ele>23.898438</ele>
        <time>2014-09-01T12:30:17.000Z</time>
      </trkpt>
      <trkpt lat="47.41931" lon="-0.5691">
        <ele>23.796875</ele>
        <time>2014-09-01T12:30:20.000Z</time>
      </trkpt>
      <trkpt lat="47.4194" lon="-0.56913">
        <ele>23.796875</ele>
        <time>2014-09-01T12:30:23.000Z</time>
      </trkpt>
      <trkpt lat="47.41951" lon="-0.56915">
        <ele>23.898438</ele>
        <time>2014-09-01T12:30:26.000Z</time>
      </trkpt>
      <trkpt lat="47.41964" lon="-0.56912">
        <ele>24.097656</ele>
        <time>2014-09-01T12:30:29.000Z</time>
      </trkpt>
      <trkpt lat="47.41976" lon="-0.56908">
        <ele>24.097656</ele>
        <time>2014-09-01T12:30:32.000Z</time>
      </trkpt>
      <trkpt lat="47.41999" lon="-0.56897">
        <ele>24.796875</ele>
        <time>2014-09-01T12:30:38.000Z</time>
      </trkpt>
      <trkpt lat="47.42011" lon="-0.56896">
        <ele>25.699219</ele>
        <time>2014-09-01T12:30:41.000Z</time>
      </trkpt>
      <trkpt lat="47.42023" lon="-0.56898">
        <ele>27.199219</ele>
        <time>2014-09-01T12:30:44.000Z</time>
      </trkpt>
      <trkpt lat="47.42047" lon="-0.56901">
        <ele>28.796875</ele>
        <time>2014-09-01T12:30:50.000Z</time>
      </trkpt>
      <trkpt lat="47.42107" lon="-0.56907">
        <ele>32.097656</ele>
        <time>2014-09-01T12:31:06.000Z</time>
      </trkpt>
      <trkpt lat="47.42111" lon="-0.5692">
        <ele>31.5</ele>
        <time>2014-09-01T12:31:10.000Z</time>
      </trkpt>
      <trkpt lat="47.42107" lon="-0.56939">
        <ele>31.199219</ele>
        <time>2014-09-01T12:31:13.000Z</time>
      </trkpt>
      <trkpt lat="47.42099" lon="-0.56966">
        <ele>30.398438</ele>
        <time>2014-09-01T12:31:17.000Z</time>
      </trkpt>
      <trkpt lat="47.42097" lon="-0.56981">
        <ele>30</ele>
        <time>2014-09-01T12:31:19.000Z</time>
      </trkpt>
      <trkpt lat="47.42092" lon="-0.56996">
        <ele>29.699219</ele>
        <time>2014-09-01T12:31:21.000Z</time>
      </trkpt>
      <trkpt lat="47.42072" lon="-0.57059">
        <ele>27.699219</ele>
        <time>2014-09-01T12:31:29.000Z</time>
      </trkpt>
      <trkpt lat="47.42058" lon="-0.57089">
        <ele>26.898438</ele>
        <time>2014-09-01T12:31:33.000Z</time>
      </trkpt>
      <trkpt lat="47.42016" lon="-0.57209">
        <ele>25.5</ele>
        <time>2014-09-01T12:31:47.000Z</time>
      </trkpt>
      <trkpt lat="47.41982" lon="-0.57307">
        <ele>26.296875</ele>
        <time>2014-09-01T12:31:59.000Z</time>
      </trkpt>
      <trkpt lat="47.41977" lon="-0.57321">
        <ele>26.398438</ele>
        <time>2014-09-01T12:32:01.000Z</time>
      </trkpt>
      <trkpt lat="47.41965" lon="-0.57348">
        <ele>26.398438</ele>
        <time>2014-09-01T12:32:05.000Z</time>
      </trkpt>
      <trkpt lat="47.41958" lon="-0.5736">
        <ele>26.296875</ele>
        <time>2014-09-01T12:32:07.000Z</time>
      </trkpt>
      <trkpt lat="47.41942" lon="-0.57384">
        <ele>26.597656</ele>
        <time>2014-09-01T12:32:11.000Z</time>
      </trkpt>
      <trkpt lat="47.41924" lon="-0.57407">
        <ele>26.398438</ele>
        <time>2014-09-01T12:32:15.000Z</time>
      </trkpt>
      <trkpt lat="47.41918" lon="-0.57421">
        <ele>26.296875</ele>
        <time>2014-09-01T12:32:17.000Z</time>
      </trkpt>
      <trkpt lat="47.4191" lon="-0.57436">
        <ele>25.898438</ele>
        <time>2014-09-01T12:32:19.000Z</time>
      </trkpt>
      <trkpt lat="47.41893" lon="-0.57463">
        <ele>25.296875</ele>
        <time>2014-09-01T12:32:23.000Z</time>
      </trkpt>
      <trkpt lat="47.41877" lon="-0.57488">
        <ele>24.398438</ele>
        <time>2014-09-01T12:32:27.000Z</time>
      </trkpt>
      <trkpt lat="47.4187" lon="-0.57501">
        <ele>23.5</ele>
        <time>2014-09-01T12:32:29.000Z</time>
      </trkpt>
      <trkpt lat="47.41864" lon="-0.57513">
        <ele>22.699219</ele>
        <time>2014-09-01T12:32:31.000Z</time>
      </trkpt>
      <trkpt lat="47.41859" lon="-0.57526">
        <ele>22.699219</ele>
        <time>2014-09-01T12:32:33.000Z</time>
      </trkpt>
      <trkpt lat="47.41847" lon="-0.57567">
        <ele>24</ele>
        <time>2014-09-01T12:32:39.000Z</time>
      </trkpt>
      <trkpt lat="47.4184" lon="-0.57595">
        <ele>24.597656</ele>
        <time>2014-09-01T12:32:43.000Z</time>
      </trkpt>
      <trkpt lat="47.41809" lon="-0.57724">
        <ele>24.097656</ele>
        <time>2014-09-01T12:33:01.000Z</time>
      </trkpt>
      <trkpt lat="47.41799" lon="-0.57785">
        <ele>25.296875</ele>
        <time>2014-09-01T12:33:09.000Z</time>
      </trkpt>
      <trkpt lat="47.41798" lon="-0.578">
        <ele>25.097656</ele>
        <time>2014-09-01T12:33:11.000Z</time>
      </trkpt>
      <trkpt lat="47.41797" lon="-0.57816">
        <ele>25</ele>
        <time>2014-09-01T12:33:13.000Z</time>
      </trkpt>
      <trkpt lat="47.41795" lon="-0.57831">
        <ele>25.199219</ele>
        <time>2014-09-01T12:33:15.000Z</time>
      </trkpt>
      <trkpt lat="47.41774" lon="-0.57977">
        <ele>25.898438</ele>
        <time>2014-09-01T12:33:35.000Z</time>
      </trkpt>
      <trkpt lat="47.41773" lon="-0.57993">
        <ele>25.898438</ele>
        <time>2014-09-01T12:33:37.000Z</time>
      </trkpt>
      <trkpt lat="47.41767" lon="-0.58104">
        <ele>23.597656</ele>
        <time>2014-09-01T12:33:51.000Z</time>
      </trkpt>
      <trkpt lat="47.41771" lon="-0.58243">
        <ele>21.597656</ele>
        <time>2014-09-01T12:34:07.000Z</time>
      </trkpt>
      <trkpt lat="47.41772" lon="-0.58258">
        <ele>21.898438</ele>
        <time>2014-09-01T12:34:09.000Z</time>
      </trkpt>
      <trkpt lat="47.41775" lon="-0.58275">
        <ele>21.296875</ele>
        <time>2014-09-01T12:34:12.000Z</time>
      </trkpt>
      <trkpt lat="47.41774" lon="-0.5829">
        <ele>20.597656</ele>
        <time>2014-09-01T12:34:16.000Z</time>
      </trkpt>
      <trkpt lat="47.41771" lon="-0.58307">
        <ele>20.296875</ele>
        <time>2014-09-01T12:34:19.000Z</time>
      </trkpt>
      <trkpt lat="47.41771" lon="-0.58322">
        <ele>20</ele>
        <time>2014-09-01T12:34:21.000Z</time>
      </trkpt>
      <trkpt lat="47.41771" lon="-0.58491">
        <ele>13.5</ele>
        <time>2014-09-01T12:34:43.000Z</time>
      </trkpt>
      <trkpt lat="47.4177" lon="-0.58507">
        <ele>13.5</ele>
        <time>2014-09-01T12:34:45.000Z</time>
      </trkpt>
      <trkpt lat="47.41762" lon="-0.5865">
        <ele>13.699219</ele>
        <time>2014-09-01T12:35:03.000Z</time>
      </trkpt>
      <trkpt lat="47.41758" lon="-0.587">
        <ele>14.796875</ele>
        <time>2014-09-01T12:35:09.000Z</time>
      </trkpt>
      <trkpt lat="47.41747" lon="-0.58844">
        <ele>22.597656</ele>
        <time>2014-09-01T12:35:27.000Z</time>
      </trkpt>
      <trkpt lat="47.41742" lon="-0.58962">
        <ele>27.898438</ele>
        <time>2014-09-01T12:35:41.000Z</time>
      </trkpt>
      <trkpt lat="47.41743" lon="-0.59028">
        <ele>30.398438</ele>
        <time>2014-09-01T12:35:49.000Z</time>
      </trkpt>
      <trkpt lat="47.41746" lon="-0.59076">
        <ele>29.5</ele>
        <time>2014-09-01T12:35:55.000Z</time>
      </trkpt>
      <trkpt lat="47.41753" lon="-0.59191">
        <ele>28.097656</ele>
        <time>2014-09-01T12:36:09.000Z</time>
      </trkpt>
      <trkpt lat="47.41762" lon="-0.59323">
        <ele>26.796875</ele>
        <time>2014-09-01T12:36:25.000Z</time>
      </trkpt>
      <trkpt lat="47.4178" lon="-0.59468">
        <ele>22.296875</ele>
        <time>2014-09-01T12:36:43.000Z</time>
      </trkpt>
      <trkpt lat="47.41801" lon="-0.59611">
        <ele>23.699219</ele>
        <time>2014-09-01T12:37:02.000Z</time>
      </trkpt>
      <trkpt lat="47.41805" lon="-0.59625">
        <ele>23.796875</ele>
        <time>2014-09-01T12:37:06.000Z</time>
      </trkpt>
      <trkpt lat="47.41808" lon="-0.59638">
        <ele>23.597656</ele>
        <time>2014-09-01T12:37:14.000Z</time>
      </trkpt>
      <trkpt lat="47.41818" lon="-0.59636">
        <ele>23.699219</ele>
        <time>2014-09-01T12:37:18.000Z</time>
      </trkpt>
      <trkpt lat="47.41839" lon="-0.5963">
        <ele>22.597656</ele>
        <time>2014-09-01T12:37:25.000Z</time>
      </trkpt>
      <trkpt lat="47.4185" lon="-0.59634">
        <ele>22.199219</ele>
        <time>2014-09-01T12:37:29.000Z</time>
      </trkpt>
      <trkpt lat="47.41856" lon="-0.59645">
        <ele>21.898438</ele>
        <time>2014-09-01T12:37:32.000Z</time>
      </trkpt>
      <trkpt lat="47.41859" lon="-0.59659">
        <ele>21.699219</ele>
        <time>2014-09-01T12:37:35.000Z</time>
      </trkpt>
      <trkpt lat="47.4186" lon="-0.59678">
        <ele>21.597656</ele>
        <time>2014-09-01T12:37:38.000Z</time>
      </trkpt>
      <trkpt lat="47.41899" lon="-0.60383">
        <ele>21.597656</ele>
        <time>2014-09-01T12:39:04.000Z</time>
      </trkpt>
      <trkpt lat="47.41908" lon="-0.60447">
        <ele>21.796875</ele>
        <time>2014-09-01T12:39:12.000Z</time>
      </trkpt>
      <trkpt lat="47.41921" lon="-0.6051">
        <ele>22.097656</ele>
        <time>2014-09-01T12:39:20.000Z</time>
      </trkpt>
      <trkpt lat="47.41948" lon="-0.60633">
        <ele>22.097656</ele>
        <time>2014-09-01T12:39:39.000Z</time>
      </trkpt>
      <trkpt lat="47.41959" lon="-0.60631">
        <ele>22.097656</ele>
        <time>2014-09-01T12:39:44.000Z</time>
      </trkpt>
      <trkpt lat="47.41965" lon="-0.60647">
        <ele>22.296875</ele>
        <time>2014-09-01T12:39:48.000Z</time>
      </trkpt>
      <trkpt lat="47.42083" lon="-0.60971">
        <ele>21.296875</ele>
        <time>2014-09-01T12:40:45.000Z</time>
      </trkpt>
      <trkpt lat="47.42091" lon="-0.6098">
        <ele>21</ele>
        <time>2014-09-01T12:40:48.000Z</time>
      </trkpt>
      <trkpt lat="47.42104" lon="-0.60986">
        <ele>20.796875</ele>
        <time>2014-09-01T12:40:51.000Z</time>
      </trkpt>
      <trkpt lat="47.42114" lon="-0.60998">
        <ele>20.597656</ele>
        <time>2014-09-01T12:40:54.000Z</time>
      </trkpt>
      <trkpt lat="47.42125" lon="-0.61008">
        <ele>20.699219</ele>
        <time>2014-09-01T12:40:57.000Z</time>
      </trkpt>
      <trkpt lat="47.42136" lon="-0.61013">
        <ele>19.796875</ele>
        <time>2014-09-01T12:41:00.000Z</time>
      </trkpt>
      <trkpt lat="47.42147" lon="-0.61008">
        <ele>18.5</ele>
        <time>2014-09-01T12:41:04.000Z</time>
      </trkpt>
      <trkpt lat="47.42154" lon="-0.60994">
        <ele>17.796875</ele>
        <time>2014-09-01T12:41:08.000Z</time>
      </trkpt>
      <trkpt lat="47.42157" lon="-0.60976">
        <ele>17.398438</ele>
        <time>2014-09-01T12:41:11.000Z</time>
      </trkpt>
      <trkpt lat="47.42171" lon="-0.60896">
        <ele>17.296875</ele>
        <time>2014-09-01T12:41:23.000Z</time>
      </trkpt>
      <trkpt lat="47.42183" lon="-0.60826">
        <ele>17.597656</ele>
        <time>2014-09-01T12:41:33.000Z</time>
      </trkpt>
      <trkpt lat="47.42186" lon="-0.60811">
        <ele>17.796875</ele>
        <time>2014-09-01T12:41:35.000Z</time>
      </trkpt>
      <trkpt lat="47.42191" lon="-0.60797">
        <ele>18.097656</ele>
        <time>2014-09-01T12:41:37.000Z</time>
      </trkpt>
      <trkpt lat="47.42197" lon="-0.60784">
        <ele>18.199219</ele>
        <time>2014-09-01T12:41:39.000Z</time>
      </trkpt>
      <trkpt lat="47.42204" lon="-0.60772">
        <ele>18.199219</ele>
        <time>2014-09-01T12:41:41.000Z</time>
      </trkpt>
      <trkpt lat="47.4221" lon="-0.60762">
        <ele>18.097656</ele>
        <time>2014-09-01T12:41:43.000Z</time>
      </trkpt>
      <trkpt lat="47.42221" lon="-0.60751">
        <ele>18</ele>
        <time>2014-09-01T12:41:46.000Z</time>
      </trkpt>
      <trkpt lat="47.42249" lon="-0.60723">
        <ele>18.199219</ele>
        <time>2014-09-01T12:41:53.000Z</time>
      </trkpt>
      <trkpt lat="47.42258" lon="-0.60716">
        <ele>18.199219</ele>
        <time>2014-09-01T12:41:55.000Z</time>
      </trkpt>
      <trkpt lat="47.42298" lon="-0.60687">
        <ele>17.597656</ele>
        <time>2014-09-01T12:42:05.000Z</time>
      </trkpt>
      <trkpt lat="47.42365" lon="-0.60643">
        <ele>17.097656</ele>
        <time>2014-09-01T12:42:19.000Z</time>
      </trkpt>
      <trkpt lat="47.42374" lon="-0.60635">
        <ele>17.199219</ele>
        <time>2014-09-01T12:42:21.000Z</time>
      </trkpt>
      <trkpt lat="47.42383" lon="-0.60626">
        <ele>17.199219</ele>
        <time>2014-09-01T12:42:23.000Z</time>
      </trkpt>
      <trkpt lat="47.42391" lon="-0.60616">
        <ele>17.097656</ele>
        <time>2014-09-01T12:42:25.000Z</time>
      </trkpt>
      <trkpt lat="47.42398" lon="-0.60605">
        <ele>17.199219</ele>
        <time>2014-09-01T12:42:27.000Z</time>
      </trkpt>
      <trkpt lat="47.42407" lon="-0.60596">
        <ele>17.296875</ele>
        <time>2014-09-01T12:42:29.000Z</time>
      </trkpt>
      <trkpt lat="47.42442" lon="-0.6056">
        <ele>17.597656</ele>
        <time>2014-09-01T12:42:37.000Z</time>
      </trkpt>
      <trkpt lat="47.42452" lon="-0.60554">
        <ele>17.597656</ele>
        <time>2014-09-01T12:42:39.000Z</time>
      </trkpt>
      <trkpt lat="47.42473" lon="-0.60544">
        <ele>17.796875</ele>
        <time>2014-09-01T12:42:43.000Z</time>
      </trkpt>
      <trkpt lat="47.42543" lon="-0.60511">
        <ele>19.296875</ele>
        <time>2014-09-01T12:42:57.000Z</time>
      </trkpt>
      <trkpt lat="47.42552" lon="-0.60508">
        <ele>20.296875</ele>
        <time>2014-09-01T12:42:59.000Z</time>
      </trkpt>
      <trkpt lat="47.42564" lon="-0.60511">
        <ele>19.898438</ele>
        <time>2014-09-01T12:43:02.000Z</time>
      </trkpt>
      <trkpt lat="47.42574" lon="-0.60503">
        <ele>20.097656</ele>
        <time>2014-09-01T12:43:06.000Z</time>
      </trkpt>
      <trkpt lat="47.4258" lon="-0.60491">
        <ele>20.097656</ele>
        <time>2014-09-01T12:43:09.000Z</time>
      </trkpt>
      <trkpt lat="47.42586" lon="-0.6048">
        <ele>19.699219</ele>
        <time>2014-09-01T12:43:14.000Z</time>
      </trkpt>
      <trkpt lat="47.42595" lon="-0.60475">
        <ele>19.597656</ele>
        <time>2014-09-01T12:43:17.000Z</time>
      </trkpt>
      <trkpt lat="47.42607" lon="-0.60472">
        <ele>19.597656</ele>
        <time>2014-09-01T12:43:21.000Z</time>
      </trkpt>
      <trkpt lat="47.42618" lon="-0.60468">
        <ele>19.5</ele>
        <time>2014-09-01T12:43:24.000Z</time>
      </trkpt>
      <trkpt lat="47.4263" lon="-0.60461">
        <ele>19.5</ele>
        <time>2014-09-01T12:43:27.000Z</time>
      </trkpt>
      <trkpt lat="47.42641" lon="-0.60459">
        <ele>19.097656</ele>
        <time>2014-09-01T12:43:30.000Z</time>
      </trkpt>
      <trkpt lat="47.42651" lon="-0.60458">
        <ele>18.597656</ele>
        <time>2014-09-01T12:43:33.000Z</time>
      </trkpt>
      <trkpt lat="47.42747" lon="-0.60455">
        <ele>15.199219</ele>
        <time>2014-09-01T12:43:52.000Z</time>
      </trkpt>
      <trkpt lat="47.42757" lon="-0.60453">
        <ele>15.597656</ele>
        <time>2014-09-01T12:43:54.000Z</time>
      </trkpt>
      <trkpt lat="47.42766" lon="-0.60451">
        <ele>15.699219</ele>
        <time>2014-09-01T12:43:56.000Z</time>
      </trkpt>
      <trkpt lat="47.42775" lon="-0.60452">
        <ele>15.597656</ele>
        <time>2014-09-01T12:43:58.000Z</time>
      </trkpt>
      <trkpt lat="47.42786" lon="-0.60458">
        <ele>15.398438</ele>
        <time>2014-09-01T12:44:01.000Z</time>
      </trkpt>
      <trkpt lat="47.4281" lon="-0.60468">
        <ele>14.898438</ele>
        <time>2014-09-01T12:44:07.000Z</time>
      </trkpt>
      <trkpt lat="47.42821" lon="-0.60471">
        <ele>14.097656</ele>
        <time>2014-09-01T12:44:09.000Z</time>
      </trkpt>
      <trkpt lat="47.42942" lon="-0.60501">
        <ele>5.5</ele>
        <time>2014-09-01T12:44:31.000Z</time>
      </trkpt>
      <trkpt lat="47.42953" lon="-0.60502">
        <ele>5.699219</ele>
        <time>2014-09-01T12:44:33.000Z</time>
      </trkpt>
      <trkpt lat="47.43027" lon="-0.60503">
        <ele>4.398438</ele>
        <time>2014-09-01T12:44:47.000Z</time>
      </trkpt>
      <trkpt lat="47.43048" lon="-0.605">
        <ele>3.898438</ele>
        <time>2014-09-01T12:44:51.000Z</time>
      </trkpt>
      <trkpt lat="47.43173" lon="-0.60482">
        <ele>7.296875</ele>
        <time>2014-09-01T12:45:15.000Z</time>
      </trkpt>
      <trkpt lat="47.43184" lon="-0.60482">
        <ele>7.898438</ele>
        <time>2014-09-01T12:45:17.000Z</time>
      </trkpt>
      <trkpt lat="47.43195" lon="-0.60483">
        <ele>8.5</ele>
        <time>2014-09-01T12:45:19.000Z</time>
      </trkpt>
      <trkpt lat="47.43206" lon="-0.60485">
        <ele>8.898438</ele>
        <time>2014-09-01T12:45:21.000Z</time>
      </trkpt>
      <trkpt lat="47.43216" lon="-0.60488">
        <ele>8.898438</ele>
        <time>2014-09-01T12:45:23.000Z</time>
      </trkpt>
      <trkpt lat="47.43259" lon="-0.60502">
        <ele>8.097656</ele>
        <time>2014-09-01T12:45:31.000Z</time>
      </trkpt>
      <trkpt lat="47.43281" lon="-0.60505">
        <ele>8.597656</ele>
        <time>2014-09-01T12:45:35.000Z</time>
      </trkpt>
      <trkpt lat="47.43333" lon="-0.60504">
        <ele>8.898438</ele>
        <time>2014-09-01T12:45:45.000Z</time>
      </trkpt>
      <trkpt lat="47.4337" lon="-0.60505">
        <ele>9.597656</ele>
        <time>2014-09-01T12:45:53.000Z</time>
      </trkpt>
      <trkpt lat="47.4338" lon="-0.60508">
        <ele>9.699219</ele>
        <time>2014-09-01T12:45:55.000Z</time>
      </trkpt>
      <trkpt lat="47.43391" lon="-0.60509">
        <ele>10.398438</ele>
        <time>2014-09-01T12:45:57.000Z</time>
      </trkpt>
      <trkpt lat="47.43401" lon="-0.60508">
        <ele>10.898438</ele>
        <time>2014-09-01T12:45:59.000Z</time>
      </trkpt>
      <trkpt lat="47.43412" lon="-0.60505">
        <ele>12</ele>
        <time>2014-09-01T12:46:02.000Z</time>
      </trkpt>
      <trkpt lat="47.43422" lon="-0.605">
        <ele>12.5</ele>
        <time>2014-09-01T12:46:05.000Z</time>
      </trkpt>
      <trkpt lat="47.43484" lon="-0.60468">
        <ele>11.296875</ele>
        <time>2014-09-01T12:46:19.000Z</time>
      </trkpt>
      <trkpt lat="47.43495" lon="-0.60466">
        <ele>11.5</ele>
        <time>2014-09-01T12:46:21.000Z</time>
      </trkpt>
      <trkpt lat="47.43517" lon="-0.60462">
        <ele>11.199219</ele>
        <time>2014-09-01T12:46:25.000Z</time>
      </trkpt>
      <trkpt lat="47.43527" lon="-0.60457">
        <ele>10.699219</ele>
        <time>2014-09-01T12:46:27.000Z</time>
      </trkpt>
      <trkpt lat="47.43538" lon="-0.6045">
        <ele>10.199219</ele>
        <time>2014-09-01T12:46:29.000Z</time>
      </trkpt>
      <trkpt lat="47.43547" lon="-0.60442">
        <ele>9.796875</ele>
        <time>2014-09-01T12:46:31.000Z</time>
      </trkpt>
      <trkpt lat="47.43566" lon="-0.60424">
        <ele>9.597656</ele>
        <time>2014-09-01T12:46:35.000Z</time>
      </trkpt>
      <trkpt lat="47.43577" lon="-0.60417">
        <ele>9.597656</ele>
        <time>2014-09-01T12:46:37.000Z</time>
      </trkpt>
      <trkpt lat="47.43605" lon="-0.60396">
        <ele>8.5</ele>
        <time>2014-09-01T12:46:43.000Z</time>
      </trkpt>
      <trkpt lat="47.43616" lon="-0.60392">
        <ele>8.597656</ele>
        <time>2014-09-01T12:46:45.000Z</time>
      </trkpt>
      <trkpt lat="47.43627" lon="-0.6039">
        <ele>8.296875</ele>
        <time>2014-09-01T12:46:47.000Z</time>
      </trkpt>
      <trkpt lat="47.43648" lon="-0.60386">
        <ele>8.296875</ele>
        <time>2014-09-01T12:46:51.000Z</time>
      </trkpt>
      <trkpt lat="47.43658" lon="-0.60382">
        <ele>8.296875</ele>
        <time>2014-09-01T12:46:53.000Z</time>
      </trkpt>
      <trkpt lat="47.43668" lon="-0.60377">
        <ele>8.296875</ele>
        <time>2014-09-01T12:46:55.000Z</time>
      </trkpt>
      <trkpt lat="47.43706" lon="-0.60352">
        <ele>8.097656</ele>
        <time>2014-09-01T12:47:03.000Z</time>
      </trkpt>
      <trkpt lat="47.43862" lon="-0.60239">
        <ele>6.398438</ele>
        <time>2014-09-01T12:47:38.000Z</time>
      </trkpt>
      <trkpt lat="47.4388" lon="-0.60224">
        <ele>6.699219</ele>
        <time>2014-09-01T12:47:42.000Z</time>
      </trkpt>
      <trkpt lat="47.44038" lon="-0.601">
        <ele>4.097656</ele>
        <time>2014-09-01T12:48:16.000Z</time>
      </trkpt>
      <trkpt lat="47.44046" lon="-0.60091">
        <ele>3.5</ele>
        <time>2014-09-01T12:48:18.000Z</time>
      </trkpt>
      <trkpt lat="47.44054" lon="-0.60082">
        <ele>2.796875</ele>
        <time>2014-09-01T12:48:20.000Z</time>
      </trkpt>
      <trkpt lat="47.44062" lon="-0.60074">
        <ele>2.199219</ele>
        <time>2014-09-01T12:48:22.000Z</time>
      </trkpt>
      <trkpt lat="47.44247" lon="-0.59897">
        <ele>5.199219</ele>
        <time>2014-09-01T12:49:07.000Z</time>
      </trkpt>
      <trkpt lat="47.44347" lon="-0.59801">
        <ele>7.5</ele>
        <time>2014-09-01T12:49:29.000Z</time>
      </trkpt>
      <trkpt lat="47.44356" lon="-0.59792">
        <ele>8.199219</ele>
        <time>2014-09-01T12:49:31.000Z</time>
      </trkpt>
      <trkpt lat="47.44372" lon="-0.59775">
        <ele>8.796875</ele>
        <time>2014-09-01T12:49:35.000Z</time>
      </trkpt>
      <trkpt lat="47.44418" lon="-0.59736">
        <ele>16.597656</ele>
        <time>2014-09-01T12:49:50.000Z</time>
      </trkpt>
      <trkpt lat="47.44426" lon="-0.59724">
        <ele>17.199219</ele>
        <time>2014-09-01T12:49:55.000Z</time>
      </trkpt>
      <trkpt lat="47.44434" lon="-0.59715">
        <ele>18.296875</ele>
        <time>2014-09-01T12:49:58.000Z</time>
      </trkpt>
      <trkpt lat="47.44444" lon="-0.59712">
        <ele>19.199219</ele>
        <time>2014-09-01T12:50:01.000Z</time>
      </trkpt>
      <trkpt lat="47.44454" lon="-0.59704">
        <ele>19.796875</ele>
        <time>2014-09-01T12:50:05.000Z</time>
      </trkpt>
      <trkpt lat="47.44544" lon="-0.59631">
        <ele>20.796875</ele>
        <time>2014-09-01T12:50:28.000Z</time>
      </trkpt>
      <trkpt lat="47.44597" lon="-0.596">
        <ele>18.398438</ele>
        <time>2014-09-01T12:50:38.000Z</time>
      </trkpt>
      <trkpt lat="47.44607" lon="-0.59595">
        <ele>17.898438</ele>
        <time>2014-09-01T12:50:40.000Z</time>
      </trkpt>
      <trkpt lat="47.44813" lon="-0.59516">
        <ele>15.898438</ele>
        <time>2014-09-01T12:51:20.000Z</time>
      </trkpt>
      <trkpt lat="47.44833" lon="-0.5951">
        <ele>15.796875</ele>
        <time>2014-09-01T12:51:24.000Z</time>
      </trkpt>
      <trkpt lat="47.44842" lon="-0.59506">
        <ele>15.199219</ele>
        <time>2014-09-01T12:51:26.000Z</time>
      </trkpt>
      <trkpt lat="47.44867" lon="-0.59494">
        <ele>14.597656</ele>
        <time>2014-09-01T12:51:32.000Z</time>
      </trkpt>
      <trkpt lat="47.4489" lon="-0.59479">
        <ele>13.796875</ele>
        <time>2014-09-01T12:51:37.000Z</time>
      </trkpt>
      <trkpt lat="47.44899" lon="-0.59472">
        <ele>13.5</ele>
        <time>2014-09-01T12:51:39.000Z</time>
      </trkpt>
      <trkpt lat="47.44906" lon="-0.59465">
        <ele>13.296875</ele>
        <time>2014-09-01T12:51:41.000Z</time>
      </trkpt>
      <trkpt lat="47.44914" lon="-0.59455">
        <ele>13.097656</ele>
        <time>2014-09-01T12:51:43.000Z</time>
      </trkpt>
      <trkpt lat="47.4493" lon="-0.59436">
        <ele>12.398438</ele>
        <time>2014-09-01T12:51:47.000Z</time>
      </trkpt>
      <trkpt lat="47.44938" lon="-0.59425">
        <ele>12</ele>
        <time>2014-09-01T12:51:49.000Z</time>
      </trkpt>
      <trkpt lat="47.44945" lon="-0.59413">
        <ele>12.296875</ele>
        <time>2014-09-01T12:51:51.000Z</time>
      </trkpt>
      <trkpt lat="47.44958" lon="-0.5939">
        <ele>13.296875</ele>
        <time>2014-09-01T12:51:55.000Z</time>
      </trkpt>
      <trkpt lat="47.44996" lon="-0.59316">
        <ele>14.898438</ele>
        <time>2014-09-01T12:52:07.000Z</time>
      </trkpt>
      <trkpt lat="47.45002" lon="-0.59302">
        <ele>15.199219</ele>
        <time>2014-09-01T12:52:10.000Z</time>
      </trkpt>
      <trkpt lat="47.4501" lon="-0.59289">
        <ele>15.199219</ele>
        <time>2014-09-01T12:52:13.000Z</time>
      </trkpt>
      <trkpt lat="47.45023" lon="-0.59265">
        <ele>12.5</ele>
        <time>2014-09-01T12:52:20.000Z</time>
      </trkpt>
      <trkpt lat="47.45033" lon="-0.59259">
        <ele>21.699219</ele>
        <time>2014-09-01T12:52:34.000Z</time>
      </trkpt>
      <trkpt lat="47.45028" lon="-0.59275">
        <ele>21.097656</ele>
        <time>2014-09-01T12:54:07.000Z</time>
      </trkpt>
      <trkpt lat="47.45022" lon="-0.59288">
        <ele>20.398438</ele>
        <time>2014-09-01T12:54:10.000Z</time>
      </trkpt>
      <trkpt lat="47.44983" lon="-0.5937">
        <ele>19.898438</ele>
        <time>2014-09-01T12:54:25.000Z</time>
      </trkpt>
      <trkpt lat="47.44979" lon="-0.59382">
        <ele>22.699219</ele>
        <time>2014-09-01T12:54:29.000Z</time>
      </trkpt>
      <trkpt lat="47.44983" lon="-0.59395">
        <ele>20.898438</ele>
        <time>2014-09-01T12:54:51.000Z</time>
      </trkpt>
      <trkpt lat="47.44991" lon="-0.59421">
        <ele>17.097656</ele>
        <time>2014-09-01T12:55:00.000Z</time>
      </trkpt>
      <trkpt lat="47.44998" lon="-0.59431">
        <ele>16.5</ele>
        <time>2014-09-01T12:55:03.000Z</time>
      </trkpt>
      <trkpt lat="47.45009" lon="-0.59433">
        <ele>16</ele>
        <time>2014-09-01T12:55:06.000Z</time>
      </trkpt>
      <trkpt lat="47.45045" lon="-0.59435">
        <ele>13.398438</ele>
        <time>2014-09-01T12:55:14.000Z</time>
      </trkpt>
      <trkpt lat="47.45058" lon="-0.59436">
        <ele>13.398438</ele>
        <time>2014-09-01T12:55:17.000Z</time>
      </trkpt>
      <trkpt lat="47.45068" lon="-0.59434">
        <ele>13.699219</ele>
        <time>2014-09-01T12:55:19.000Z</time>
      </trkpt>
      <trkpt lat="47.4509" lon="-0.59431">
        <ele>14.796875</ele>
        <time>2014-09-01T12:55:23.000Z</time>
      </trkpt>
      <trkpt lat="47.45101" lon="-0.59432">
        <ele>15.597656</ele>
        <time>2014-09-01T12:55:25.000Z</time>
      </trkpt>
      <trkpt lat="47.45111" lon="-0.59435">
        <ele>16.5</ele>
        <time>2014-09-01T12:55:27.000Z</time>
      </trkpt>
      <trkpt lat="47.4512" lon="-0.59438">
        <ele>17.097656</ele>
        <time>2014-09-01T12:55:29.000Z</time>
      </trkpt>
      <trkpt lat="47.4513" lon="-0.59443">
        <ele>17.597656</ele>
        <time>2014-09-01T12:55:31.000Z</time>
      </trkpt>
      <trkpt lat="47.45139" lon="-0.59449">
        <ele>18</ele>
        <time>2014-09-01T12:55:33.000Z</time>
      </trkpt>
      <trkpt lat="47.45149" lon="-0.59453">
        <ele>18.199219</ele>
        <time>2014-09-01T12:55:35.000Z</time>
      </trkpt>
      <trkpt lat="47.45159" lon="-0.59454">
        <ele>18.5</ele>
        <time>2014-09-01T12:55:37.000Z</time>
      </trkpt>
      <trkpt lat="47.4517" lon="-0.59455">
        <ele>19</ele>
        <time>2014-09-01T12:55:39.000Z</time>
      </trkpt>
      <trkpt lat="47.45222" lon="-0.59454">
        <ele>21.699219</ele>
        <time>2014-09-01T12:55:49.000Z</time>
      </trkpt>
      <trkpt lat="47.45233" lon="-0.59451">
        <ele>21.796875</ele>
        <time>2014-09-01T12:55:51.000Z</time>
      </trkpt>
      <trkpt lat="47.45243" lon="-0.59446">
        <ele>21.796875</ele>
        <time>2014-09-01T12:55:53.000Z</time>
      </trkpt>
      <trkpt lat="47.45253" lon="-0.5944">
        <ele>21.597656</ele>
        <time>2014-09-01T12:55:55.000Z</time>
      </trkpt>
      <trkpt lat="47.45271" lon="-0.59425">
        <ele>21.097656</ele>
        <time>2014-09-01T12:55:59.000Z</time>
      </trkpt>
      <trkpt lat="47.4528" lon="-0.5942">
        <ele>21</ele>
        <time>2014-09-01T12:56:01.000Z</time>
      </trkpt>
      <trkpt lat="47.45291" lon="-0.59417">
        <ele>20.796875</ele>
        <time>2014-09-01T12:56:03.000Z</time>
      </trkpt>
      <trkpt lat="47.45302" lon="-0.59416">
        <ele>20.796875</ele>
        <time>2014-09-01T12:56:05.000Z</time>
      </trkpt>
      <trkpt lat="47.45345" lon="-0.59415">
        <ele>20.597656</ele>
        <time>2014-09-01T12:56:13.000Z</time>
      </trkpt>
      <trkpt lat="47.45356" lon="-0.59415">
        <ele>20.699219</ele>
        <time>2014-09-01T12:56:15.000Z</time>
      </trkpt>
      <trkpt lat="47.4541" lon="-0.59422">
        <ele>21.5</ele>
        <time>2014-09-01T12:56:25.000Z</time>
      </trkpt>
      <trkpt lat="47.45535" lon="-0.59447">
        <ele>21.597656</ele>
        <time>2014-09-01T12:56:49.000Z</time>
      </trkpt>
      <trkpt lat="47.45545" lon="-0.59446">
        <ele>21.5</ele>
        <time>2014-09-01T12:56:51.000Z</time>
      </trkpt>
      <trkpt lat="47.45588" lon="-0.59445">
        <ele>20.699219</ele>
        <time>2014-09-01T12:56:59.000Z</time>
      </trkpt>
      <trkpt lat="47.45598" lon="-0.59446">
        <ele>19.898438</ele>
        <time>2014-09-01T12:57:01.000Z</time>
      </trkpt>
      <trkpt lat="47.45608" lon="-0.5945">
        <ele>19.699219</ele>
        <time>2014-09-01T12:57:03.000Z</time>
      </trkpt>
      <trkpt lat="47.45618" lon="-0.59457">
        <ele>19.398438</ele>
        <time>2014-09-01T12:57:05.000Z</time>
      </trkpt>
      <trkpt lat="47.45625" lon="-0.59464">
        <ele>19.296875</ele>
        <time>2014-09-01T12:57:07.000Z</time>
      </trkpt>
      <trkpt lat="47.45635" lon="-0.59478">
        <ele>19</ele>
        <time>2014-09-01T12:57:10.000Z</time>
      </trkpt>
      <trkpt lat="47.45642" lon="-0.59489">
        <ele>18.398438</ele>
        <time>2014-09-01T12:57:12.000Z</time>
      </trkpt>
      <trkpt lat="47.4565" lon="-0.59498">
        <ele>18.296875</ele>
        <time>2014-09-01T12:57:14.000Z</time>
      </trkpt>
      <trkpt lat="47.45658" lon="-0.59507">
        <ele>18.296875</ele>
        <time>2014-09-01T12:57:16.000Z</time>
      </trkpt>
      <trkpt lat="47.45667" lon="-0.59516">
        <ele>18.5</ele>
        <time>2014-09-01T12:57:18.000Z</time>
      </trkpt>
      <trkpt lat="47.45677" lon="-0.59523">
        <ele>18.5</ele>
        <time>2014-09-01T12:57:20.000Z</time>
      </trkpt>
      <trkpt lat="47.45687" lon="-0.59527">
        <ele>18.597656</ele>
        <time>2014-09-01T12:57:22.000Z</time>
      </trkpt>
      <trkpt lat="47.45697" lon="-0.59532">
        <ele>18.398438</ele>
        <time>2014-09-01T12:57:24.000Z</time>
      </trkpt>
      <trkpt lat="47.45707" lon="-0.59535">
        <ele>18.097656</ele>
        <time>2014-09-01T12:57:26.000Z</time>
      </trkpt>
      <trkpt lat="47.45727" lon="-0.59539">
        <ele>17.097656</ele>
        <time>2014-09-01T12:57:30.000Z</time>
      </trkpt>
      <trkpt lat="47.45736" lon="-0.59544">
        <ele>16.597656</ele>
        <time>2014-09-01T12:57:32.000Z</time>
      </trkpt>
      <trkpt lat="47.45745" lon="-0.59551">
        <ele>16.699219</ele>
        <time>2014-09-01T12:57:34.000Z</time>
      </trkpt>
      <trkpt lat="47.45753" lon="-0.59561">
        <ele>16.796875</ele>
        <time>2014-09-01T12:57:36.000Z</time>
      </trkpt>
      <trkpt lat="47.45762" lon="-0.59568">
        <ele>17.097656</ele>
        <time>2014-09-01T12:57:38.000Z</time>
      </trkpt>
      <trkpt lat="47.45771" lon="-0.59574">
        <ele>17.199219</ele>
        <time>2014-09-01T12:57:40.000Z</time>
      </trkpt>
      <trkpt lat="47.45782" lon="-0.59578">
        <ele>16.398438</ele>
        <time>2014-09-01T12:57:42.000Z</time>
      </trkpt>
      <trkpt lat="47.45816" lon="-0.59591">
        <ele>16.296875</ele>
        <time>2014-09-01T12:57:50.000Z</time>
      </trkpt>
      <trkpt lat="47.45827" lon="-0.59593">
        <ele>16.5</ele>
        <time>2014-09-01T12:57:53.000Z</time>
      </trkpt>
      <trkpt lat="47.45837" lon="-0.59592">
        <ele>16.699219</ele>
        <time>2014-09-01T12:57:56.000Z</time>
      </trkpt>
      <trkpt lat="47.45847" lon="-0.59591">
        <ele>15.898438</ele>
        <time>2014-09-01T12:57:59.000Z</time>
      </trkpt>
      <trkpt lat="47.45858" lon="-0.59592">
        <ele>15.5</ele>
        <time>2014-09-01T12:58:03.000Z</time>
      </trkpt>
      <trkpt lat="47.4588" lon="-0.59592">
        <ele>16.796875</ele>
        <time>2014-09-01T12:58:08.000Z</time>
      </trkpt>
      <trkpt lat="47.45902" lon="-0.59591">
        <ele>18.398438</ele>
        <time>2014-09-01T12:58:13.000Z</time>
      </trkpt>
      <trkpt lat="47.45915" lon="-0.59589">
        <ele>18.597656</ele>
        <time>2014-09-01T12:58:16.000Z</time>
      </trkpt>
      <trkpt lat="47.45928" lon="-0.59586">
        <ele>18.796875</ele>
        <time>2014-09-01T12:58:19.000Z</time>
      </trkpt>
      <trkpt lat="47.4594" lon="-0.59582">
        <ele>19.097656</ele>
        <time>2014-09-01T12:58:22.000Z</time>
      </trkpt>
      <trkpt lat="47.45949" lon="-0.59577">
        <ele>19.898438</ele>
        <time>2014-09-01T12:58:25.000Z</time>
      </trkpt>
      <trkpt lat="47.45958" lon="-0.59574">
        <ele>20.597656</ele>
        <time>2014-09-01T12:58:31.000Z</time>
      </trkpt>
      <trkpt lat="47.45966" lon="-0.59568">
        <ele>20.398438</ele>
        <time>2014-09-01T12:58:37.000Z</time>
      </trkpt>
      <trkpt lat="47.46068" lon="-0.59499">
        <ele>18.296875</ele>
        <time>2014-09-01T12:59:05.000Z</time>
      </trkpt>
      <trkpt lat="47.46076" lon="-0.59492">
        <ele>16.796875</ele>
        <time>2014-09-01T12:59:07.000Z</time>
      </trkpt>
      <trkpt lat="47.46093" lon="-0.59477">
        <ele>15.597656</ele>
        <time>2014-09-01T12:59:11.000Z</time>
      </trkpt>
      <trkpt lat="47.46112" lon="-0.59465">
        <ele>15.597656</ele>
        <time>2014-09-01T12:59:15.000Z</time>
      </trkpt>
      <trkpt lat="47.46122" lon="-0.5946">
        <ele>15.898438</ele>
        <time>2014-09-01T12:59:17.000Z</time>
      </trkpt>
      <trkpt lat="47.46142" lon="-0.59451">
        <ele>16.398438</ele>
        <time>2014-09-01T12:59:21.000Z</time>
      </trkpt>
      <trkpt lat="47.46152" lon="-0.59445">
        <ele>16.796875</ele>
        <time>2014-09-01T12:59:23.000Z</time>
      </trkpt>
      <trkpt lat="47.4617" lon="-0.59431">
        <ele>17.796875</ele>
        <time>2014-09-01T12:59:27.000Z</time>
      </trkpt>
      <trkpt lat="47.46181" lon="-0.5942">
        <ele>18</ele>
        <time>2014-09-01T12:59:30.000Z</time>
      </trkpt>
      <trkpt lat="47.46187" lon="-0.59409">
        <ele>17.898438</ele>
        <time>2014-09-01T12:59:32.000Z</time>
      </trkpt>
      <trkpt lat="47.46191" lon="-0.59396">
        <ele>17.699219</ele>
        <time>2014-09-01T12:59:34.000Z</time>
      </trkpt>
      <trkpt lat="47.46196" lon="-0.59378">
        <ele>17.097656</ele>
        <time>2014-09-01T12:59:37.000Z</time>
      </trkpt>
      <trkpt lat="47.46211" lon="-0.59316">
        <ele>16.398438</ele>
        <time>2014-09-01T12:59:47.000Z</time>
      </trkpt>
      <trkpt lat="47.46219" lon="-0.59283">
        <ele>15</ele>
        <time>2014-09-01T12:59:53.000Z</time>
      </trkpt>
      <trkpt lat="47.46222" lon="-0.59268">
        <ele>14.097656</ele>
        <time>2014-09-01T12:59:57.000Z</time>
      </trkpt>
      <trkpt lat="47.46217" lon="-0.59253">
        <ele>13.699219</ele>
        <time>2014-09-01T13:00:02.000Z</time>
      </trkpt>
      <trkpt lat="47.4621" lon="-0.59238">
        <ele>13.898438</ele>
        <time>2014-09-01T13:00:06.000Z</time>
      </trkpt>
      <trkpt lat="47.46205" lon="-0.59225">
        <ele>13.796875</ele>
        <time>2014-09-01T13:00:09.000Z</time>
      </trkpt>
      <trkpt lat="47.46206" lon="-0.5921">
        <ele>13.796875</ele>
        <time>2014-09-01T13:00:12.000Z</time>
      </trkpt>
      <trkpt lat="47.46213" lon="-0.59201">
        <ele>13.597656</ele>
        <time>2014-09-01T13:00:15.000Z</time>
      </trkpt>
      <trkpt lat="47.46224" lon="-0.59194">
        <ele>13</ele>
        <time>2014-09-01T13:00:18.000Z</time>
      </trkpt>
      <trkpt lat="47.46236" lon="-0.59189">
        <ele>12.796875</ele>
        <time>2014-09-01T13:00:21.000Z</time>
      </trkpt>
      <trkpt lat="47.46293" lon="-0.59166">
        <ele>12.796875</ele>
        <time>2014-09-01T13:00:33.000Z</time>
      </trkpt>
      <trkpt lat="47.46303" lon="-0.59161">
        <ele>13</ele>
        <time>2014-09-01T13:00:35.000Z</time>
      </trkpt>
      <trkpt lat="47.46312" lon="-0.59154">
        <ele>13.398438</ele>
        <time>2014-09-01T13:00:37.000Z</time>
      </trkpt>
      <trkpt lat="47.46319" lon="-0.59145">
        <ele>13.699219</ele>
        <time>2014-09-01T13:00:39.000Z</time>
      </trkpt>
      <trkpt lat="47.46326" lon="-0.59135">
        <ele>14.097656</ele>
        <time>2014-09-01T13:00:41.000Z</time>
      </trkpt>
      <trkpt lat="47.46359" lon="-0.59083">
        <ele>15.597656</ele>
        <time>2014-09-01T13:00:51.000Z</time>
      </trkpt>
      <trkpt lat="47.46365" lon="-0.59072">
        <ele>16.097656</ele>
        <time>2014-09-01T13:00:53.000Z</time>
      </trkpt>
      <trkpt lat="47.46456" lon="-0.58914">
        <ele>17.898438</ele>
        <time>2014-09-01T13:01:21.000Z</time>
      </trkpt>
      <trkpt lat="47.46485" lon="-0.58856">
        <ele>18.898438</ele>
        <time>2014-09-01T13:01:31.000Z</time>
      </trkpt>
      <trkpt lat="47.4649" lon="-0.58843">
        <ele>19.199219</ele>
        <time>2014-09-01T13:01:33.000Z</time>
      </trkpt>
      <trkpt lat="47.46495" lon="-0.58829">
        <ele>19.398438</ele>
        <time>2014-09-01T13:01:35.000Z</time>
      </trkpt>
      <trkpt lat="47.46498" lon="-0.58815">
        <ele>19.398438</ele>
        <time>2014-09-01T13:01:37.000Z</time>
      </trkpt>
      <trkpt lat="47.46501" lon="-0.588">
        <ele>19.398438</ele>
        <time>2014-09-01T13:01:39.000Z</time>
      </trkpt>
      <trkpt lat="47.46506" lon="-0.5877">
        <ele>19.398438</ele>
        <time>2014-09-01T13:01:43.000Z</time>
      </trkpt>
      <trkpt lat="47.46509" lon="-0.5874">
        <ele>18.796875</ele>
        <time>2014-09-01T13:01:47.000Z</time>
      </trkpt>
      <trkpt lat="47.46512" lon="-0.58725">
        <ele>18.597656</ele>
        <time>2014-09-01T13:01:49.000Z</time>
      </trkpt>
      <trkpt lat="47.46534" lon="-0.58618">
        <ele>17.796875</ele>
        <time>2014-09-01T13:02:03.000Z</time>
      </trkpt>
      <trkpt lat="47.46539" lon="-0.58604">
        <ele>17.699219</ele>
        <time>2014-09-01T13:02:05.000Z</time>
      </trkpt>
      <trkpt lat="47.4657" lon="-0.5852">
        <ele>15.796875</ele>
        <time>2014-09-01T13:02:17.000Z</time>
      </trkpt>
      <trkpt lat="47.46594" lon="-0.58466">
        <ele>11.296875</ele>
        <time>2014-09-01T13:02:25.000Z</time>
      </trkpt>
      <trkpt lat="47.46599" lon="-0.58451">
        <ele>10.199219</ele>
        <time>2014-09-01T13:02:27.000Z</time>
      </trkpt>
      <trkpt lat="47.46603" lon="-0.58437">
        <ele>8.597656</ele>
        <time>2014-09-01T13:02:29.000Z</time>
      </trkpt>
      <trkpt lat="47.46606" lon="-0.58423">
        <ele>6.398438</ele>
        <time>2014-09-01T13:02:31.000Z</time>
      </trkpt>
      <trkpt lat="47.46604" lon="-0.58408">
        <ele>5.398438</ele>
        <time>2014-09-01T13:02:33.000Z</time>
      </trkpt>
      <trkpt lat="47.46604" lon="-0.58394">
        <ele>5</ele>
        <time>2014-09-01T13:02:35.000Z</time>
      </trkpt>
      <trkpt lat="47.46603" lon="-0.58352">
        <ele>7.5</ele>
        <time>2014-09-01T13:02:41.000Z</time>
      </trkpt>
      <trkpt lat="47.46605" lon="-0.58333">
        <ele>8.296875</ele>
        <time>2014-09-01T13:02:44.000Z</time>
      </trkpt>
      <trkpt lat="47.46609" lon="-0.58319">
        <ele>8.796875</ele>
        <time>2014-09-01T13:02:46.000Z</time>
      </trkpt>
      <trkpt lat="47.46616" lon="-0.5829">
        <ele>9.699219</ele>
        <time>2014-09-01T13:02:50.000Z</time>
      </trkpt>
      <trkpt lat="47.46618" lon="-0.58274">
        <ele>10.199219</ele>
        <time>2014-09-01T13:02:52.000Z</time>
      </trkpt>
      <trkpt lat="47.46619" lon="-0.5826">
        <ele>11.199219</ele>
        <time>2014-09-01T13:02:54.000Z</time>
      </trkpt>
      <trkpt lat="47.46617" lon="-0.58245">
        <ele>12.296875</ele>
        <time>2014-09-01T13:02:57.000Z</time>
      </trkpt>
      <trkpt lat="47.46611" lon="-0.58232">
        <ele>13.199219</ele>
        <time>2014-09-01T13:03:00.000Z</time>
      </trkpt>
      <trkpt lat="47.46584" lon="-0.5817">
        <ele>15.699219</ele>
        <time>2014-09-01T13:03:11.000Z</time>
      </trkpt>
      <trkpt lat="47.46562" lon="-0.58109">
        <ele>17.5</ele>
        <time>2014-09-01T13:03:21.000Z</time>
      </trkpt>
      <trkpt lat="47.465" lon="-0.57937">
        <ele>15.699219</ele>
        <time>2014-09-01T13:03:47.000Z</time>
      </trkpt>
      <trkpt lat="47.46498" lon="-0.57922">
        <ele>16.398438</ele>
        <time>2014-09-01T13:03:50.000Z</time>
      </trkpt>
      <trkpt lat="47.46476" lon="-0.57764">
        <ele>16.796875</ele>
        <time>2014-09-01T13:04:12.000Z</time>
      </trkpt>
      <trkpt lat="47.46452" lon="-0.57642">
        <ele>16.296875</ele>
        <time>2014-09-01T13:04:28.000Z</time>
      </trkpt>
      <trkpt lat="47.46451" lon="-0.57627">
        <ele>16</ele>
        <time>2014-09-01T13:04:30.000Z</time>
      </trkpt>
      <trkpt lat="47.4645" lon="-0.57613">
        <ele>14.296875</ele>
        <time>2014-09-01T13:04:32.000Z</time>
      </trkpt>
      <trkpt lat="47.46449" lon="-0.57595">
        <ele>12.199219</ele>
        <time>2014-09-01T13:04:35.000Z</time>
      </trkpt>
      <trkpt lat="47.4645" lon="-0.5758">
        <ele>10.898438</ele>
        <time>2014-09-01T13:04:38.000Z</time>
      </trkpt>
      <trkpt lat="47.46454" lon="-0.57566">
        <ele>9.5</ele>
        <time>2014-09-01T13:04:41.000Z</time>
      </trkpt>
      <trkpt lat="47.46459" lon="-0.57554">
        <ele>9.296875</ele>
        <time>2014-09-01T13:04:44.000Z</time>
      </trkpt>
      <trkpt lat="47.46467" lon="-0.57541">
        <ele>10.398438</ele>
        <time>2014-09-01T13:04:47.000Z</time>
      </trkpt>
      <trkpt lat="47.46476" lon="-0.5753">
        <ele>11.398438</ele>
        <time>2014-09-01T13:04:50.000Z</time>
      </trkpt>
      <trkpt lat="47.46484" lon="-0.57522">
        <ele>13</ele>
        <time>2014-09-01T13:04:52.000Z</time>
      </trkpt>
      <trkpt lat="47.46494" lon="-0.57513">
        <ele>11.597656</ele>
        <time>2014-09-01T13:04:55.000Z</time>
      </trkpt>
      <trkpt lat="47.46502" lon="-0.57504">
        <ele>9.5</ele>
        <time>2014-09-01T13:04:57.000Z</time>
      </trkpt>
      <trkpt lat="47.46516" lon="-0.57485">
        <ele>3.796875</ele>
        <time>2014-09-01T13:05:02.000Z</time>
      </trkpt>
      <trkpt lat="47.46526" lon="-0.57475">
        <ele>3.097656</ele>
        <time>2014-09-01T13:05:06.000Z</time>
      </trkpt>
      <trkpt lat="47.46542" lon="-0.57459">
        <ele>8</ele>
        <time>2014-09-01T13:05:13.000Z</time>
      </trkpt>
      <trkpt lat="47.46551" lon="-0.57458">
        <ele>9.5</ele>
        <time>2014-09-01T13:05:25.000Z</time>
      </trkpt>
      <trkpt lat="47.46561" lon="-0.57464">
        <ele>10.597656</ele>
        <time>2014-09-01T13:05:29.000Z</time>
      </trkpt>
      <trkpt lat="47.4657" lon="-0.57467">
        <ele>11.796875</ele>
        <time>2014-09-01T13:05:32.000Z</time>
      </trkpt>
      <trkpt lat="47.46581" lon="-0.57463">
        <ele>12.5</ele>
        <time>2014-09-01T13:05:35.000Z</time>
      </trkpt>
      <trkpt lat="47.4659" lon="-0.57453">
        <ele>13</ele>
        <time>2014-09-01T13:05:38.000Z</time>
      </trkpt>
      <trkpt lat="47.46718" lon="-0.57301">
        <ele>11.296875</ele>
        <time>2014-09-01T13:06:10.000Z</time>
      </trkpt>
      <trkpt lat="47.46775" lon="-0.57211">
        <ele>11.796875</ele>
        <time>2014-09-01T13:06:26.000Z</time>
      </trkpt>
      <trkpt lat="47.46847" lon="-0.57103">
        <ele>13.398438</ele>
        <time>2014-09-01T13:06:46.000Z</time>
      </trkpt>
      <trkpt lat="47.46856" lon="-0.57091">
        <ele>13.398438</ele>
        <time>2014-09-01T13:06:49.000Z</time>
      </trkpt>
      <trkpt lat="47.46864" lon="-0.57078">
        <ele>13.5</ele>
        <time>2014-09-01T13:06:52.000Z</time>
      </trkpt>
      <trkpt lat="47.46922" lon="-0.56999">
        <ele>14.398438</ele>
        <time>2014-09-01T13:07:08.000Z</time>
      </trkpt>
      <trkpt lat="47.46931" lon="-0.5699">
        <ele>14.597656</ele>
        <time>2014-09-01T13:07:10.000Z</time>
      </trkpt>
      <trkpt lat="47.46947" lon="-0.56973">
        <ele>15</ele>
        <time>2014-09-01T13:07:14.000Z</time>
      </trkpt>
      <trkpt lat="47.46954" lon="-0.56962">
        <ele>15.097656</ele>
        <time>2014-09-01T13:07:16.000Z</time>
      </trkpt>
      <trkpt lat="47.46961" lon="-0.56951">
        <ele>15</ele>
        <time>2014-09-01T13:07:18.000Z</time>
      </trkpt>
      <trkpt lat="47.46977" lon="-0.56931">
        <ele>14.796875</ele>
        <time>2014-09-01T13:07:23.000Z</time>
      </trkpt>
      <trkpt lat="47.46985" lon="-0.56921">
        <ele>14.699219</ele>
        <time>2014-09-01T13:07:26.000Z</time>
      </trkpt>
      <trkpt lat="47.46994" lon="-0.56913">
        <ele>14.597656</ele>
        <time>2014-09-01T13:07:29.000Z</time>
      </trkpt>
      <trkpt lat="47.47004" lon="-0.56903">
        <ele>14.597656</ele>
        <time>2014-09-01T13:07:33.000Z</time>
      </trkpt>
      <trkpt lat="47.47012" lon="-0.56891">
        <ele>14.699219</ele>
        <time>2014-09-01T13:07:36.000Z</time>
      </trkpt>
      <trkpt lat="47.47022" lon="-0.5688">
        <ele>14.597656</ele>
        <time>2014-09-01T13:07:39.000Z</time>
      </trkpt>
      <trkpt lat="47.4703" lon="-0.56871">
        <ele>14.699219</ele>
        <time>2014-09-01T13:07:41.000Z</time>
      </trkpt>
      <trkpt lat="47.47085" lon="-0.56801">
        <ele>13.5</ele>
        <time>2014-09-01T13:07:55.000Z</time>
      </trkpt>
      <trkpt lat="47.47094" lon="-0.56791">
        <ele>15.398438</ele>
        <time>2014-09-01T13:07:57.000Z</time>
      </trkpt>
      <trkpt lat="47.47179" lon="-0.56699">
        <ele>32.699219</ele>
        <time>2014-09-01T13:08:17.000Z</time>
      </trkpt>
      <trkpt lat="47.47187" lon="-0.56688">
        <ele>35.296875</ele>
        <time>2014-09-01T13:08:19.000Z</time>
      </trkpt>
      <trkpt lat="47.47185" lon="-0.56669">
        <ele>36.296875</ele>
        <time>2014-09-01T13:08:22.000Z</time>
      </trkpt>
      <trkpt lat="47.47181" lon="-0.56656">
        <ele>36.898438</ele>
        <time>2014-09-01T13:08:24.000Z</time>
      </trkpt>
      <trkpt lat="47.47115" lon="-0.56486">
        <ele>36.898438</ele>
        <time>2014-09-01T13:08:50.000Z</time>
      </trkpt>
      <trkpt lat="47.47017" lon="-0.5626">
        <ele>25</ele>
        <time>2014-09-01T13:09:39.000Z</time>
      </trkpt>
      <trkpt lat="47.47007" lon="-0.56249">
        <ele>25</ele>
        <time>2014-09-01T13:10:45.000Z</time>
      </trkpt>
      <trkpt lat="47.47001" lon="-0.56238">
        <ele>25.199219</ele>
        <time>2014-09-01T13:10:49.000Z</time>
      </trkpt>
      <trkpt lat="47.46974" lon="-0.56172">
        <ele>25.097656</ele>
        <time>2014-09-01T13:11:01.000Z</time>
      </trkpt>
      <trkpt lat="47.46936" lon="-0.56061">
        <ele>36</ele>
        <time>2014-09-01T13:11:19.000Z</time>
      </trkpt>
      <trkpt lat="47.4689" lon="-0.55919">
        <ele>41.296875</ele>
        <time>2014-09-01T13:11:46.000Z</time>
      </trkpt>
      <trkpt lat="47.46879" lon="-0.55894">
        <ele>41.398438</ele>
        <time>2014-09-01T13:11:56.000Z</time>
      </trkpt>
      <trkpt lat="47.46869" lon="-0.55886">
        <ele>41.898438</ele>
        <time>2014-09-01T13:12:19.000Z</time>
      </trkpt>
      <trkpt lat="47.46862" lon="-0.55872">
        <ele>42.5</ele>
        <time>2014-09-01T13:12:23.000Z</time>
      </trkpt>
      <trkpt lat="47.46858" lon="-0.55857">
        <ele>42.5</ele>
        <time>2014-09-01T13:12:26.000Z</time>
      </trkpt>
      <trkpt lat="47.46853" lon="-0.55841">
        <ele>42.296875</ele>
        <time>2014-09-01T13:12:29.000Z</time>
      </trkpt>
      <trkpt lat="47.46846" lon="-0.55831">
        <ele>42</ele>
        <time>2014-09-01T13:12:32.000Z</time>
      </trkpt>
      <trkpt lat="47.46837" lon="-0.55821">
        <ele>43.296875</ele>
        <time>2014-09-01T13:12:35.000Z</time>
      </trkpt>
      <trkpt lat="47.46833" lon="-0.55805">
        <ele>44.699219</ele>
        <time>2014-09-01T13:12:38.000Z</time>
      </trkpt>
      <trkpt lat="47.46775" lon="-0.55631">
        <ele>44.199219</ele>
        <time>2014-09-01T13:13:05.000Z</time>
      </trkpt>
      <trkpt lat="47.46743" lon="-0.55551">
        <ele>47.597656</ele>
        <time>2014-09-01T13:13:23.000Z</time>
      </trkpt>
      <trkpt lat="47.46736" lon="-0.55542">
        <ele>48.5</ele>
        <time>2014-09-01T13:13:49.000Z</time>
      </trkpt>
      <trkpt lat="47.46732" lon="-0.55529">
        <ele>47.898438</ele>
        <time>2014-09-01T13:13:53.000Z</time>
      </trkpt>
      <trkpt lat="47.4672" lon="-0.55489">
        <ele>45.597656</ele>
        <time>2014-09-01T13:14:03.000Z</time>
      </trkpt>
      <trkpt lat="47.46679" lon="-0.55374">
        <ele>56.796875</ele>
        <time>2014-09-01T13:14:27.000Z</time>
      </trkpt>
      <trkpt lat="47.46676" lon="-0.55357">
        <ele>57.097656</ele>
        <time>2014-09-01T13:14:49.000Z</time>
      </trkpt>
      <trkpt lat="47.46671" lon="-0.55344">
        <ele>57.199219</ele>
        <time>2014-09-01T13:14:53.000Z</time>
      </trkpt>
      <trkpt lat="47.46665" lon="-0.55332">
        <ele>57.597656</ele>
        <time>2014-09-01T13:14:58.000Z</time>
      </trkpt>
      <trkpt lat="47.46672" lon="-0.55321">
        <ele>57.199219</ele>
        <time>2014-09-01T13:15:07.000Z</time>
      </trkpt>
      <trkpt lat="47.46676" lon="-0.55308">
        <ele>55.398438</ele>
        <time>2014-09-01T13:15:12.000Z</time>
      </trkpt>
      <trkpt lat="47.46679" lon="-0.55295">
        <ele>68.296875</ele>
        <time>2014-09-01T13:15:17.000Z</time>
      </trkpt>
      <trkpt lat="47.46668" lon="-0.5528">
        <ele>65.097656</ele>
        <time>2014-09-01T13:15:38.000Z</time>
      </trkpt>
      <trkpt lat="47.46662" lon="-0.55265">
        <ele>63.597656</ele>
        <time>2014-09-01T13:15:42.000Z</time>
      </trkpt>
      <trkpt lat="47.46667" lon="-0.55252">
        <ele>63.296875</ele>
        <time>2014-09-01T13:15:45.000Z</time>
      </trkpt>
      <trkpt lat="47.46676" lon="-0.55241">
        <ele>64.097656</ele>
        <time>2014-09-01T13:15:48.000Z</time>
      </trkpt>
      <trkpt lat="47.46709" lon="-0.55201">
        <ele>67.097656</ele>
        <time>2014-09-01T13:15:57.000Z</time>
      </trkpt>
      <trkpt lat="47.46855" lon="-0.55033">
        <ele>72.097656</ele>
        <time>2014-09-01T13:16:34.000Z</time>
      </trkpt>
      <trkpt lat="47.46859" lon="-0.5502">
        <ele>69.5</ele>
        <time>2014-09-01T13:16:40.000Z</time>
      </trkpt>
      <trkpt lat="47.46854" lon="-0.55008">
        <ele>68.597656</ele>
        <time>2014-09-01T13:16:43.000Z</time>
      </trkpt>
      <trkpt lat="47.46789" lon="-0.54843">
        <ele>61.699219</ele>
        <time>2014-09-01T13:17:07.000Z</time>
      </trkpt>
      <trkpt lat="47.46755" lon="-0.54761">
        <ele>55.597656</ele>
        <time>2014-09-01T13:17:19.000Z</time>
      </trkpt>
      <trkpt lat="47.46735" lon="-0.54705">
        <ele>62.199219</ele>
        <time>2014-09-01T13:17:28.000Z</time>
      </trkpt>
      <trkpt lat="47.46735" lon="-0.54688">
        <ele>61.296875</ele>
        <time>2014-09-01T13:17:31.000Z</time>
      </trkpt>
      <trkpt lat="47.46735" lon="-0.54672">
        <ele>58.597656</ele>
        <time>2014-09-01T13:17:34.000Z</time>
      </trkpt>
      <trkpt lat="47.46738" lon="-0.54654">
        <ele>54.296875</ele>
        <time>2014-09-01T13:17:37.000Z</time>
      </trkpt>
      <trkpt lat="47.4674" lon="-0.54637">
        <ele>53.296875</ele>
        <time>2014-09-01T13:17:40.000Z</time>
      </trkpt>
      <trkpt lat="47.46746" lon="-0.5459">
        <ele>51.097656</ele>
        <time>2014-09-01T13:17:50.000Z</time>
      </trkpt>
      <trkpt lat="47.46745" lon="-0.54571">
        <ele>51.097656</ele>
        <time>2014-09-01T13:17:53.000Z</time>
      </trkpt>
      <trkpt lat="47.46739" lon="-0.54557">
        <ele>50.898438</ele>
        <time>2014-09-01T13:17:56.000Z</time>
      </trkpt>
      <trkpt lat="47.46724" lon="-0.54528">
        <ele>50.5</ele>
        <time>2014-09-01T13:18:02.000Z</time>
      </trkpt>
      <trkpt lat="47.46718" lon="-0.54518">
        <ele>50.5</ele>
        <time>2014-09-01T13:18:05.000Z</time>
      </trkpt>
      <trkpt lat="47.46712" lon="-0.54503">
        <ele>50.898438</ele>
        <time>2014-09-01T13:18:09.000Z</time>
      </trkpt>
      <trkpt lat="47.4671" lon="-0.54488">
        <ele>50.597656</ele>
        <time>2014-09-01T13:18:12.000Z</time>
      </trkpt>
      <trkpt lat="47.46704" lon="-0.54471">
        <ele>49.5</ele>
        <time>2014-09-01T13:18:15.000Z</time>
      </trkpt>
      <trkpt lat="47.46697" lon="-0.54461">
        <ele>48.199219</ele>
        <time>2014-09-01T13:18:17.000Z</time>
      </trkpt>
      <trkpt lat="47.46641" lon="-0.54387">
        <ele>46.199219</ele>
        <time>2014-09-01T13:18:31.000Z</time>
      </trkpt>
      <trkpt lat="47.46624" lon="-0.54367">
        <ele>45.398438</ele>
        <time>2014-09-01T13:18:35.000Z</time>
      </trkpt>
      <trkpt lat="47.46616" lon="-0.54355">
        <ele>45.398438</ele>
        <time>2014-09-01T13:18:37.000Z</time>
      </trkpt>
      <trkpt lat="47.46608" lon="-0.54342">
        <ele>45.296875</ele>
        <time>2014-09-01T13:18:39.000Z</time>
      </trkpt>
      <trkpt lat="47.46594" lon="-0.54317">
        <ele>44.296875</ele>
        <time>2014-09-01T13:18:43.000Z</time>
      </trkpt>
      <trkpt lat="47.46586" lon="-0.54305">
        <ele>43.597656</ele>
        <time>2014-09-01T13:18:45.000Z</time>
      </trkpt>
      <trkpt lat="47.46563" lon="-0.54271">
        <ele>43</ele>
        <time>2014-09-01T13:18:51.000Z</time>
      </trkpt>
      <trkpt lat="47.46556" lon="-0.5426">
        <ele>42.898438</ele>
        <time>2014-09-01T13:18:53.000Z</time>
      </trkpt>
      <trkpt lat="47.46498" lon="-0.54157">
        <ele>43</ele>
        <time>2014-09-01T13:19:11.000Z</time>
      </trkpt>
      <trkpt lat="47.46492" lon="-0.54145">
        <ele>43.296875</ele>
        <time>2014-09-01T13:19:13.000Z</time>
      </trkpt>
      <trkpt lat="47.46488" lon="-0.54132">
        <ele>43.699219</ele>
        <time>2014-09-01T13:19:15.000Z</time>
      </trkpt>
      <trkpt lat="47.46376" lon="-0.53834">
        <ele>34.597656</ele>
        <time>2014-09-01T13:20:01.000Z</time>
      </trkpt>
      <trkpt lat="47.4637" lon="-0.53823">
        <ele>37.4375</ele>
        <time>2014-09-01T13:20:03.000Z</time>
      </trkpt>
      <trkpt lat="47.46362" lon="-0.53817">
        <ele>41.796875</ele>
        <time>2014-09-01T13:20:13.000Z</time>
      </trkpt>
      <trkpt lat="47.46361" lon="-0.53801">
        <ele>42.296875</ele>
        <time>2014-09-01T13:20:25.000Z</time>
      </trkpt>
      <trkpt lat="47.46355" lon="-0.53789">
        <ele>42.699219</ele>
        <time>2014-09-01T13:20:28.000Z</time>
      </trkpt>
      <trkpt lat="47.46328" lon="-0.5372">
        <ele>42.898438</ele>
        <time>2014-09-01T13:20:40.000Z</time>
      </trkpt>
      <trkpt lat="47.46324" lon="-0.53707">
        <ele>43.5</ele>
        <time>2014-09-01T13:20:42.000Z</time>
      </trkpt>
      <trkpt lat="47.46321" lon="-0.53694">
        <ele>43.898438</ele>
        <time>2014-09-01T13:20:44.000Z</time>
      </trkpt>
      <trkpt lat="47.46311" lon="-0.5365">
        <ele>42</ele>
        <time>2014-09-01T13:20:51.000Z</time>
      </trkpt>
      <trkpt lat="47.46306" lon="-0.53632">
        <ele>42.199219</ele>
        <time>2014-09-01T13:20:54.000Z</time>
      </trkpt>
      <trkpt lat="47.46293" lon="-0.53578">
        <ele>44</ele>
        <time>2014-09-01T13:21:02.000Z</time>
      </trkpt>
      <trkpt lat="47.46284" lon="-0.53535">
        <ele>44.597656</ele>
        <time>2014-09-01T13:21:08.000Z</time>
      </trkpt>
      <trkpt lat="47.46279" lon="-0.53522">
        <ele>45.097656</ele>
        <time>2014-09-01T13:21:10.000Z</time>
      </trkpt>
      <trkpt lat="47.46174" lon="-0.53256">
        <ele>46.699219</ele>
        <time>2014-09-01T13:22:29.000Z</time>
      </trkpt>
      <trkpt lat="47.46117" lon="-0.53063">
        <ele>44.097656</ele>
        <time>2014-09-01T13:22:57.000Z</time>
      </trkpt>
      <trkpt lat="47.46114" lon="-0.53046">
        <ele>43.699219</ele>
        <time>2014-09-01T13:22:59.000Z</time>
      </trkpt>
      <trkpt lat="47.46098" lon="-0.52911">
        <ele>40.296875</ele>
        <time>2014-09-01T13:23:16.000Z</time>
      </trkpt>
      <trkpt lat="47.46083" lon="-0.52805">
        <ele>39.199219</ele>
        <time>2014-09-01T13:23:56.000Z</time>
      </trkpt>
      <trkpt lat="47.46079" lon="-0.5279">
        <ele>39.097656</ele>
        <time>2014-09-01T13:23:58.000Z</time>
      </trkpt>
      <trkpt lat="47.46034" lon="-0.5262">
        <ele>38.597656</ele>
        <time>2014-09-01T13:24:22.000Z</time>
      </trkpt>
      <trkpt lat="47.45981" lon="-0.52315">
        <ele>39.699219</ele>
        <time>2014-09-01T13:25:04.000Z</time>
      </trkpt>
      <trkpt lat="47.45948" lon="-0.52142">
        <ele>41.699219</ele>
        <time>2014-09-01T13:25:37.000Z</time>
      </trkpt>
      <trkpt lat="47.45939" lon="-0.52095">
        <ele>42.597656</ele>
        <time>2014-09-01T13:25:45.000Z</time>
      </trkpt>
      <trkpt lat="47.45924" lon="-0.5201">
        <ele>45</ele>
        <time>2014-09-01T13:25:57.000Z</time>
      </trkpt>
      <trkpt lat="47.45836" lon="-0.51611">
        <ele>41.398438</ele>
        <time>2014-09-01T13:26:51.000Z</time>
      </trkpt>
      <trkpt lat="47.4583" lon="-0.51596">
        <ele>41.097656</ele>
        <time>2014-09-01T13:26:53.000Z</time>
      </trkpt>
      <trkpt lat="47.45788" lon="-0.51484">
        <ele>38.5</ele>
        <time>2014-09-01T13:27:15.000Z</time>
      </trkpt>
      <trkpt lat="47.45794" lon="-0.51473">
        <ele>38.5</ele>
        <time>2014-09-01T13:27:18.000Z</time>
      </trkpt>
      <trkpt lat="47.45803" lon="-0.51463">
        <ele>38.5</ele>
        <time>2014-09-01T13:27:21.000Z</time>
      </trkpt>
      <trkpt lat="47.4581" lon="-0.51447">
        <ele>38.398438</ele>
        <time>2014-09-01T13:27:24.000Z</time>
      </trkpt>
      <trkpt lat="47.45817" lon="-0.51432">
        <ele>37.796875</ele>
        <time>2014-09-01T13:27:27.000Z</time>
      </trkpt>
      <trkpt lat="47.45826" lon="-0.51418">
        <ele>37.5</ele>
        <time>2014-09-01T13:27:30.000Z</time>
      </trkpt>
      <trkpt lat="47.45877" lon="-0.51345">
        <ele>35.199219</ele>
        <time>2014-09-01T13:27:44.000Z</time>
      </trkpt>
      <trkpt lat="47.45885" lon="-0.51337">
        <ele>35.296875</ele>
        <time>2014-09-01T13:27:46.000Z</time>
      </trkpt>
      <trkpt lat="47.45895" lon="-0.51331">
        <ele>35.296875</ele>
        <time>2014-09-01T13:27:48.000Z</time>
      </trkpt>
      <trkpt lat="47.46002" lon="-0.51261">
        <ele>36.597656</ele>
        <time>2014-09-01T13:28:12.000Z</time>
      </trkpt>
      <trkpt lat="47.46011" lon="-0.51252">
        <ele>36.296875</ele>
        <time>2014-09-01T13:28:14.000Z</time>
      </trkpt>
      <trkpt lat="47.46019" lon="-0.51242">
        <ele>35.597656</ele>
        <time>2014-09-01T13:28:16.000Z</time>
      </trkpt>
      <trkpt lat="47.46027" lon="-0.51231">
        <ele>35.199219</ele>
        <time>2014-09-01T13:28:18.000Z</time>
      </trkpt>
      <trkpt lat="47.46072" lon="-0.51157">
        <ele>35</ele>
        <time>2014-09-01T13:28:32.000Z</time>
      </trkpt>
      <trkpt lat="47.46082" lon="-0.51147">
        <ele>35.699219</ele>
        <time>2014-09-01T13:28:35.000Z</time>
      </trkpt>
      <trkpt lat="47.46085" lon="-0.51132">
        <ele>36</ele>
        <time>2014-09-01T13:28:39.000Z</time>
      </trkpt>
      <trkpt lat="47.46081" lon="-0.51116">
        <ele>36.5</ele>
        <time>2014-09-01T13:28:43.000Z</time>
      </trkpt>
      <trkpt lat="47.46078" lon="-0.511">
        <ele>36.796875</ele>
        <time>2014-09-01T13:28:48.000Z</time>
      </trkpt>
      <trkpt lat="47.46074" lon="-0.51087">
        <ele>37</ele>
        <time>2014-09-01T13:28:51.000Z</time>
      </trkpt>
      <trkpt lat="47.46069" lon="-0.5107">
        <ele>37.398438</ele>
        <time>2014-09-01T13:28:54.000Z</time>
      </trkpt>
      <trkpt lat="47.46066" lon="-0.51054">
        <ele>37.597656</ele>
        <time>2014-09-01T13:28:57.000Z</time>
      </trkpt>
      <trkpt lat="47.46055" lon="-0.51">
        <ele>37.796875</ele>
        <time>2014-09-01T13:29:06.000Z</time>
      </trkpt>
      <trkpt lat="47.46053" lon="-0.50987">
        <ele>36.5</ele>
        <time>2014-09-01T13:29:08.000Z</time>
      </trkpt>
      <trkpt lat="47.46052" lon="-0.50959">
        <ele>36.398438</ele>
        <time>2014-09-01T13:29:12.000Z</time>
      </trkpt>
      <trkpt lat="47.4605" lon="-0.50945">
        <ele>36.5</ele>
        <time>2014-09-01T13:29:14.000Z</time>
      </trkpt>
      <trkpt lat="47.46044" lon="-0.50927">
        <ele>36.898438</ele>
        <time>2014-09-01T13:29:17.000Z</time>
      </trkpt>
      <trkpt lat="47.46043" lon="-0.50914">
        <ele>36.699219</ele>
        <time>2014-09-01T13:29:19.000Z</time>
      </trkpt>
      <trkpt lat="47.46047" lon="-0.50901">
        <ele>36.5</ele>
        <time>2014-09-01T13:29:21.000Z</time>
      </trkpt>
      <trkpt lat="47.4605" lon="-0.50888">
        <ele>36</ele>
        <time>2014-09-01T13:29:23.000Z</time>
      </trkpt>
      <trkpt lat="47.46047" lon="-0.5087">
        <ele>35.898438</ele>
        <time>2014-09-01T13:29:26.000Z</time>
      </trkpt>
      <trkpt lat="47.46041" lon="-0.50839">
        <ele>37</ele>
        <time>2014-09-01T13:29:31.000Z</time>
      </trkpt>
      <trkpt lat="47.46039" lon="-0.50825">
        <ele>37.597656</ele>
        <time>2014-09-01T13:29:33.000Z</time>
      </trkpt>
      <trkpt lat="47.46036" lon="-0.50783">
        <ele>38.296875</ele>
        <time>2014-09-01T13:29:39.000Z</time>
      </trkpt>
      <trkpt lat="47.46037" lon="-0.50769">
        <ele>38.398438</ele>
        <time>2014-09-01T13:29:41.000Z</time>
      </trkpt>
      <trkpt lat="47.46041" lon="-0.50756">
        <ele>38.199219</ele>
        <time>2014-09-01T13:29:43.000Z</time>
      </trkpt>
      <trkpt lat="47.46046" lon="-0.50742">
        <ele>37.296875</ele>
        <time>2014-09-01T13:29:45.000Z</time>
      </trkpt>
      <trkpt lat="47.46048" lon="-0.50724">
        <ele>35.699219</ele>
        <time>2014-09-01T13:29:47.000Z</time>
      </trkpt>
      <trkpt lat="47.46043" lon="-0.50703">
        <ele>33.898438</ele>
        <time>2014-09-01T13:29:49.000Z</time>
      </trkpt>
      <trkpt lat="47.46033" lon="-0.50682">
        <ele>32.898438</ele>
        <time>2014-09-01T13:29:51.000Z</time>
      </trkpt>
      <trkpt lat="47.46015" lon="-0.50648">
        <ele>29.597656</ele>
        <time>2014-09-01T13:29:54.000Z</time>
      </trkpt>
      <trkpt lat="47.4601" lon="-0.50635">
        <ele>29.296875</ele>
        <time>2014-09-01T13:29:55.000Z</time>
      </trkpt>
      <trkpt lat="47.46007" lon="-0.50621">
        <ele>29.097656</ele>
        <time>2014-09-01T13:29:56.000Z</time>
      </trkpt>
      <trkpt lat="47.46002" lon="-0.50594">
        <ele>29</ele>
        <time>2014-09-01T13:29:58.000Z</time>
      </trkpt>
      <trkpt lat="47.45989" lon="-0.50514">
        <ele>30.199219</ele>
        <time>2014-09-01T13:30:05.000Z</time>
      </trkpt>
      <trkpt lat="47.45985" lon="-0.50499">
        <ele>30.699219</ele>
        <time>2014-09-01T13:30:07.000Z</time>
      </trkpt>
      <trkpt lat="47.45977" lon="-0.50485">
        <ele>30.699219</ele>
        <time>2014-09-01T13:30:10.000Z</time>
      </trkpt>
      <trkpt lat="47.4597" lon="-0.50476">
        <ele>30.898438</ele>
        <time>2014-09-01T13:30:12.000Z</time>
      </trkpt>
      <trkpt lat="47.45964" lon="-0.50466">
        <ele>31.097656</ele>
        <time>2014-09-01T13:30:14.000Z</time>
      </trkpt>
      <trkpt lat="47.45952" lon="-0.50443">
        <ele>31.699219</ele>
        <time>2014-09-01T13:30:18.000Z</time>
      </trkpt>
      <trkpt lat="47.4595" lon="-0.50428">
        <ele>34</ele>
        <time>2014-09-01T13:30:21.000Z</time>
      </trkpt>
      <trkpt lat="47.45944" lon="-0.50418">
        <ele>34.398438</ele>
        <time>2014-09-01T13:30:35.000Z</time>
      </trkpt>
      <trkpt lat="47.45935" lon="-0.5043">
        <ele>34.5</ele>
        <time>2014-09-01T13:30:39.000Z</time>
      </trkpt>
      <trkpt lat="47.45919" lon="-0.50451">
        <ele>34.199219</ele>
        <time>2014-09-01T13:30:44.000Z</time>
      </trkpt>
      <trkpt lat="47.45911" lon="-0.50458">
        <ele>34.398438</ele>
        <time>2014-09-01T13:30:46.000Z</time>
      </trkpt>
      <trkpt lat="47.45902" lon="-0.50465">
        <ele>34.597656</ele>
        <time>2014-09-01T13:30:48.000Z</time>
      </trkpt>
      <trkpt lat="47.45893" lon="-0.5047">
        <ele>34.796875</ele>
        <time>2014-09-01T13:30:50.000Z</time>
      </trkpt>
      <trkpt lat="47.45883" lon="-0.50474">
        <ele>34.898438</ele>
        <time>2014-09-01T13:30:52.000Z</time>
      </trkpt>
      <trkpt lat="47.45853" lon="-0.50482">
        <ele>35.199219</ele>
        <time>2014-09-01T13:30:58.000Z</time>
      </trkpt>
      <trkpt lat="47.45843" lon="-0.50484">
        <ele>35.398438</ele>
        <time>2014-09-01T13:31:00.000Z</time>
      </trkpt>
      <trkpt lat="47.45824" lon="-0.50485">
        <ele>35.597656</ele>
        <time>2014-09-01T13:31:04.000Z</time>
      </trkpt>
      <trkpt lat="47.45804" lon="-0.50485">
        <ele>35.5</ele>
        <time>2014-09-01T13:31:08.000Z</time>
      </trkpt>
      <trkpt lat="47.45794" lon="-0.50487">
        <ele>35</ele>
        <time>2014-09-01T13:31:10.000Z</time>
      </trkpt>
      <trkpt lat="47.45753" lon="-0.505">
        <ele>36.097656</ele>
        <time>2014-09-01T13:31:26.000Z</time>
      </trkpt>
      <trkpt lat="47.45743" lon="-0.505">
        <ele>37.296875</ele>
        <time>2014-09-01T13:31:31.000Z</time>
      </trkpt>
      <trkpt lat="47.45733" lon="-0.50496">
        <ele>36.796875</ele>
        <time>2014-09-01T13:31:39.000Z</time>
      </trkpt>
      <trkpt lat="47.45727" lon="-0.50485">
        <ele>37</ele>
        <time>2014-09-01T13:31:43.000Z</time>
      </trkpt>
      <trkpt lat="47.45721" lon="-0.50472">
        <ele>37.398438</ele>
        <time>2014-09-01T13:31:47.000Z</time>
      </trkpt>
      <trkpt lat="47.45566" lon="-0.50116">
        <ele>32</ele>
        <time>2014-09-01T13:32:36.000Z</time>
      </trkpt>
      <trkpt lat="47.45538" lon="-0.50039">
        <ele>30.597656</ele>
        <time>2014-09-01T13:32:44.000Z</time>
      </trkpt>
      <trkpt lat="47.4553" lon="-0.50023">
        <ele>30.199219</ele>
        <time>2014-09-01T13:32:46.000Z</time>
      </trkpt>
      <trkpt lat="47.45505" lon="-0.49967">
        <ele>29.296875</ele>
        <time>2014-09-01T13:32:57.000Z</time>
      </trkpt>
      <trkpt lat="47.45513" lon="-0.49979">
        <ele>28.796875</ele>
        <time>2014-09-01T13:33:21.000Z</time>
      </trkpt>
      <trkpt lat="47.45518" lon="-0.49992">
        <ele>28.398438</ele>
        <time>2014-09-01T13:33:25.000Z</time>
      </trkpt>
      <trkpt lat="47.45554" lon="-0.50069">
        <ele>29.398438</ele>
        <time>2014-09-01T13:33:40.000Z</time>
      </trkpt>
      <trkpt lat="47.45583" lon="-0.50153">
        <ele>32.199219</ele>
        <time>2014-09-01T13:33:55.000Z</time>
      </trkpt>
      <trkpt lat="47.45591" lon="-0.50159">
        <ele>33.296875</ele>
        <time>2014-09-01T13:33:59.000Z</time>
      </trkpt>
      <trkpt lat="47.45598" lon="-0.50147">
        <ele>33.898438</ele>
        <time>2014-09-01T13:34:04.000Z</time>
      </trkpt>
      <trkpt lat="47.45604" lon="-0.50136">
        <ele>34.597656</ele>
        <time>2014-09-01T13:34:07.000Z</time>
      </trkpt>
      <trkpt lat="47.45609" lon="-0.50123">
        <ele>34.898438</ele>
        <time>2014-09-01T13:34:10.000Z</time>
      </trkpt>
      <trkpt lat="47.45619" lon="-0.501">
        <ele>32</ele>
        <time>2014-09-01T13:34:16.000Z</time>
      </trkpt>
      <trkpt lat="47.45627" lon="-0.50087">
        <ele>30.597656</ele>
        <time>2014-09-01T13:34:19.000Z</time>
      </trkpt>
      <trkpt lat="47.45631" lon="-0.50068">
        <ele>29.699219</ele>
        <time>2014-09-01T13:34:22.000Z</time>
      </trkpt>
      <trkpt lat="47.45633" lon="-0.50052">
        <ele>28.199219</ele>
        <time>2014-09-01T13:34:24.000Z</time>
      </trkpt>
      <trkpt lat="47.45634" lon="-0.50035">
        <ele>26.597656</ele>
        <time>2014-09-01T13:34:26.000Z</time>
      </trkpt>
      <trkpt lat="47.45639" lon="-0.5002">
        <ele>25.898438</ele>
        <time>2014-09-01T13:34:28.000Z</time>
      </trkpt>
      <trkpt lat="47.45647" lon="-0.50004">
        <ele>25.597656</ele>
        <time>2014-09-01T13:34:30.000Z</time>
      </trkpt>
      <trkpt lat="47.45661" lon="-0.49978">
        <ele>25.398438</ele>
        <time>2014-09-01T13:34:34.000Z</time>
      </trkpt>
      <trkpt lat="47.45662" lon="-0.49964">
        <ele>25.199219</ele>
        <time>2014-09-01T13:34:37.000Z</time>
      </trkpt>
      <trkpt lat="47.45654" lon="-0.49954">
        <ele>24.097656</ele>
        <time>2014-09-01T13:34:40.000Z</time>
      </trkpt>
      <trkpt lat="47.45627" lon="-0.49924">
        <ele>21.898438</ele>
        <time>2014-09-01T13:34:48.000Z</time>
      </trkpt>
      <trkpt lat="47.45619" lon="-0.49909">
        <ele>18.597656</ele>
        <time>2014-09-01T13:34:51.000Z</time>
      </trkpt>
      <trkpt lat="47.45613" lon="-0.49893">
        <ele>15.898438</ele>
        <time>2014-09-01T13:34:54.000Z</time>
      </trkpt>
      <trkpt lat="47.45594" lon="-0.49837">
        <ele>14.597656</ele>
        <time>2014-09-01T13:35:03.000Z</time>
      </trkpt>
      <trkpt lat="47.45588" lon="-0.49826">
        <ele>13.398438</ele>
        <time>2014-09-01T13:35:05.000Z</time>
      </trkpt>
      <trkpt lat="47.45582" lon="-0.49815">
        <ele>12.699219</ele>
        <time>2014-09-01T13:35:07.000Z</time>
      </trkpt>
      <trkpt lat="47.45576" lon="-0.49802">
        <ele>11.597656</ele>
        <time>2014-09-01T13:35:09.000Z</time>
      </trkpt>
      <trkpt lat="47.45571" lon="-0.4979">
        <ele>10.296875</ele>
        <time>2014-09-01T13:35:11.000Z</time>
      </trkpt>
      <trkpt lat="47.45568" lon="-0.49778">
        <ele>9.398438</ele>
        <time>2014-09-01T13:35:13.000Z</time>
      </trkpt>
      <trkpt lat="47.45564" lon="-0.49765">
        <ele>8.796875</ele>
        <time>2014-09-01T13:35:15.000Z</time>
      </trkpt>
      <trkpt lat="47.45561" lon="-0.49751">
        <ele>9.699219</ele>
        <time>2014-09-01T13:35:17.000Z</time>
      </trkpt>
      <trkpt lat="47.4556" lon="-0.49732">
        <ele>8.398438</ele>
        <time>2014-09-01T13:35:20.000Z</time>
      </trkpt>
      <trkpt lat="47.45556" lon="-0.49717">
        <ele>7</ele>
        <time>2014-09-01T13:35:24.000Z</time>
      </trkpt>
      <trkpt lat="47.45551" lon="-0.49705">
        <ele>7</ele>
        <time>2014-09-01T13:35:27.000Z</time>
      </trkpt>
      <trkpt lat="47.45542" lon="-0.49691">
        <ele>9.097656</ele>
        <time>2014-09-01T13:35:30.000Z</time>
      </trkpt>
      <trkpt lat="47.45533" lon="-0.4968">
        <ele>10.796875</ele>
        <time>2014-09-01T13:35:33.000Z</time>
      </trkpt>
      <trkpt lat="47.45523" lon="-0.4967">
        <ele>12.296875</ele>
        <time>2014-09-01T13:35:36.000Z</time>
      </trkpt>
      <trkpt lat="47.45513" lon="-0.49663">
        <ele>13.898438</ele>
        <time>2014-09-01T13:35:39.000Z</time>
      </trkpt>
      <trkpt lat="47.45501" lon="-0.49659">
        <ele>15.699219</ele>
        <time>2014-09-01T13:35:42.000Z</time>
      </trkpt>
      <trkpt lat="47.4549" lon="-0.49653">
        <ele>17.5</ele>
        <time>2014-09-01T13:35:45.000Z</time>
      </trkpt>
      <trkpt lat="47.4548" lon="-0.49645">
        <ele>18.5</ele>
        <time>2014-09-01T13:35:48.000Z</time>
      </trkpt>
      <trkpt lat="47.45472" lon="-0.4963">
        <ele>18.699219</ele>
        <time>2014-09-01T13:35:51.000Z</time>
      </trkpt>
      <trkpt lat="47.45468" lon="-0.49617">
        <ele>19</ele>
        <time>2014-09-01T13:35:53.000Z</time>
      </trkpt>
      <trkpt lat="47.45457" lon="-0.49574">
        <ele>19.5</ele>
        <time>2014-09-01T13:35:59.000Z</time>
      </trkpt>
      <trkpt lat="47.45451" lon="-0.4956">
        <ele>19.597656</ele>
        <time>2014-09-01T13:36:01.000Z</time>
      </trkpt>
      <trkpt lat="47.45428" lon="-0.49519">
        <ele>19.699219</ele>
        <time>2014-09-01T13:36:07.000Z</time>
      </trkpt>
      <trkpt lat="47.45411" lon="-0.49494">
        <ele>19.898438</ele>
        <time>2014-09-01T13:36:11.000Z</time>
      </trkpt>
      <trkpt lat="47.45402" lon="-0.49482">
        <ele>20.296875</ele>
        <time>2014-09-01T13:36:13.000Z</time>
      </trkpt>
      <trkpt lat="47.45394" lon="-0.49473">
        <ele>20.398438</ele>
        <time>2014-09-01T13:36:15.000Z</time>
      </trkpt>
      <trkpt lat="47.45374" lon="-0.4945">
        <ele>20.699219</ele>
        <time>2014-09-01T13:36:21.000Z</time>
      </trkpt>
      <trkpt lat="47.45366" lon="-0.49436">
        <ele>21.296875</ele>
        <time>2014-09-01T13:36:24.000Z</time>
      </trkpt>
      <trkpt lat="47.45362" lon="-0.4942">
        <ele>22.398438</ele>
        <time>2014-09-01T13:36:27.000Z</time>
      </trkpt>
      <trkpt lat="47.45365" lon="-0.49402">
        <ele>23</ele>
        <time>2014-09-01T13:36:31.000Z</time>
      </trkpt>
      <trkpt lat="47.45362" lon="-0.49385">
        <ele>23.398438</ele>
        <time>2014-09-01T13:36:34.000Z</time>
      </trkpt>
      <trkpt lat="47.45349" lon="-0.49299">
        <ele>26.199219</ele>
        <time>2014-09-01T13:36:47.000Z</time>
      </trkpt>
      <trkpt lat="47.45347" lon="-0.49286">
        <ele>26.398438</ele>
        <time>2014-09-01T13:36:49.000Z</time>
      </trkpt>
      <trkpt lat="47.45344" lon="-0.49256">
        <ele>26.097656</ele>
        <time>2014-09-01T13:36:53.000Z</time>
      </trkpt>
      <trkpt lat="47.45341" lon="-0.49211">
        <ele>26.597656</ele>
        <time>2014-09-01T13:36:59.000Z</time>
      </trkpt>
      <trkpt lat="47.45341" lon="-0.49195">
        <ele>28.320313</ele>
        <time>2014-09-01T13:37:02.000Z</time>
      </trkpt>
      <trkpt lat="47.45343" lon="-0.49182">
        <ele>28.898438</ele>
        <time>2014-09-01T13:37:53.000Z</time>
      </trkpt>
      <trkpt lat="47.45339" lon="-0.49168">
        <ele>27.898438</ele>
        <time>2014-09-01T13:37:59.000Z</time>
      </trkpt>
      <trkpt lat="47.4532" lon="-0.49093">
        <ele>25.296875</ele>
        <time>2014-09-01T13:38:18.000Z</time>
      </trkpt>
      <trkpt lat="47.45311" lon="-0.49079">
        <ele>24.898438</ele>
        <time>2014-09-01T13:38:21.000Z</time>
      </trkpt>
      <trkpt lat="47.45303" lon="-0.49072">
        <ele>25.398438</ele>
        <time>2014-09-01T13:38:23.000Z</time>
      </trkpt>
      <trkpt lat="47.45292" lon="-0.49065">
        <ele>25.296875</ele>
        <time>2014-09-01T13:38:26.000Z</time>
      </trkpt>
      <trkpt lat="47.45283" lon="-0.4906">
        <ele>25.398438</ele>
        <time>2014-09-01T13:38:28.000Z</time>
      </trkpt>
      <trkpt lat="47.45274" lon="-0.49053">
        <ele>26.199219</ele>
        <time>2014-09-01T13:38:30.000Z</time>
      </trkpt>
      <trkpt lat="47.45265" lon="-0.4904">
        <ele>26.296875</ele>
        <time>2014-09-01T13:38:33.000Z</time>
      </trkpt>
      <trkpt lat="47.45261" lon="-0.49026">
        <ele>25.699219</ele>
        <time>2014-09-01T13:38:36.000Z</time>
      </trkpt>
      <trkpt lat="47.45255" lon="-0.49015">
        <ele>23.796875</ele>
        <time>2014-09-01T13:38:40.000Z</time>
      </trkpt>
      <trkpt lat="47.45248" lon="-0.49002">
        <ele>23</ele>
        <time>2014-09-01T13:38:43.000Z</time>
      </trkpt>
      <trkpt lat="47.45245" lon="-0.48989">
        <ele>22</ele>
        <time>2014-09-01T13:38:45.000Z</time>
      </trkpt>
      <trkpt lat="47.45244" lon="-0.48974">
        <ele>21.097656</ele>
        <time>2014-09-01T13:38:47.000Z</time>
      </trkpt>
      <trkpt lat="47.45244" lon="-0.48957">
        <ele>21</ele>
        <time>2014-09-01T13:38:49.000Z</time>
      </trkpt>
      <trkpt lat="47.45241" lon="-0.48941">
        <ele>21.097656</ele>
        <time>2014-09-01T13:38:51.000Z</time>
      </trkpt>
      <trkpt lat="47.45237" lon="-0.48927">
        <ele>21.199219</ele>
        <time>2014-09-01T13:38:53.000Z</time>
      </trkpt>
      <trkpt lat="47.45231" lon="-0.48916">
        <ele>21.796875</ele>
        <time>2014-09-01T13:38:55.000Z</time>
      </trkpt>
      <trkpt lat="47.45219" lon="-0.48912">
        <ele>22.699219</ele>
        <time>2014-09-01T13:38:58.000Z</time>
      </trkpt>
      <trkpt lat="47.45194" lon="-0.48904">
        <ele>24.296875</ele>
        <time>2014-09-01T13:39:04.000Z</time>
      </trkpt>
      <trkpt lat="47.45182" lon="-0.48895">
        <ele>24</ele>
        <time>2014-09-01T13:39:07.000Z</time>
      </trkpt>
      <trkpt lat="47.45176" lon="-0.48883">
        <ele>24</ele>
        <time>2014-09-01T13:39:11.000Z</time>
      </trkpt>
      <trkpt lat="47.45172" lon="-0.48869">
        <ele>25.097656</ele>
        <time>2014-09-01T13:39:17.000Z</time>
      </trkpt>
      <trkpt lat="47.45145" lon="-0.48783">
        <ele>26.597656</ele>
        <time>2014-09-01T13:39:39.000Z</time>
      </trkpt>
      <trkpt lat="47.45139" lon="-0.48771">
        <ele>26.898438</ele>
        <time>2014-09-01T13:39:41.000Z</time>
      </trkpt>
      <trkpt lat="47.45127" lon="-0.48748">
        <ele>27.199219</ele>
        <time>2014-09-01T13:39:45.000Z</time>
      </trkpt>
      <trkpt lat="47.45121" lon="-0.48737">
        <ele>27.097656</ele>
        <time>2014-09-01T13:39:47.000Z</time>
      </trkpt>
      <trkpt lat="47.45088" lon="-0.48683">
        <ele>28.199219</ele>
        <time>2014-09-01T13:39:57.000Z</time>
      </trkpt>
      <trkpt lat="47.45072" lon="-0.48647">
        <ele>28.898438</ele>
        <time>2014-09-01T13:40:03.000Z</time>
      </trkpt>
      <trkpt lat="47.45065" lon="-0.48638">
        <ele>29</ele>
        <time>2014-09-01T13:40:05.000Z</time>
      </trkpt>
      <trkpt lat="47.45058" lon="-0.48631">
        <ele>29</ele>
        <time>2014-09-01T13:40:07.000Z</time>
      </trkpt>
      <trkpt lat="47.45051" lon="-0.4862">
        <ele>28.597656</ele>
        <time>2014-09-01T13:40:09.000Z</time>
      </trkpt>
      <trkpt lat="47.45044" lon="-0.4861">
        <ele>27.796875</ele>
        <time>2014-09-01T13:40:11.000Z</time>
      </trkpt>
      <trkpt lat="47.45033" lon="-0.48603">
        <ele>27.097656</ele>
        <time>2014-09-01T13:40:13.000Z</time>
      </trkpt>
      <trkpt lat="47.4499" lon="-0.48578">
        <ele>24.5</ele>
        <time>2014-09-01T13:40:22.000Z</time>
      </trkpt>
      <trkpt lat="47.44981" lon="-0.48574">
        <ele>24.699219</ele>
        <time>2014-09-01T13:40:27.000Z</time>
      </trkpt>
      <trkpt lat="47.44976" lon="-0.48587">
        <ele>24.796875</ele>
        <time>2014-09-01T13:40:37.000Z</time>
      </trkpt>
      <trkpt lat="47.44968" lon="-0.48595">
        <ele>24.699219</ele>
        <time>2014-09-01T13:40:41.000Z</time>
      </trkpt>
      <trkpt lat="47.44959" lon="-0.48602">
        <ele>24.796875</ele>
        <time>2014-09-01T13:40:45.000Z</time>
      </trkpt>
      <trkpt lat="47.44948" lon="-0.48598">
        <ele>24.296875</ele>
        <time>2014-09-01T13:40:49.000Z</time>
      </trkpt>
      <trkpt lat="47.44939" lon="-0.48591">
        <ele>23.296875</ele>
        <time>2014-09-01T13:40:53.000Z</time>
      </trkpt>
      <trkpt lat="47.44931" lon="-0.48584">
        <ele>23.296875</ele>
        <time>2014-09-01T13:40:56.000Z</time>
      </trkpt>
      <trkpt lat="47.44921" lon="-0.48586">
        <ele>22.898438</ele>
        <time>2014-09-01T13:40:59.000Z</time>
      </trkpt>
      <trkpt lat="47.44911" lon="-0.48594">
        <ele>22.5</ele>
        <time>2014-09-01T13:41:02.000Z</time>
      </trkpt>
      <trkpt lat="47.44891" lon="-0.48608">
        <ele>21.398438</ele>
        <time>2014-09-01T13:41:07.000Z</time>
      </trkpt>
      <trkpt lat="47.44883" lon="-0.48612">
        <ele>21.097656</ele>
        <time>2014-09-01T13:41:09.000Z</time>
      </trkpt>
      <trkpt lat="47.44872" lon="-0.48607">
        <ele>21</ele>
        <time>2014-09-01T13:41:12.000Z</time>
      </trkpt>
      <trkpt lat="47.44862" lon="-0.48607">
        <ele>20.296875</ele>
        <time>2014-09-01T13:41:15.000Z</time>
      </trkpt>
      <trkpt lat="47.44853" lon="-0.48612">
        <ele>20.097656</ele>
        <time>2014-09-01T13:41:18.000Z</time>
      </trkpt>
      <trkpt lat="47.44845" lon="-0.48617">
        <ele>35.699219</ele>
        <time>2014-09-01T13:41:21.000Z</time>
      </trkpt>
      <trkpt lat="47.44834" lon="-0.48614">
        <ele>36.796875</ele>
        <time>2014-09-01T13:41:45.000Z</time>
      </trkpt>
      <trkpt lat="47.44824" lon="-0.48609">
        <ele>35.796875</ele>
        <time>2014-09-01T13:41:51.000Z</time>
      </trkpt>
      <trkpt lat="47.44816" lon="-0.48603">
        <ele>34.5</ele>
        <time>2014-09-01T13:41:54.000Z</time>
      </trkpt>
      <trkpt lat="47.44808" lon="-0.4859">
        <ele>33.097656</ele>
        <time>2014-09-01T13:41:57.000Z</time>
      </trkpt>
      <trkpt lat="47.44799" lon="-0.48577">
        <ele>31.296875</ele>
        <time>2014-09-01T13:42:00.000Z</time>
      </trkpt>
      <trkpt lat="47.44788" lon="-0.48574">
        <ele>28.296875</ele>
        <time>2014-09-01T13:42:03.000Z</time>
      </trkpt>
      <trkpt lat="47.44779" lon="-0.4857">
        <ele>26.699219</ele>
        <time>2014-09-01T13:42:07.000Z</time>
      </trkpt>
      <trkpt lat="47.44769" lon="-0.48571">
        <ele>25.597656</ele>
        <time>2014-09-01T13:42:10.000Z</time>
      </trkpt>
      <trkpt lat="47.44758" lon="-0.48566">
        <ele>23.796875</ele>
        <time>2014-09-01T13:42:13.000Z</time>
      </trkpt>
      <trkpt lat="47.44749" lon="-0.48552">
        <ele>22.398438</ele>
        <time>2014-09-01T13:42:16.000Z</time>
      </trkpt>
      <trkpt lat="47.44742" lon="-0.48536">
        <ele>21</ele>
        <time>2014-09-01T13:42:19.000Z</time>
      </trkpt>
      <trkpt lat="47.44736" lon="-0.48522">
        <ele>21.5</ele>
        <time>2014-09-01T13:42:23.000Z</time>
      </trkpt>
      <trkpt lat="47.44735" lon="-0.48507">
        <ele>22.199219</ele>
        <time>2014-09-01T13:42:38.000Z</time>
      </trkpt>
      <trkpt lat="47.44742" lon="-0.48492">
        <ele>22.597656</ele>
        <time>2014-09-01T13:42:41.000Z</time>
      </trkpt>
      <trkpt lat="47.44749" lon="-0.48485">
        <ele>23.199219</ele>
        <time>2014-09-01T13:42:43.000Z</time>
      </trkpt>
      <trkpt lat="47.44757" lon="-0.48472">
        <ele>23.097656</ele>
        <time>2014-09-01T13:42:46.000Z</time>
      </trkpt>
      <trkpt lat="47.44752" lon="-0.48457">
        <ele>22.898438</ele>
        <time>2014-09-01T13:42:50.000Z</time>
      </trkpt>
      <trkpt lat="47.44742" lon="-0.48431">
        <ele>22.5</ele>
        <time>2014-09-01T13:42:56.000Z</time>
      </trkpt>
      <trkpt lat="47.44728" lon="-0.48398">
        <ele>21.199219</ele>
        <time>2014-09-01T13:43:02.000Z</time>
      </trkpt>
      <trkpt lat="47.44709" lon="-0.48359">
        <ele>18.796875</ele>
        <time>2014-09-01T13:43:11.000Z</time>
      </trkpt>
      <trkpt lat="47.44696" lon="-0.48332">
        <ele>17.296875</ele>
        <time>2014-09-01T13:43:16.000Z</time>
      </trkpt>
      <trkpt lat="47.44688" lon="-0.48323">
        <ele>16.296875</ele>
        <time>2014-09-01T13:43:18.000Z</time>
      </trkpt>
      <trkpt lat="47.44677" lon="-0.4832">
        <ele>14.5</ele>
        <time>2014-09-01T13:43:20.000Z</time>
      </trkpt>
      <trkpt lat="47.44665" lon="-0.48324">
        <ele>12.796875</ele>
        <time>2014-09-01T13:43:22.000Z</time>
      </trkpt>
      <trkpt lat="47.44601" lon="-0.48349">
        <ele>9</ele>
        <time>2014-09-01T13:43:32.000Z</time>
      </trkpt>
      <trkpt lat="47.44587" lon="-0.4835">
        <ele>9.5</ele>
        <time>2014-09-01T13:43:34.000Z</time>
      </trkpt>
      <trkpt lat="47.44574" lon="-0.48349">
        <ele>10</ele>
        <time>2014-09-01T13:43:36.000Z</time>
      </trkpt>
      <trkpt lat="47.44561" lon="-0.48345">
        <ele>10.5</ele>
        <time>2014-09-01T13:43:38.000Z</time>
      </trkpt>
      <trkpt lat="47.44548" lon="-0.48339">
        <ele>11</ele>
        <time>2014-09-01T13:43:40.000Z</time>
      </trkpt>
      <trkpt lat="47.44536" lon="-0.48331">
        <ele>11.5</ele>
        <time>2014-09-01T13:43:42.000Z</time>
      </trkpt>
      <trkpt lat="47.44493" lon="-0.48299">
        <ele>12.699219</ele>
        <time>2014-09-01T13:43:50.000Z</time>
      </trkpt>
      <trkpt lat="47.44482" lon="-0.48293">
        <ele>13.097656</ele>
        <time>2014-09-01T13:43:52.000Z</time>
      </trkpt>
      <trkpt lat="47.44471" lon="-0.48288">
        <ele>13.398438</ele>
        <time>2014-09-01T13:43:54.000Z</time>
      </trkpt>
      <trkpt lat="47.4446" lon="-0.48284">
        <ele>13.796875</ele>
        <time>2014-09-01T13:43:56.000Z</time>
      </trkpt>
      <trkpt lat="47.44449" lon="-0.48281">
        <ele>14.097656</ele>
        <time>2014-09-01T13:43:58.000Z</time>
      </trkpt>
      <trkpt lat="47.44428" lon="-0.48277">
        <ele>14.699219</ele>
        <time>2014-09-01T13:44:02.000Z</time>
      </trkpt>
      <trkpt lat="47.44418" lon="-0.48272">
        <ele>14.796875</ele>
        <time>2014-09-01T13:44:04.000Z</time>
      </trkpt>
      <trkpt lat="47.44409" lon="-0.48264">
        <ele>15</ele>
        <time>2014-09-01T13:44:06.000Z</time>
      </trkpt>
      <trkpt lat="47.44374" lon="-0.48232">
        <ele>15</ele>
        <time>2014-09-01T13:44:14.000Z</time>
      </trkpt>
      <trkpt lat="47.44368" lon="-0.48223">
        <ele>14.597656</ele>
        <time>2014-09-01T13:44:16.000Z</time>
      </trkpt>
      <trkpt lat="47.44354" lon="-0.48203">
        <ele>14.699219</ele>
        <time>2014-09-01T13:44:20.000Z</time>
      </trkpt>
      <trkpt lat="47.44347" lon="-0.48191">
        <ele>14.796875</ele>
        <time>2014-09-01T13:44:22.000Z</time>
      </trkpt>
      <trkpt lat="47.44335" lon="-0.48168">
        <ele>15.097656</ele>
        <time>2014-09-01T13:44:26.000Z</time>
      </trkpt>
      <trkpt lat="47.44329" lon="-0.48155">
        <ele>15.296875</ele>
        <time>2014-09-01T13:44:28.000Z</time>
      </trkpt>
      <trkpt lat="47.44307" lon="-0.48102">
        <ele>15.5</ele>
        <time>2014-09-01T13:44:36.000Z</time>
      </trkpt>
      <trkpt lat="47.443" lon="-0.48091">
        <ele>15.097656</ele>
        <time>2014-09-01T13:44:38.000Z</time>
      </trkpt>
      <trkpt lat="47.44292" lon="-0.48081">
        <ele>18</ele>
        <time>2014-09-01T13:44:41.000Z</time>
      </trkpt>
      <trkpt lat="47.44285" lon="-0.48072">
        <ele>20.597656</ele>
        <time>2014-09-01T13:45:06.000Z</time>
      </trkpt>
      <trkpt lat="47.44285" lon="-0.48056">
        <ele>20.796875</ele>
        <time>2014-09-01T13:45:31.000Z</time>
      </trkpt>
      <trkpt lat="47.44289" lon="-0.4804">
        <ele>20.5</ele>
        <time>2014-09-01T13:45:34.000Z</time>
      </trkpt>
      <trkpt lat="47.44299" lon="-0.47995">
        <ele>16.796875</ele>
        <time>2014-09-01T13:45:46.000Z</time>
      </trkpt>
      <trkpt lat="47.44302" lon="-0.4801">
        <ele>16.699219</ele>
        <time>2014-09-01T13:46:38.000Z</time>
      </trkpt>
      <trkpt lat="47.44298" lon="-0.48024">
        <ele>16.898438</ele>
        <time>2014-09-01T13:46:41.000Z</time>
      </trkpt>
      <trkpt lat="47.44291" lon="-0.48052">
        <ele>18</ele>
        <time>2014-09-01T13:46:47.000Z</time>
      </trkpt>
      <trkpt lat="47.44292" lon="-0.48068">
        <ele>18</ele>
        <time>2014-09-01T13:46:51.000Z</time>
      </trkpt>
      <trkpt lat="47.44298" lon="-0.48081">
        <ele>17.898438</ele>
        <time>2014-09-01T13:46:54.000Z</time>
      </trkpt>
      <trkpt lat="47.44323" lon="-0.48133">
        <ele>16.796875</ele>
        <time>2014-09-01T13:47:04.000Z</time>
      </trkpt>
      <trkpt lat="47.4432" lon="-0.4812">
        <ele>16.5</ele>
        <time>2014-09-01T13:47:14.000Z</time>
      </trkpt>
      <trkpt lat="47.44329" lon="-0.48112">
        <ele>17.5</ele>
        <time>2014-09-01T13:47:21.000Z</time>
      </trkpt>
      <trkpt lat="47.44338" lon="-0.48105">
        <ele>18.597656</ele>
        <time>2014-09-01T13:47:25.000Z</time>
      </trkpt>
      <trkpt lat="47.44369" lon="-0.48081">
        <ele>20.898438</ele>
        <time>2014-09-01T13:47:36.000Z</time>
      </trkpt>
      <trkpt lat="47.44379" lon="-0.4807">
        <ele>22.097656</ele>
        <time>2014-09-01T13:47:39.000Z</time>
      </trkpt>
      <trkpt lat="47.44387" lon="-0.48057">
        <ele>23.199219</ele>
        <time>2014-09-01T13:47:42.000Z</time>
      </trkpt>
      <trkpt lat="47.44392" lon="-0.48043">
        <ele>23.699219</ele>
        <time>2014-09-01T13:47:45.000Z</time>
      </trkpt>
      <trkpt lat="47.44389" lon="-0.48027">
        <ele>23.398438</ele>
        <time>2014-09-01T13:47:48.000Z</time>
      </trkpt>
      <trkpt lat="47.4438" lon="-0.48016">
        <ele>23</ele>
        <time>2014-09-01T13:47:51.000Z</time>
      </trkpt>
      <trkpt lat="47.4437" lon="-0.4801">
        <ele>22.5</ele>
        <time>2014-09-01T13:47:54.000Z</time>
      </trkpt>
      <trkpt lat="47.44282" lon="-0.47963">
        <ele>22.296875</ele>
        <time>2014-09-01T13:48:14.000Z</time>
      </trkpt>
      <trkpt lat="47.44271" lon="-0.47952">
        <ele>21.796875</ele>
        <time>2014-09-01T13:48:17.000Z</time>
      </trkpt>
      <trkpt lat="47.44154" lon="-0.47849">
        <ele>16.398438</ele>
        <time>2014-09-01T13:48:43.000Z</time>
      </trkpt>
      <trkpt lat="47.44146" lon="-0.47839">
        <ele>14.796875</ele>
        <time>2014-09-01T13:48:45.000Z</time>
      </trkpt>
      <trkpt lat="47.4414" lon="-0.47828">
        <ele>14.597656</ele>
        <time>2014-09-01T13:48:47.000Z</time>
      </trkpt>
      <trkpt lat="47.44135" lon="-0.47814">
        <ele>14.597656</ele>
        <time>2014-09-01T13:48:49.000Z</time>
      </trkpt>
      <trkpt lat="47.4413" lon="-0.478">
        <ele>14.796875</ele>
        <time>2014-09-01T13:48:51.000Z</time>
      </trkpt>
      <trkpt lat="47.44127" lon="-0.47786">
        <ele>14.796875</ele>
        <time>2014-09-01T13:48:53.000Z</time>
      </trkpt>
      <trkpt lat="47.44126" lon="-0.47772">
        <ele>14.898438</ele>
        <time>2014-09-01T13:48:55.000Z</time>
      </trkpt>
      <trkpt lat="47.44124" lon="-0.47755">
        <ele>14.5</ele>
        <time>2014-09-01T13:48:58.000Z</time>
      </trkpt>
      <trkpt lat="47.44114" lon="-0.47751">
        <ele>15.097656</ele>
        <time>2014-09-01T13:49:03.000Z</time>
      </trkpt>
      <trkpt lat="47.44106" lon="-0.47761">
        <ele>16.199219</ele>
        <time>2014-09-01T13:49:06.000Z</time>
      </trkpt>
      <trkpt lat="47.44099" lon="-0.47773">
        <ele>16.699219</ele>
        <time>2014-09-01T13:49:09.000Z</time>
      </trkpt>
      <trkpt lat="47.44089" lon="-0.47782">
        <ele>16.796875</ele>
        <time>2014-09-01T13:49:12.000Z</time>
      </trkpt>
      <trkpt lat="47.44082" lon="-0.47791">
        <ele>16.5</ele>
        <time>2014-09-01T13:49:14.000Z</time>
      </trkpt>
      <trkpt lat="47.44075" lon="-0.47803">
        <ele>16.199219</ele>
        <time>2014-09-01T13:49:16.000Z</time>
      </trkpt>
      <trkpt lat="47.4402" lon="-0.47893">
        <ele>13.796875</ele>
        <time>2014-09-01T13:49:30.000Z</time>
      </trkpt>
      <trkpt lat="47.4401" lon="-0.47901">
        <ele>13</ele>
        <time>2014-09-01T13:49:32.000Z</time>
      </trkpt>
      <trkpt lat="47.43997" lon="-0.47905">
        <ele>12.097656</ele>
        <time>2014-09-01T13:49:34.000Z</time>
      </trkpt>
      <trkpt lat="47.43984" lon="-0.47908">
        <ele>11.5</ele>
        <time>2014-09-01T13:49:36.000Z</time>
      </trkpt>
      <trkpt lat="47.43957" lon="-0.47911">
        <ele>11.296875</ele>
        <time>2014-09-01T13:49:40.000Z</time>
      </trkpt>
      <trkpt lat="47.43899" lon="-0.47914">
        <ele>12</ele>
        <time>2014-09-01T13:49:50.000Z</time>
      </trkpt>
      <trkpt lat="47.43889" lon="-0.47916">
        <ele>12</ele>
        <time>2014-09-01T13:49:52.000Z</time>
      </trkpt>
      <trkpt lat="47.43878" lon="-0.47922">
        <ele>11.898438</ele>
        <time>2014-09-01T13:49:54.000Z</time>
      </trkpt>
      <trkpt lat="47.43869" lon="-0.47929">
        <ele>11.097656</ele>
        <time>2014-09-01T13:49:56.000Z</time>
      </trkpt>
      <trkpt lat="47.4385" lon="-0.47944">
        <ele>10.398438</ele>
        <time>2014-09-01T13:50:00.000Z</time>
      </trkpt>
      <trkpt lat="47.43831" lon="-0.47955">
        <ele>10.796875</ele>
        <time>2014-09-01T13:50:04.000Z</time>
      </trkpt>
      <trkpt lat="47.43825" lon="-0.47965">
        <ele>11</ele>
        <time>2014-09-01T13:50:06.000Z</time>
      </trkpt>
      <trkpt lat="47.43817" lon="-0.47975">
        <ele>11.296875</ele>
        <time>2014-09-01T13:50:08.000Z</time>
      </trkpt>
      <trkpt lat="47.43809" lon="-0.47982">
        <ele>11.5</ele>
        <time>2014-09-01T13:50:10.000Z</time>
      </trkpt>
      <trkpt lat="47.438" lon="-0.47988">
        <ele>11.796875</ele>
        <time>2014-09-01T13:50:12.000Z</time>
      </trkpt>
      <trkpt lat="47.43791" lon="-0.4799">
        <ele>12.199219</ele>
        <time>2014-09-01T13:50:14.000Z</time>
      </trkpt>
      <trkpt lat="47.43781" lon="-0.47992">
        <ele>12.5</ele>
        <time>2014-09-01T13:50:16.000Z</time>
      </trkpt>
      <trkpt lat="47.43771" lon="-0.47993">
        <ele>12.796875</ele>
        <time>2014-09-01T13:50:18.000Z</time>
      </trkpt>
      <trkpt lat="47.43761" lon="-0.47991">
        <ele>13</ele>
        <time>2014-09-01T13:50:20.000Z</time>
      </trkpt>
      <trkpt lat="47.4373" lon="-0.47985">
        <ele>13.796875</ele>
        <time>2014-09-01T13:50:26.000Z</time>
      </trkpt>
      <trkpt lat="47.43721" lon="-0.47989">
        <ele>14.097656</ele>
        <time>2014-09-01T13:50:28.000Z</time>
      </trkpt>
      <trkpt lat="47.43712" lon="-0.47995">
        <ele>14.199219</ele>
        <time>2014-09-01T13:50:30.000Z</time>
      </trkpt>
      <trkpt lat="47.43703" lon="-0.48002">
        <ele>14.296875</ele>
        <time>2014-09-01T13:50:32.000Z</time>
      </trkpt>
      <trkpt lat="47.43693" lon="-0.48006">
        <ele>14.5</ele>
        <time>2014-09-01T13:50:34.000Z</time>
      </trkpt>
      <trkpt lat="47.43683" lon="-0.48004">
        <ele>14.398438</ele>
        <time>2014-09-01T13:50:36.000Z</time>
      </trkpt>
      <trkpt lat="47.43674" lon="-0.47999">
        <ele>14.5</ele>
        <time>2014-09-01T13:50:38.000Z</time>
      </trkpt>
      <trkpt lat="47.43668" lon="-0.4799">
        <ele>14.796875</ele>
        <time>2014-09-01T13:50:40.000Z</time>
      </trkpt>
      <trkpt lat="47.43663" lon="-0.47978">
        <ele>14.898438</ele>
        <time>2014-09-01T13:50:42.000Z</time>
      </trkpt>
      <trkpt lat="47.43659" lon="-0.47965">
        <ele>15</ele>
        <time>2014-09-01T13:50:44.000Z</time>
      </trkpt>
      <trkpt lat="47.43655" lon="-0.47953">
        <ele>15.398438</ele>
        <time>2014-09-01T13:50:46.000Z</time>
      </trkpt>
      <trkpt lat="47.43649" lon="-0.47942">
        <ele>16.597656</ele>
        <time>2014-09-01T13:50:48.000Z</time>
      </trkpt>
      <trkpt lat="47.43639" lon="-0.47929">
        <ele>17.597656</ele>
        <time>2014-09-01T13:50:51.000Z</time>
      </trkpt>
      <trkpt lat="47.4363" lon="-0.47917">
        <ele>18.097656</ele>
        <time>2014-09-01T13:50:54.000Z</time>
      </trkpt>
      <trkpt lat="47.43622" lon="-0.47902">
        <ele>18.097656</ele>
        <time>2014-09-01T13:50:57.000Z</time>
      </trkpt>
      <trkpt lat="47.43617" lon="-0.47891">
        <ele>18</ele>
        <time>2014-09-01T13:50:59.000Z</time>
      </trkpt>
      <trkpt lat="47.43511" lon="-0.4762">
        <ele>17.597656</ele>
        <time>2014-09-01T13:51:37.000Z</time>
      </trkpt>
      <trkpt lat="47.43493" lon="-0.47587">
        <ele>16.898438</ele>
        <time>2014-09-01T13:51:43.000Z</time>
      </trkpt>
      <trkpt lat="47.43461" lon="-0.4753">
        <ele>14.597656</ele>
        <time>2014-09-01T13:51:54.000Z</time>
      </trkpt>
      <trkpt lat="47.43453" lon="-0.47519">
        <ele>16.597656</ele>
        <time>2014-09-01T13:51:57.000Z</time>
      </trkpt>
      <trkpt lat="47.43454" lon="-0.47505">
        <ele>16.398438</ele>
        <time>2014-09-01T13:55:55.000Z</time>
      </trkpt>
      <trkpt lat="47.43461" lon="-0.47497">
        <ele>15.796875</ele>
        <time>2014-09-01T13:56:07.000Z</time>
      </trkpt>
      <trkpt lat="47.43778" lon="-0.47103">
        <ele>9.5</ele>
        <time>2014-09-01T13:57:33.000Z</time>
      </trkpt>
      <trkpt lat="47.43827" lon="-0.47035">
        <ele>10.898438</ele>
        <time>2014-09-01T13:57:45.000Z</time>
      </trkpt>
      <trkpt lat="47.43877" lon="-0.46952">
        <ele>10.796875</ele>
        <time>2014-09-01T13:57:59.000Z</time>
      </trkpt>
      <trkpt lat="47.44223" lon="-0.46308">
        <ele>8.097656</ele>
        <time>2014-09-01T13:59:50.000Z</time>
      </trkpt>
      <trkpt lat="47.44228" lon="-0.46295">
        <ele>7.398438</ele>
        <time>2014-09-01T13:59:52.000Z</time>
      </trkpt>
      <trkpt lat="47.44272" lon="-0.46178">
        <ele>5.296875</ele>
        <time>2014-09-01T14:00:12.000Z</time>
      </trkpt>
      <trkpt lat="47.44275" lon="-0.46165">
        <ele>5.199219</ele>
        <time>2014-09-01T14:00:14.000Z</time>
      </trkpt>
      <trkpt lat="47.44322" lon="-0.45982">
        <ele>-3.199219</ele>
        <time>2014-09-01T14:00:40.000Z</time>
      </trkpt>
      <trkpt lat="47.44332" lon="-0.45923">
        <ele>-5.699219</ele>
        <time>2014-09-01T14:00:48.000Z</time>
      </trkpt>
      <trkpt lat="47.44369" lon="-0.45656">
        <ele>-6.199219</ele>
        <time>2014-09-01T14:01:26.000Z</time>
      </trkpt>
      <trkpt lat="47.44369" lon="-0.45642">
        <ele>-5.199219</ele>
        <time>2014-09-01T14:01:29.000Z</time>
      </trkpt>
      <trkpt lat="47.44358" lon="-0.45634">
        <ele>-5.199219</ele>
        <time>2014-09-01T14:01:33.000Z</time>
      </trkpt>
      <trkpt lat="47.4434" lon="-0.45621">
        <ele>-6.699219</ele>
        <time>2014-09-01T14:01:37.000Z</time>
      </trkpt>
      <trkpt lat="47.44302" lon="-0.456">
        <ele>-9.097656</ele>
        <time>2014-09-01T14:01:43.000Z</time>
      </trkpt>
      <trkpt lat="47.4429" lon="-0.45594">
        <ele>-9.398438</ele>
        <time>2014-09-01T14:01:45.000Z</time>
      </trkpt>
      <trkpt lat="47.44277" lon="-0.45591">
        <ele>-9.398438</ele>
        <time>2014-09-01T14:01:47.000Z</time>
      </trkpt>
      <trkpt lat="47.44231" lon="-0.45578">
        <ele>-7.097656</ele>
        <time>2014-09-01T14:01:55.000Z</time>
      </trkpt>
      <trkpt lat="47.4422" lon="-0.4558">
        <ele>-6.199219</ele>
        <time>2014-09-01T14:01:57.000Z</time>
      </trkpt>
      <trkpt lat="47.4421" lon="-0.45585">
        <ele>-5.296875</ele>
        <time>2014-09-01T14:01:59.000Z</time>
      </trkpt>
      <trkpt lat="47.44201" lon="-0.4559">
        <ele>-4.398438</ele>
        <time>2014-09-01T14:02:01.000Z</time>
      </trkpt>
      <trkpt lat="47.4416" lon="-0.4562">
        <ele>1.796875</ele>
        <time>2014-09-01T14:02:12.000Z</time>
      </trkpt>
      <trkpt lat="47.4415" lon="-0.45625">
        <ele>2.597656</ele>
        <time>2014-09-01T14:02:15.000Z</time>
      </trkpt>
      <trkpt lat="47.44141" lon="-0.4563">
        <ele>4.199219</ele>
        <time>2014-09-01T14:02:18.000Z</time>
      </trkpt>
      <trkpt lat="47.44131" lon="-0.45628">
        <ele>5.5</ele>
        <time>2014-09-01T14:02:25.000Z</time>
      </trkpt>
      <trkpt lat="47.44122" lon="-0.45625">
        <ele>13.597656</ele>
        <time>2014-09-01T14:02:37.000Z</time>
      </trkpt>
      <trkpt lat="47.44087" lon="-0.45609">
        <ele>13</ele>
        <time>2014-09-01T14:03:57.000Z</time>
      </trkpt>
      <trkpt lat="47.44081" lon="-0.45599">
        <ele>12.796875</ele>
        <time>2014-09-01T14:04:27.000Z</time>
      </trkpt>
      <trkpt lat="47.4408" lon="-0.45583">
        <ele>12.398438</ele>
        <time>2014-09-01T14:04:49.000Z</time>
      </trkpt>
      <trkpt lat="47.4408" lon="-0.45568">
        <ele>12.097656</ele>
        <time>2014-09-01T14:04:53.000Z</time>
      </trkpt>
      <trkpt lat="47.44081" lon="-0.45551">
        <ele>12</ele>
        <time>2014-09-01T14:04:57.000Z</time>
      </trkpt>
      <trkpt lat="47.44082" lon="-0.45537">
        <ele>11.796875</ele>
        <time>2014-09-01T14:05:00.000Z</time>
      </trkpt>
      <trkpt lat="47.44082" lon="-0.45521">
        <ele>11.597656</ele>
        <time>2014-09-01T14:05:03.000Z</time>
      </trkpt>
      <trkpt lat="47.44084" lon="-0.45489">
        <ele>11</ele>
        <time>2014-09-01T14:05:09.000Z</time>
      </trkpt>
      <trkpt lat="47.44086" lon="-0.45475">
        <ele>13.796875</ele>
        <time>2014-09-01T14:05:12.000Z</time>
      </trkpt>
      <trkpt lat="47.44078" lon="-0.45483">
        <ele>14.898438</ele>
        <time>2014-09-01T14:05:34.000Z</time>
      </trkpt>
      <trkpt lat="47.44075" lon="-0.45495">
        <ele>15.597656</ele>
        <time>2014-09-01T14:05:37.000Z</time>
      </trkpt>
      <trkpt lat="47.44073" lon="-0.45513">
        <ele>15.796875</ele>
        <time>2014-09-01T14:05:41.000Z</time>
      </trkpt>
      <trkpt lat="47.44072" lon="-0.45527">
        <ele>15.398438</ele>
        <time>2014-09-01T14:05:44.000Z</time>
      </trkpt>
      <trkpt lat="47.44067" lon="-0.45542">
        <ele>14.699219</ele>
        <time>2014-09-01T14:05:47.000Z</time>
      </trkpt>
      <trkpt lat="47.44057" lon="-0.45569">
        <ele>13.097656</ele>
        <time>2014-09-01T14:05:51.000Z</time>
      </trkpt>
      <trkpt lat="47.4405" lon="-0.45583">
        <ele>12.699219</ele>
        <time>2014-09-01T14:05:53.000Z</time>
      </trkpt>
      <trkpt lat="47.44038" lon="-0.45587">
        <ele>12.097656</ele>
        <time>2014-09-01T14:05:56.000Z</time>
      </trkpt>
      <trkpt lat="47.44029" lon="-0.45586">
        <ele>11.898438</ele>
        <time>2014-09-01T14:05:59.000Z</time>
      </trkpt>
      <trkpt lat="47.4402" lon="-0.45584">
        <ele>11.796875</ele>
        <time>2014-09-01T14:06:02.000Z</time>
      </trkpt>
      <trkpt lat="47.43929" lon="-0.45567">
        <ele>13.097656</ele>
        <time>2014-09-01T14:06:29.000Z</time>
      </trkpt>
      <trkpt lat="47.4391" lon="-0.45562">
        <ele>13.199219</ele>
        <time>2014-09-01T14:06:51.000Z</time>
      </trkpt>
      <trkpt lat="47.43356" lon="-0.45466">
        <ele>3.796875</ele>
        <time>2014-09-01T14:08:43.000Z</time>
      </trkpt>
      <trkpt lat="47.43345" lon="-0.45462">
        <ele>4</ele>
        <time>2014-09-01T14:08:46.000Z</time>
      </trkpt>
      <trkpt lat="47.43341" lon="-0.45449">
        <ele>4.296875</ele>
        <time>2014-09-01T14:08:49.000Z</time>
      </trkpt>
      <trkpt lat="47.43341" lon="-0.45433">
        <ele>4.699219</ele>
        <time>2014-09-01T14:08:52.000Z</time>
      </trkpt>
      <trkpt lat="47.43343" lon="-0.45384">
        <ele>5.199219</ele>
        <time>2014-09-01T14:08:59.000Z</time>
      </trkpt>
      <trkpt lat="47.43386" lon="-0.44531">
        <ele>9.796875</ele>
        <time>2014-09-01T14:10:51.000Z</time>
      </trkpt>
      <trkpt lat="47.43383" lon="-0.44513">
        <ele>10.097656</ele>
        <time>2014-09-01T14:10:54.000Z</time>
      </trkpt>
      <trkpt lat="47.43372" lon="-0.44511">
        <ele>9.898438</ele>
        <time>2014-09-01T14:10:57.000Z</time>
      </trkpt>
      <trkpt lat="47.4336" lon="-0.44516">
        <ele>9.5</ele>
        <time>2014-09-01T14:11:00.000Z</time>
      </trkpt>
      <trkpt lat="47.42872" lon="-0.44701">
        <ele>8.796875</ele>
        <time>2014-09-01T14:12:49.000Z</time>
      </trkpt>
      <trkpt lat="47.42861" lon="-0.44702">
        <ele>9</ele>
        <time>2014-09-01T14:12:53.000Z</time>
      </trkpt>
      <trkpt lat="47.42855" lon="-0.44691">
        <ele>9.398438</ele>
        <time>2014-09-01T14:12:56.000Z</time>
      </trkpt>
      <trkpt lat="47.42852" lon="-0.44676">
        <ele>9.898438</ele>
        <time>2014-09-01T14:12:59.000Z</time>
      </trkpt>
      <trkpt lat="47.42849" lon="-0.44644">
        <ele>10.398438</ele>
        <time>2014-09-01T14:13:05.000Z</time>
      </trkpt>
      <trkpt lat="47.42828" lon="-0.44432">
        <ele>11.597656</ele>
        <time>2014-09-01T14:13:35.000Z</time>
      </trkpt>
      <trkpt lat="47.42823" lon="-0.44421">
        <ele>11.898438</ele>
        <time>2014-09-01T14:13:37.000Z</time>
      </trkpt>
      <trkpt lat="47.42811" lon="-0.44413">
        <ele>12.097656</ele>
        <time>2014-09-01T14:13:40.000Z</time>
      </trkpt>
      <trkpt lat="47.42803" lon="-0.4441">
        <ele>12.398438</ele>
        <time>2014-09-01T14:13:42.000Z</time>
      </trkpt>
      <trkpt lat="47.42371" lon="-0.44228">
        <ele>15.398438</ele>
        <time>2014-09-01T14:15:12.000Z</time>
      </trkpt>
      <trkpt lat="47.42362" lon="-0.44218">
        <ele>15.699219</ele>
        <time>2014-09-01T14:15:15.000Z</time>
      </trkpt>
      <trkpt lat="47.42358" lon="-0.44203">
        <ele>15.597656</ele>
        <time>2014-09-01T14:15:18.000Z</time>
      </trkpt>
      <trkpt lat="47.42358" lon="-0.44186">
        <ele>15.597656</ele>
        <time>2014-09-01T14:15:21.000Z</time>
      </trkpt>
      <trkpt lat="47.42354" lon="-0.44129">
        <ele>14.796875</ele>
        <time>2014-09-01T14:15:29.000Z</time>
      </trkpt>
      <trkpt lat="47.42355" lon="-0.44114">
        <ele>14.796875</ele>
        <time>2014-09-01T14:15:31.000Z</time>
      </trkpt>
      <trkpt lat="47.42357" lon="-0.44101">
        <ele>14.597656</ele>
        <time>2014-09-01T14:15:33.000Z</time>
      </trkpt>
      <trkpt lat="47.4236" lon="-0.44088">
        <ele>14.5</ele>
        <time>2014-09-01T14:15:35.000Z</time>
      </trkpt>
      <trkpt lat="47.42363" lon="-0.44075">
        <ele>14.5</ele>
        <time>2014-09-01T14:15:37.000Z</time>
      </trkpt>
      <trkpt lat="47.42363" lon="-0.44062">
        <ele>14.398438</ele>
        <time>2014-09-01T14:15:39.000Z</time>
      </trkpt>
      <trkpt lat="47.42354" lon="-0.44048">
        <ele>14.199219</ele>
        <time>2014-09-01T14:15:42.000Z</time>
      </trkpt>
      <trkpt lat="47.42345" lon="-0.44043">
        <ele>14.097656</ele>
        <time>2014-09-01T14:15:44.000Z</time>
      </trkpt>
      <trkpt lat="47.42327" lon="-0.44032">
        <ele>13.796875</ele>
        <time>2014-09-01T14:15:48.000Z</time>
      </trkpt>
      <trkpt lat="47.42319" lon="-0.44024">
        <ele>13.796875</ele>
        <time>2014-09-01T14:15:50.000Z</time>
      </trkpt>
      <trkpt lat="47.42311" lon="-0.44016">
        <ele>13.699219</ele>
        <time>2014-09-01T14:15:52.000Z</time>
      </trkpt>
      <trkpt lat="47.42279" lon="-0.43981">
        <ele>13.398438</ele>
        <time>2014-09-01T14:16:00.000Z</time>
      </trkpt>
      <trkpt lat="47.42236" lon="-0.43939">
        <ele>12.796875</ele>
        <time>2014-09-01T14:16:10.000Z</time>
      </trkpt>
      <trkpt lat="47.42213" lon="-0.43912">
        <ele>12.898438</ele>
        <time>2014-09-01T14:16:16.000Z</time>
      </trkpt>
      <trkpt lat="47.42196" lon="-0.43895">
        <ele>13.097656</ele>
        <time>2014-09-01T14:16:20.000Z</time>
      </trkpt>
      <trkpt lat="47.42189" lon="-0.43885">
        <ele>13.199219</ele>
        <time>2014-09-01T14:16:22.000Z</time>
      </trkpt>
      <trkpt lat="47.42183" lon="-0.43874">
        <ele>13</ele>
        <time>2014-09-01T14:16:24.000Z</time>
      </trkpt>
      <trkpt lat="47.42154" lon="-0.43817">
        <ele>11.898438</ele>
        <time>2014-09-01T14:16:34.000Z</time>
      </trkpt>
      <trkpt lat="47.42147" lon="-0.43808">
        <ele>11.796875</ele>
        <time>2014-09-01T14:16:36.000Z</time>
      </trkpt>
      <trkpt lat="47.42138" lon="-0.43802">
        <ele>11.699219</ele>
        <time>2014-09-01T14:16:38.000Z</time>
      </trkpt>
      <trkpt lat="47.42109" lon="-0.43789">
        <ele>11.5</ele>
        <time>2014-09-01T14:16:44.000Z</time>
      </trkpt>
      <trkpt lat="47.42089" lon="-0.43781">
        <ele>11.296875</ele>
        <time>2014-09-01T14:16:48.000Z</time>
      </trkpt>
      <trkpt lat="47.42004" lon="-0.43747">
        <ele>11.398438</ele>
        <time>2014-09-01T14:17:06.000Z</time>
      </trkpt>
      <trkpt lat="47.41995" lon="-0.43742">
        <ele>11.296875</ele>
        <time>2014-09-01T14:17:08.000Z</time>
      </trkpt>
      <trkpt lat="47.41988" lon="-0.43727">
        <ele>11.5</ele>
        <time>2014-09-01T14:17:11.000Z</time>
      </trkpt>
      <trkpt lat="47.41988" lon="-0.43712">
        <ele>11.796875</ele>
        <time>2014-09-01T14:17:14.000Z</time>
      </trkpt>
      <trkpt lat="47.41984" lon="-0.43697">
        <ele>11.898438</ele>
        <time>2014-09-01T14:17:17.000Z</time>
      </trkpt>
      <trkpt lat="47.41977" lon="-0.43683">
        <ele>12.597656</ele>
        <time>2014-09-01T14:17:20.000Z</time>
      </trkpt>
      <trkpt lat="47.41965" lon="-0.43679">
        <ele>13</ele>
        <time>2014-09-01T14:17:23.000Z</time>
      </trkpt>
      <trkpt lat="47.41953" lon="-0.43678">
        <ele>12.398438</ele>
        <time>2014-09-01T14:17:26.000Z</time>
      </trkpt>
      <trkpt lat="47.41942" lon="-0.43676">
        <ele>13.199219</ele>
        <time>2014-09-01T14:17:29.000Z</time>
      </trkpt>
      <trkpt lat="47.41932" lon="-0.43683">
        <ele>15.398438</ele>
        <time>2014-09-01T14:17:37.000Z</time>
      </trkpt>
      <trkpt lat="47.41931" lon="-0.43701">
        <ele>16.097656</ele>
        <time>2014-09-01T14:17:41.000Z</time>
      </trkpt>
      <trkpt lat="47.41929" lon="-0.43793">
        <ele>19.097656</ele>
        <time>2014-09-01T14:17:54.000Z</time>
      </trkpt>
      <trkpt lat="47.41927" lon="-0.43808">
        <ele>19.296875</ele>
        <time>2014-09-01T14:17:56.000Z</time>
      </trkpt>
      <trkpt lat="47.41918" lon="-0.43869">
        <ele>19</ele>
        <time>2014-09-01T14:18:05.000Z</time>
      </trkpt>
      <trkpt lat="47.41917" lon="-0.43883">
        <ele>18.796875</ele>
        <time>2014-09-01T14:18:09.000Z</time>
      </trkpt>
      <trkpt lat="47.41919" lon="-0.43927">
        <ele>18.199219</ele>
        <time>2014-09-01T14:18:19.000Z</time>
      </trkpt>
      <trkpt lat="47.41936" lon="-0.44244">
        <ele>16.398438</ele>
        <time>2014-09-01T14:19:02.000Z</time>
      </trkpt>
      <trkpt lat="47.41938" lon="-0.44259">
        <ele>16.296875</ele>
        <time>2014-09-01T14:19:04.000Z</time>
      </trkpt>
      <trkpt lat="47.4194" lon="-0.44274">
        <ele>16.199219</ele>
        <time>2014-09-01T14:19:06.000Z</time>
      </trkpt>
      <trkpt lat="47.41955" lon="-0.44331">
        <ele>16.097656</ele>
        <time>2014-09-01T14:19:14.000Z</time>
      </trkpt>
      <trkpt lat="47.42016" lon="-0.44543">
        <ele>16.398438</ele>
        <time>2014-09-01T14:19:44.000Z</time>
      </trkpt>
      <trkpt lat="47.42018" lon="-0.44556">
        <ele>16.398438</ele>
        <time>2014-09-01T14:19:46.000Z</time>
      </trkpt>
      <trkpt lat="47.42023" lon="-0.4459">
        <ele>16.296875</ele>
        <time>2014-09-01T14:19:52.000Z</time>
      </trkpt>
      <trkpt lat="47.42024" lon="-0.44604">
        <ele>16.199219</ele>
        <time>2014-09-01T14:19:55.000Z</time>
      </trkpt>
      <trkpt lat="47.42024" lon="-0.44621">
        <ele>16.097656</ele>
        <time>2014-09-01T14:19:59.000Z</time>
      </trkpt>
      <trkpt lat="47.42016" lon="-0.44831">
        <ele>15.699219</ele>
        <time>2014-09-01T14:20:29.000Z</time>
      </trkpt>
      <trkpt lat="47.42013" lon="-0.44862">
        <ele>16.296875</ele>
        <time>2014-09-01T14:20:35.000Z</time>
      </trkpt>
      <trkpt lat="47.42017" lon="-0.44876">
        <ele>16.398438</ele>
        <time>2014-09-01T14:20:38.000Z</time>
      </trkpt>
      <trkpt lat="47.4202" lon="-0.44892">
        <ele>16.597656</ele>
        <time>2014-09-01T14:20:41.000Z</time>
      </trkpt>
      <trkpt lat="47.42016" lon="-0.44908">
        <ele>16.699219</ele>
        <time>2014-09-01T14:20:44.000Z</time>
      </trkpt>
      <trkpt lat="47.42008" lon="-0.44921">
        <ele>17.097656</ele>
        <time>2014-09-01T14:20:47.000Z</time>
      </trkpt>
      <trkpt lat="47.42006" lon="-0.44936">
        <ele>17.398438</ele>
        <time>2014-09-01T14:20:52.000Z</time>
      </trkpt>
      <trkpt lat="47.42013" lon="-0.44951">
        <ele>17.5</ele>
        <time>2014-09-01T14:20:56.000Z</time>
      </trkpt>
      <trkpt lat="47.42053" lon="-0.45043">
        <ele>17.296875</ele>
        <time>2014-09-01T14:21:12.000Z</time>
      </trkpt>
      <trkpt lat="47.42056" lon="-0.4506">
        <ele>17.5</ele>
        <time>2014-09-01T14:21:15.000Z</time>
      </trkpt>
      <trkpt lat="47.42052" lon="-0.45075">
        <ele>17.597656</ele>
        <time>2014-09-01T14:21:18.000Z</time>
      </trkpt>
      <trkpt lat="47.42048" lon="-0.4509">
        <ele>17.398438</ele>
        <time>2014-09-01T14:21:21.000Z</time>
      </trkpt>
      <trkpt lat="47.42038" lon="-0.4512">
        <ele>17.5</ele>
        <time>2014-09-01T14:21:26.000Z</time>
      </trkpt>
      <trkpt lat="47.42024" lon="-0.45159">
        <ele>18</ele>
        <time>2014-09-01T14:21:32.000Z</time>
      </trkpt>
      <trkpt lat="47.4202" lon="-0.45171">
        <ele>22.699219</ele>
        <time>2014-09-01T14:21:35.000Z</time>
      </trkpt>
      <trkpt lat="47.42015" lon="-0.45184">
        <ele>26.5</ele>
        <time>2014-09-01T14:22:06.000Z</time>
      </trkpt>
      <trkpt lat="47.42011" lon="-0.452">
        <ele>25.796875</ele>
        <time>2014-09-01T14:22:52.000Z</time>
      </trkpt>
      <trkpt lat="47.42005" lon="-0.45213">
        <ele>25.5</ele>
        <time>2014-09-01T14:22:57.000Z</time>
      </trkpt>
      <trkpt lat="47.41991" lon="-0.45257">
        <ele>25.097656</ele>
        <time>2014-09-01T14:23:06.000Z</time>
      </trkpt>
      <trkpt lat="47.41987" lon="-0.4527">
        <ele>25</ele>
        <time>2014-09-01T14:23:08.000Z</time>
      </trkpt>
      <trkpt lat="47.41984" lon="-0.45284">
        <ele>24.898438</ele>
        <time>2014-09-01T14:23:10.000Z</time>
      </trkpt>
      <trkpt lat="47.41982" lon="-0.45297">
        <ele>24.699219</ele>
        <time>2014-09-01T14:23:12.000Z</time>
      </trkpt>
      <trkpt lat="47.41974" lon="-0.45356">
        <ele>24.199219</ele>
        <time>2014-09-01T14:23:21.000Z</time>
      </trkpt>
      <trkpt lat="47.41974" lon="-0.45374">
        <ele>23.796875</ele>
        <time>2014-09-01T14:23:24.000Z</time>
      </trkpt>
      <trkpt lat="47.41976" lon="-0.45394">
        <ele>23.597656</ele>
        <time>2014-09-01T14:23:27.000Z</time>
      </trkpt>
      <trkpt lat="47.41977" lon="-0.45407">
        <ele>23.398438</ele>
        <time>2014-09-01T14:23:29.000Z</time>
      </trkpt>
      <trkpt lat="47.41978" lon="-0.45446">
        <ele>22.898438</ele>
        <time>2014-09-01T14:23:35.000Z</time>
      </trkpt>
      <trkpt lat="47.41972" lon="-0.45873">
        <ele>20.5</ele>
        <time>2014-09-01T14:24:40.000Z</time>
      </trkpt>
      <trkpt lat="47.41968" lon="-0.45931">
        <ele>20.398438</ele>
        <time>2014-09-01T14:24:49.000Z</time>
      </trkpt>
      <trkpt lat="47.41936" lon="-0.46279">
        <ele>18.796875</ele>
        <time>2014-09-01T14:25:41.000Z</time>
      </trkpt>
      <trkpt lat="47.41934" lon="-0.46293">
        <ele>18.796875</ele>
        <time>2014-09-01T14:25:43.000Z</time>
      </trkpt>
      <trkpt lat="47.41892" lon="-0.46533">
        <ele>19.296875</ele>
        <time>2014-09-01T14:26:19.000Z</time>
      </trkpt>
      <trkpt lat="47.4189" lon="-0.46561">
        <ele>19.296875</ele>
        <time>2014-09-01T14:26:23.000Z</time>
      </trkpt>
      <trkpt lat="47.41852" lon="-0.47182">
        <ele>15.097656</ele>
        <time>2014-09-01T14:27:54.000Z</time>
      </trkpt>
      <trkpt lat="47.41846" lon="-0.4723">
        <ele>15.097656</ele>
        <time>2014-09-01T14:28:01.000Z</time>
      </trkpt>
      <trkpt lat="47.41845" lon="-0.47245">
        <ele>15.097656</ele>
        <time>2014-09-01T14:28:03.000Z</time>
      </trkpt>
      <trkpt lat="47.41844" lon="-0.47275">
        <ele>15.296875</ele>
        <time>2014-09-01T14:28:07.000Z</time>
      </trkpt>
      <trkpt lat="47.41849" lon="-0.47382">
        <ele>15.199219</ele>
        <time>2014-09-01T14:28:23.000Z</time>
      </trkpt>
      <trkpt lat="47.41869" lon="-0.47718">
        <ele>16.296875</ele>
        <time>2014-09-01T14:29:17.000Z</time>
      </trkpt>
      <trkpt lat="47.41928" lon="-0.48448">
        <ele>15.398438</ele>
        <time>2014-09-01T14:31:17.000Z</time>
      </trkpt>
      <trkpt lat="47.41932" lon="-0.48466">
        <ele>15.5</ele>
        <time>2014-09-01T14:31:20.000Z</time>
      </trkpt>
      <trkpt lat="47.41941" lon="-0.48502">
        <ele>15.597656</ele>
        <time>2014-09-01T14:31:26.000Z</time>
      </trkpt>
      <trkpt lat="47.41999" lon="-0.48708">
        <ele>15.597656</ele>
        <time>2014-09-01T14:32:02.000Z</time>
      </trkpt>
      <trkpt lat="47.42005" lon="-0.48724">
        <ele>15.5</ele>
        <time>2014-09-01T14:32:05.000Z</time>
      </trkpt>
      <trkpt lat="47.42011" lon="-0.48741">
        <ele>15.597656</ele>
        <time>2014-09-01T14:32:08.000Z</time>
      </trkpt>
      <trkpt lat="47.42015" lon="-0.48758">
        <ele>15.597656</ele>
        <time>2014-09-01T14:32:11.000Z</time>
      </trkpt>
      <trkpt lat="47.42019" lon="-0.48775">
        <ele>15.597656</ele>
        <time>2014-09-01T14:32:14.000Z</time>
      </trkpt>
      <trkpt lat="47.42035" lon="-0.48827">
        <ele>15.5</ele>
        <time>2014-09-01T14:32:23.000Z</time>
      </trkpt>
      <trkpt lat="47.42073" lon="-0.48944">
        <ele>15.597656</ele>
        <time>2014-09-01T14:32:44.000Z</time>
      </trkpt>
      <trkpt lat="47.42129" lon="-0.49106">
        <ele>16.097656</ele>
        <time>2014-09-01T14:33:14.000Z</time>
      </trkpt>
      <trkpt lat="47.42132" lon="-0.49121">
        <ele>16.097656</ele>
        <time>2014-09-01T14:33:17.000Z</time>
      </trkpt>
      <trkpt lat="47.42133" lon="-0.49138">
        <ele>16.097656</ele>
        <time>2014-09-01T14:33:20.000Z</time>
      </trkpt>
      <trkpt lat="47.42134" lon="-0.49189">
        <ele>16.398438</ele>
        <time>2014-09-01T14:33:29.000Z</time>
      </trkpt>
      <trkpt lat="47.42136" lon="-0.49205">
        <ele>16.699219</ele>
        <time>2014-09-01T14:33:32.000Z</time>
      </trkpt>
      <trkpt lat="47.42138" lon="-0.49239">
        <ele>17.398438</ele>
        <time>2014-09-01T14:33:38.000Z</time>
      </trkpt>
      <trkpt lat="47.42144" lon="-0.49351">
        <ele>20.199219</ele>
        <time>2014-09-01T14:34:01.000Z</time>
      </trkpt>
      <trkpt lat="47.42148" lon="-0.49383">
        <ele>19.5</ele>
        <time>2014-09-01T14:34:08.000Z</time>
      </trkpt>
      <trkpt lat="47.42152" lon="-0.49397">
        <ele>18.398438</ele>
        <time>2014-09-01T14:34:11.000Z</time>
      </trkpt>
      <trkpt lat="47.42155" lon="-0.49411">
        <ele>17.296875</ele>
        <time>2014-09-01T14:34:14.000Z</time>
      </trkpt>
      <trkpt lat="47.4216" lon="-0.49425">
        <ele>16.296875</ele>
        <time>2014-09-01T14:34:17.000Z</time>
      </trkpt>
      <trkpt lat="47.42172" lon="-0.49454">
        <ele>16.199219</ele>
        <time>2014-09-01T14:34:23.000Z</time>
      </trkpt>
      <trkpt lat="47.42179" lon="-0.49469">
        <ele>16.5</ele>
        <time>2014-09-01T14:34:26.000Z</time>
      </trkpt>
      <trkpt lat="47.42187" lon="-0.49483">
        <ele>16.898438</ele>
        <time>2014-09-01T14:34:29.000Z</time>
      </trkpt>
      <trkpt lat="47.42195" lon="-0.49497">
        <ele>17.199219</ele>
        <time>2014-09-01T14:34:32.000Z</time>
      </trkpt>
      <trkpt lat="47.42204" lon="-0.49509">
        <ele>17.296875</ele>
        <time>2014-09-01T14:34:35.000Z</time>
      </trkpt>
      <trkpt lat="47.42223" lon="-0.49533">
        <ele>17.199219</ele>
        <time>2014-09-01T14:34:41.000Z</time>
      </trkpt>
      <trkpt lat="47.42233" lon="-0.49544">
        <ele>17.199219</ele>
        <time>2014-09-01T14:34:44.000Z</time>
      </trkpt>
      <trkpt lat="47.42347" lon="-0.49669">
        <ele>17.097656</ele>
        <time>2014-09-01T14:35:17.000Z</time>
      </trkpt>
      <trkpt lat="47.42356" lon="-0.49681">
        <ele>17.097656</ele>
        <time>2014-09-01T14:35:20.000Z</time>
      </trkpt>
      <trkpt lat="47.42365" lon="-0.49694">
        <ele>17</ele>
        <time>2014-09-01T14:35:23.000Z</time>
      </trkpt>
      <trkpt lat="47.42382" lon="-0.49722">
        <ele>17.398438</ele>
        <time>2014-09-01T14:35:29.000Z</time>
      </trkpt>
      <trkpt lat="47.42397" lon="-0.49751">
        <ele>17.398438</ele>
        <time>2014-09-01T14:35:35.000Z</time>
      </trkpt>
      <trkpt lat="47.42404" lon="-0.49766">
        <ele>17.296875</ele>
        <time>2014-09-01T14:35:38.000Z</time>
      </trkpt>
      <trkpt lat="47.4241" lon="-0.49783">
        <ele>17.296875</ele>
        <time>2014-09-01T14:35:41.000Z</time>
      </trkpt>
      <trkpt lat="47.42412" lon="-0.49801">
        <ele>17.199219</ele>
        <time>2014-09-01T14:35:44.000Z</time>
      </trkpt>
      <trkpt lat="47.42414" lon="-0.4982">
        <ele>17.199219</ele>
        <time>2014-09-01T14:35:47.000Z</time>
      </trkpt>
      <trkpt lat="47.42415" lon="-0.4984">
        <ele>17.199219</ele>
        <time>2014-09-01T14:35:50.000Z</time>
      </trkpt>
      <trkpt lat="47.42423" lon="-0.49974">
        <ele>17.296875</ele>
        <time>2014-09-01T14:36:11.000Z</time>
      </trkpt>
      <trkpt lat="47.42421" lon="-0.49993">
        <ele>17.199219</ele>
        <time>2014-09-01T14:36:14.000Z</time>
      </trkpt>
      <trkpt lat="47.42412" lon="-0.50064">
        <ele>17.699219</ele>
        <time>2014-09-01T14:36:25.000Z</time>
      </trkpt>
      <trkpt lat="47.42406" lon="-0.501">
        <ele>17.398438</ele>
        <time>2014-09-01T14:36:31.000Z</time>
      </trkpt>
      <trkpt lat="47.42397" lon="-0.50137">
        <ele>17.398438</ele>
        <time>2014-09-01T14:36:37.000Z</time>
      </trkpt>
      <trkpt lat="47.42347" lon="-0.50346">
        <ele>18.199219</ele>
        <time>2014-09-01T14:37:10.000Z</time>
      </trkpt>
      <trkpt lat="47.42345" lon="-0.50361">
        <ele>17.597656</ele>
        <time>2014-09-01T14:37:12.000Z</time>
      </trkpt>
      <trkpt lat="47.42343" lon="-0.50376">
        <ele>17.898438</ele>
        <time>2014-09-01T14:37:14.000Z</time>
      </trkpt>
      <trkpt lat="47.4234" lon="-0.50405">
        <ele>19.796875</ele>
        <time>2014-09-01T14:37:18.000Z</time>
      </trkpt>
      <trkpt lat="47.42338" lon="-0.50454">
        <ele>20.699219</ele>
        <time>2014-09-01T14:37:25.000Z</time>
      </trkpt>
      <trkpt lat="47.42339" lon="-0.50553">
        <ele>19.898438</ele>
        <time>2014-09-01T14:37:43.000Z</time>
      </trkpt>
      <trkpt lat="47.42341" lon="-0.5057">
        <ele>20</ele>
        <time>2014-09-01T14:37:46.000Z</time>
      </trkpt>
      <trkpt lat="47.42346" lon="-0.50601">
        <ele>20.398438</ele>
        <time>2014-09-01T14:37:52.000Z</time>
      </trkpt>
      <trkpt lat="47.42378" lon="-0.50771">
        <ele>18.097656</ele>
        <time>2014-09-01T14:38:21.000Z</time>
      </trkpt>
      <trkpt lat="47.42387" lon="-0.50807">
        <ele>18.296875</ele>
        <time>2014-09-01T14:38:27.000Z</time>
      </trkpt>
      <trkpt lat="47.42408" lon="-0.50876">
        <ele>18.398438</ele>
        <time>2014-09-01T14:38:39.000Z</time>
      </trkpt>
      <trkpt lat="47.42467" lon="-0.51056">
        <ele>18.199219</ele>
        <time>2014-09-01T14:39:12.000Z</time>
      </trkpt>
      <trkpt lat="47.42487" lon="-0.511">
        <ele>17.898438</ele>
        <time>2014-09-01T14:39:21.000Z</time>
      </trkpt>
      <trkpt lat="47.42551" lon="-0.51227">
        <ele>17.796875</ele>
        <time>2014-09-01T14:39:48.000Z</time>
      </trkpt>
      <trkpt lat="47.42559" lon="-0.51241">
        <ele>17.796875</ele>
        <time>2014-09-01T14:39:51.000Z</time>
      </trkpt>
      <trkpt lat="47.42584" lon="-0.51276">
        <ele>17.699219</ele>
        <time>2014-09-01T14:40:00.000Z</time>
      </trkpt>
      <trkpt lat="47.42808" lon="-0.51587">
        <ele>16.199219</ele>
        <time>2014-09-01T14:41:11.000Z</time>
      </trkpt>
      <trkpt lat="47.42817" lon="-0.51602">
        <ele>16.199219</ele>
        <time>2014-09-01T14:41:14.000Z</time>
      </trkpt>
      <trkpt lat="47.42825" lon="-0.51618">
        <ele>16.097656</ele>
        <time>2014-09-01T14:41:17.000Z</time>
      </trkpt>
      <trkpt lat="47.42832" lon="-0.51634">
        <ele>16</ele>
        <time>2014-09-01T14:41:20.000Z</time>
      </trkpt>
      <trkpt lat="47.42839" lon="-0.51651">
        <ele>15.898438</ele>
        <time>2014-09-01T14:41:23.000Z</time>
      </trkpt>
      <trkpt lat="47.42844" lon="-0.51669">
        <ele>15.898438</ele>
        <time>2014-09-01T14:41:26.000Z</time>
      </trkpt>
      <trkpt lat="47.42849" lon="-0.51686">
        <ele>16</ele>
        <time>2014-09-01T14:41:29.000Z</time>
      </trkpt>
      <trkpt lat="47.42853" lon="-0.51704">
        <ele>16.199219</ele>
        <time>2014-09-01T14:41:32.000Z</time>
      </trkpt>
      <trkpt lat="47.42856" lon="-0.51722">
        <ele>16.097656</ele>
        <time>2014-09-01T14:41:35.000Z</time>
      </trkpt>
      <trkpt lat="47.42858" lon="-0.5174">
        <ele>16</ele>
        <time>2014-09-01T14:41:38.000Z</time>
      </trkpt>
      <trkpt lat="47.42869" lon="-0.51908">
        <ele>15.699219</ele>
        <time>2014-09-01T14:42:05.000Z</time>
      </trkpt>
      <trkpt lat="47.42879" lon="-0.52077">
        <ele>16.296875</ele>
        <time>2014-09-01T14:42:35.000Z</time>
      </trkpt>
      <trkpt lat="47.42882" lon="-0.52095">
        <ele>16.199219</ele>
        <time>2014-09-01T14:42:38.000Z</time>
      </trkpt>
      <trkpt lat="47.42883" lon="-0.52112">
        <ele>16.199219</ele>
        <time>2014-09-01T14:42:41.000Z</time>
      </trkpt>
      <trkpt lat="47.42885" lon="-0.52129">
        <ele>16.097656</ele>
        <time>2014-09-01T14:42:44.000Z</time>
      </trkpt>
      <trkpt lat="47.42884" lon="-0.52145">
        <ele>16.097656</ele>
        <time>2014-09-01T14:42:47.000Z</time>
      </trkpt>
      <trkpt lat="47.42885" lon="-0.52162">
        <ele>16.199219</ele>
        <time>2014-09-01T14:42:50.000Z</time>
      </trkpt>
      <trkpt lat="47.42894" lon="-0.52318">
        <ele>17.5</ele>
        <time>2014-09-01T14:43:17.000Z</time>
      </trkpt>
      <trkpt lat="47.42893" lon="-0.52336">
        <ele>17.597656</ele>
        <time>2014-09-01T14:43:20.000Z</time>
      </trkpt>
      <trkpt lat="47.42892" lon="-0.52354">
        <ele>18</ele>
        <time>2014-09-01T14:43:23.000Z</time>
      </trkpt>
      <trkpt lat="47.42887" lon="-0.52388">
        <ele>18.296875</ele>
        <time>2014-09-01T14:43:29.000Z</time>
      </trkpt>
      <trkpt lat="47.4288" lon="-0.52418">
        <ele>18.398438</ele>
        <time>2014-09-01T14:43:36.000Z</time>
      </trkpt>
      <trkpt lat="47.42842" lon="-0.52577">
        <ele>18.296875</ele>
        <time>2014-09-01T14:44:11.000Z</time>
      </trkpt>
      <trkpt lat="47.42842" lon="-0.52591">
        <ele>17.199219</ele>
        <time>2014-09-01T14:44:15.000Z</time>
      </trkpt>
      <trkpt lat="47.4285" lon="-0.52604">
        <ele>15.898438</ele>
        <time>2014-09-01T14:44:19.000Z</time>
      </trkpt>
      <trkpt lat="47.42863" lon="-0.52603">
        <ele>15</ele>
        <time>2014-09-01T14:44:22.000Z</time>
      </trkpt>
      <trkpt lat="47.42875" lon="-0.52598">
        <ele>14.796875</ele>
        <time>2014-09-01T14:44:25.000Z</time>
      </trkpt>
      <trkpt lat="47.42887" lon="-0.52593">
        <ele>14.796875</ele>
        <time>2014-09-01T14:44:28.000Z</time>
      </trkpt>
      <trkpt lat="47.42898" lon="-0.5259">
        <ele>14.699219</ele>
        <time>2014-09-01T14:44:31.000Z</time>
      </trkpt>
      <trkpt lat="47.42908" lon="-0.52588">
        <ele>14.5</ele>
        <time>2014-09-01T14:44:34.000Z</time>
      </trkpt>
      <trkpt lat="47.42917" lon="-0.52595">
        <ele>14.296875</ele>
        <time>2014-09-01T14:44:38.000Z</time>
      </trkpt>
      <trkpt lat="47.42916" lon="-0.52608">
        <ele>13.597656</ele>
        <time>2014-09-01T14:44:41.000Z</time>
      </trkpt>
      <trkpt lat="47.42914" lon="-0.52622">
        <ele>13</ele>
        <time>2014-09-01T14:44:44.000Z</time>
      </trkpt>
      <trkpt lat="47.42916" lon="-0.52636">
        <ele>13.097656</ele>
        <time>2014-09-01T14:44:47.000Z</time>
      </trkpt>
      <trkpt lat="47.42922" lon="-0.52648">
        <ele>13.296875</ele>
        <time>2014-09-01T14:44:50.000Z</time>
      </trkpt>
      <trkpt lat="47.42929" lon="-0.52659">
        <ele>13.398438</ele>
        <time>2014-09-01T14:44:53.000Z</time>
      </trkpt>
      <trkpt lat="47.42936" lon="-0.5267">
        <ele>13.699219</ele>
        <time>2014-09-01T14:44:56.000Z</time>
      </trkpt>
      <trkpt lat="47.42944" lon="-0.5268">
        <ele>13.898438</ele>
        <time>2014-09-01T14:44:59.000Z</time>
      </trkpt>
      <trkpt lat="47.42953" lon="-0.52688">
        <ele>14.898438</ele>
        <time>2014-09-01T14:45:02.000Z</time>
      </trkpt>
      <trkpt lat="47.42963" lon="-0.52694">
        <ele>15.597656</ele>
        <time>2014-09-01T14:45:05.000Z</time>
      </trkpt>
      <trkpt lat="47.42971" lon="-0.527">
        <ele>15.898438</ele>
        <time>2014-09-01T14:45:08.000Z</time>
      </trkpt>
      <trkpt lat="47.42983" lon="-0.52705">
        <ele>16.699219</ele>
        <time>2014-09-01T14:45:12.000Z</time>
      </trkpt>
      <trkpt lat="47.42986" lon="-0.52718">
        <ele>18.097656</ele>
        <time>2014-09-01T14:45:16.000Z</time>
      </trkpt>
      <trkpt lat="47.42983" lon="-0.52731">
        <ele>18.898438</ele>
        <time>2014-09-01T14:45:19.000Z</time>
      </trkpt>
      <trkpt lat="47.42981" lon="-0.52745">
        <ele>20.296875</ele>
        <time>2014-09-01T14:45:22.000Z</time>
      </trkpt>
      <trkpt lat="47.42976" lon="-0.52791">
        <ele>25.597656</ele>
        <time>2014-09-01T14:45:54.000Z</time>
      </trkpt>
      <trkpt lat="47.42966" lon="-0.52795">
        <ele>25.199219</ele>
        <time>2014-09-01T14:45:58.000Z</time>
      </trkpt>
      <trkpt lat="47.42956" lon="-0.52794">
        <ele>26</ele>
        <time>2014-09-01T14:46:01.000Z</time>
      </trkpt>
      <trkpt lat="47.42945" lon="-0.52795">
        <ele>35.097656</ele>
        <time>2014-09-01T14:46:05.000Z</time>
      </trkpt>
      <trkpt lat="47.42937" lon="-0.52784">
        <ele>34.699219</ele>
        <time>2014-09-01T14:46:34.000Z</time>
      </trkpt>
      <trkpt lat="47.42926" lon="-0.5278">
        <ele>33.5</ele>
        <time>2014-09-01T14:46:38.000Z</time>
      </trkpt>
      <trkpt lat="47.42916" lon="-0.52779">
        <ele>32.097656</ele>
        <time>2014-09-01T14:46:41.000Z</time>
      </trkpt>
      <trkpt lat="47.42906" lon="-0.52777">
        <ele>31</ele>
        <time>2014-09-01T14:46:44.000Z</time>
      </trkpt>
      <trkpt lat="47.42896" lon="-0.52774">
        <ele>29.898438</ele>
        <time>2014-09-01T14:46:47.000Z</time>
      </trkpt>
      <trkpt lat="47.42866" lon="-0.52762">
        <ele>22.699219</ele>
        <time>2014-09-01T14:46:57.000Z</time>
      </trkpt>
      <trkpt lat="47.42858" lon="-0.52756">
        <ele>22.5</ele>
        <time>2014-09-01T14:47:00.000Z</time>
      </trkpt>
      <trkpt lat="47.42847" lon="-0.52751">
        <ele>21.699219</ele>
        <time>2014-09-01T14:47:03.000Z</time>
      </trkpt>
      <trkpt lat="47.42797" lon="-0.52729">
        <ele>20.097656</ele>
        <time>2014-09-01T14:47:18.000Z</time>
      </trkpt>
      <trkpt lat="47.42788" lon="-0.52724">
        <ele>43.199219</ele>
        <time>2014-09-01T14:47:21.000Z</time>
      </trkpt>
      <trkpt lat="47.42512" lon="-0.52539">
        <ele>21.597656</ele>
        <time>2014-09-01T14:52:51.000Z</time>
      </trkpt>
      <trkpt lat="47.42503" lon="-0.52536">
        <ele>21.398438</ele>
        <time>2014-09-01T14:52:55.000Z</time>
      </trkpt>
      <trkpt lat="47.42493" lon="-0.52539">
        <ele>22</ele>
        <time>2014-09-01T14:53:01.000Z</time>
      </trkpt>
      <trkpt lat="47.42483" lon="-0.52544">
        <ele>22.199219</ele>
        <time>2014-09-01T14:53:13.000Z</time>
      </trkpt>
      <trkpt lat="47.42474" lon="-0.52547">
        <ele>22.199219</ele>
        <time>2014-09-01T14:53:18.000Z</time>
      </trkpt>
      <trkpt lat="47.42469" lon="-0.52561">
        <ele>22.199219</ele>
        <time>2014-09-01T14:53:22.000Z</time>
      </trkpt>
      <trkpt lat="47.42465" lon="-0.52573">
        <ele>21.597656</ele>
        <time>2014-09-01T14:53:25.000Z</time>
      </trkpt>
      <trkpt lat="47.42456" lon="-0.52605">
        <ele>20.5</ele>
        <time>2014-09-01T14:53:31.000Z</time>
      </trkpt>
      <trkpt lat="47.42453" lon="-0.52617">
        <ele>18.898438</ele>
        <time>2014-09-01T14:53:33.000Z</time>
      </trkpt>
      <trkpt lat="47.42434" lon="-0.52722">
        <ele>22.398438</ele>
        <time>2014-09-01T14:53:49.000Z</time>
      </trkpt>
      <trkpt lat="47.42429" lon="-0.52738">
        <ele>21.898438</ele>
        <time>2014-09-01T14:53:52.000Z</time>
      </trkpt>
      <trkpt lat="47.42421" lon="-0.52748">
        <ele>21.5</ele>
        <time>2014-09-01T14:53:55.000Z</time>
      </trkpt>
      <trkpt lat="47.42415" lon="-0.52762">
        <ele>21.398438</ele>
        <time>2014-09-01T14:53:58.000Z</time>
      </trkpt>
      <trkpt lat="47.42403" lon="-0.52793">
        <ele>23.699219</ele>
        <time>2014-09-01T14:54:04.000Z</time>
      </trkpt>
      <trkpt lat="47.42395" lon="-0.52808">
        <ele>24.898438</ele>
        <time>2014-09-01T14:54:07.000Z</time>
      </trkpt>
      <trkpt lat="47.42391" lon="-0.52821">
        <ele>24</ele>
        <time>2014-09-01T14:54:09.000Z</time>
      </trkpt>
      <trkpt lat="47.4239" lon="-0.5284">
        <ele>22.796875</ele>
        <time>2014-09-01T14:54:12.000Z</time>
      </trkpt>
      <trkpt lat="47.42392" lon="-0.52858">
        <ele>21.699219</ele>
        <time>2014-09-01T14:54:15.000Z</time>
      </trkpt>
      <trkpt lat="47.42398" lon="-0.52874">
        <ele>20.796875</ele>
        <time>2014-09-01T14:54:18.000Z</time>
      </trkpt>
      <trkpt lat="47.42406" lon="-0.52886">
        <ele>18.898438</ele>
        <time>2014-09-01T14:54:21.000Z</time>
      </trkpt>
      <trkpt lat="47.42416" lon="-0.52895">
        <ele>17.097656</ele>
        <time>2014-09-01T14:54:24.000Z</time>
      </trkpt>
      <trkpt lat="47.42425" lon="-0.52899">
        <ele>15.796875</ele>
        <time>2014-09-01T14:54:27.000Z</time>
      </trkpt>
      <trkpt lat="47.42435" lon="-0.52902">
        <ele>15</ele>
        <time>2014-09-01T14:54:30.000Z</time>
      </trkpt>
      <trkpt lat="47.42444" lon="-0.52904">
        <ele>15.199219</ele>
        <time>2014-09-01T14:54:33.000Z</time>
      </trkpt>
      <trkpt lat="47.42474" lon="-0.52911">
        <ele>18.699219</ele>
        <time>2014-09-01T14:54:44.000Z</time>
      </trkpt>
      <trkpt lat="47.42495" lon="-0.52915">
        <ele>19.097656</ele>
        <time>2014-09-01T14:54:50.000Z</time>
      </trkpt>
      <trkpt lat="47.42507" lon="-0.52915">
        <ele>19.5</ele>
        <time>2014-09-01T14:54:53.000Z</time>
      </trkpt>
      <trkpt lat="47.42517" lon="-0.52913">
        <ele>19.398438</ele>
        <time>2014-09-01T14:54:56.000Z</time>
      </trkpt>
      <trkpt lat="47.42526" lon="-0.52908">
        <ele>19.296875</ele>
        <time>2014-09-01T14:54:59.000Z</time>
      </trkpt>
      <trkpt lat="47.42535" lon="-0.52905">
        <ele>18.699219</ele>
        <time>2014-09-01T14:55:02.000Z</time>
      </trkpt>
      <trkpt lat="47.4254" lon="-0.52918">
        <ele>18.296875</ele>
        <time>2014-09-01T14:55:06.000Z</time>
      </trkpt>
      <trkpt lat="47.42539" lon="-0.52932">
        <ele>17.699219</ele>
        <time>2014-09-01T14:55:10.000Z</time>
      </trkpt>
      <trkpt lat="47.42547" lon="-0.5294">
        <ele>17.808594</ele>
        <time>2014-09-01T14:55:45.000Z</time>
      </trkpt>
    </trkseg>
  </trk>
</gpx>